Provisional Data: Conodoguinet Creek near Schlusser, PA


Please select a monitoring station.
Please select start date.
Please select start date.

Toggle Unit: C/F Toggle Unit: C/F
Sample Time Temperature (C) Temperature (F) Specific Conductivity (mS/cm) pH   Turbidity (NTU+) DO (mg/L)
4/18/2023 12:00:00 AM 16.75 62.15 0.3 7.93 7.43 8.79
4/18/2023 12:15:00 AM 16.7 62.06 0.299 7.93 8.28 8.8
4/18/2023 12:30:00 AM 16.69 62.042 0.299 7.94 8.24 8.81
4/18/2023 12:45:00 AM 16.68 62.024 0.3 7.94 6.96 8.83
4/18/2023 1:00:00 AM 16.67 62.006 0.3 7.94 5.07 8.84
4/18/2023 1:15:00 AM 16.65 61.97 0.3 7.94 5.43 8.84
4/18/2023 1:30:00 AM 16.65 61.97 0.301 7.94 14.5 8.83
4/18/2023 1:45:00 AM 16.65 61.97 0.301 7.95 9.47 8.85
4/18/2023 2:00:00 AM 16.65 61.97 0.301 7.95 5.36 8.85
4/18/2023 2:15:00 AM 16.61 61.898 0.301 7.95 5.72 8.86
4/18/2023 2:30:00 AM 16.57 61.826 0.301 7.95 6.99 8.86
4/18/2023 2:45:00 AM 16.54 61.772 0.301 7.96 5.43 8.87
4/18/2023 3:00:00 AM 16.5 61.7 0.301 7.96 5.28 8.87
4/18/2023 3:15:00 AM 16.45 61.61 0.3 7.96 5.3 8.86
4/18/2023 3:30:00 AM 16.39 61.502 0.3 7.96 5.54 8.87
4/18/2023 3:45:00 AM 16.34 61.412 0.3 7.96 5.58 8.89
4/18/2023 4:00:00 AM 16.27 61.286 0.301 7.96 5.78 8.87
4/18/2023 4:15:00 AM 16.23 61.214 0.301 7.96 5.65 8.88
4/18/2023 4:30:00 AM 16.16 61.088 0.301 7.95 6.93 8.88
4/18/2023 4:45:00 AM 16.08 60.944 0.301 7.95 10.08 8.88
4/18/2023 5:00:00 AM 16.03 60.854 0.301 7.95 6.64 8.89
4/18/2023 5:15:00 AM 15.96 60.728 0.301 7.95 4.39 8.89
4/18/2023 5:30:00 AM 15.9 60.62 0.302 7.95 6.06 8.89
4/18/2023 5:45:00 AM 15.84 60.512 0.302 7.94 8.2 8.91
4/18/2023 6:00:00 AM 15.78 60.404 0.275 7.94 6.84 8.89
4/18/2023 6:15:00 AM 15.71 60.278 0.302 7.94 5.5 8.89
4/18/2023 6:30:00 AM 15.64 60.152 0.303 7.93 4.75 8.89
4/18/2023 6:45:00 AM 15.58 60.044 0.303 7.92 6.73 8.88
4/18/2023 7:00:00 AM 15.53 59.954 0.304 7.92 5.26 8.88
4/18/2023 7:15:00 AM 15.46 59.828 0.304 7.92 4.82 8.88
4/18/2023 7:30:00 AM 15.4 59.72 0.304 7.91 5.76 8.88
4/18/2023 7:45:00 AM 15.33 59.594 0.305 7.91 4.62 8.89
4/18/2023 8:00:00 AM 15.24 59.432 0.305 7.91 5.08 8.91
4/18/2023 8:15:00 AM 15.19 59.342 0.305 7.91 4.93 8.94
4/18/2023 8:30:00 AM 15.13 59.234 0.305 7.9 5.27 8.96
4/18/2023 8:45:00 AM 15.08 59.144 0.306 7.91 4.15 9.01
4/18/2023 9:00:00 AM 15.02 59.036 0.306 7.91 3.97 9.04
4/18/2023 9:15:00 AM 14.99 58.982 0.307 7.91 4.96 9.08
4/18/2023 9:30:00 AM 14.95 58.91 0.307 7.91 4.49 9.13
4/18/2023 9:45:00 AM 14.9 58.82 0.302 7.91 4.66 9.15
4/18/2023 10:00:00 AM 14.85 58.73 0.264 7.91 3.81 9.21
4/18/2023 10:15:00 AM 14.79 58.622 0.286 7.91 3.78 9.25
4/18/2023 10:30:00 AM 14.74 58.532 0.282 7.91 3.63 9.26
4/18/2023 10:45:00 AM 14.68 58.424 0.274 7.91 3.85 9.29
4/18/2023 11:00:00 AM 14.64 58.352 0.31 7.92 3.42 9.35
4/18/2023 11:15:00 AM 14.61 58.298 0.31 7.92 3.74 9.42
4/18/2023 11:30:00 AM 14.56 58.208 0.31 7.92 3.61 9.47
4/18/2023 11:45:00 AM 14.51 58.118 0.311 7.92 3.99 9.51
4/18/2023 12:00:00 PM 14.51 58.118 0.311 7.93 3.64 9.61
4/18/2023 12:15:00 PM 14.63 58.334 0.311 7.94 3.81 9.75
4/18/2023 12:30:00 PM 14.75 58.55 0.311 7.95 3.93 9.86
4/18/2023 12:45:00 PM 14.96 58.928 0.312 7.96 3.54 10
4/18/2023 1:00:00 PM 15.18 59.324 0.312 7.97 3.89 10.12
4/18/2023 1:15:00 PM 15.35 59.63 0.312 7.99 3.69 10.24
4/18/2023 1:30:00 PM 15.57 60.026 0.313 8 3.7 10.34
4/18/2023 1:45:00 PM 15.74 60.332 0.313 8.01 3.44 10.41
4/18/2023 2:00:00 PM 15.9 60.62 0.314 8.02 3.74 10.46
4/18/2023 2:15:00 PM 16.04 60.872 0.28 8.02 3.87 10.49
4/18/2023 2:30:00 PM 16.16 61.088 0.314 8.02 3.97 10.5
4/18/2023 2:45:00 PM 16.23 61.214 0.315 8.02 4.78 10.51
4/18/2023 3:00:00 PM 16.33 61.394 0.315 8.03 3.39 10.54
4/18/2023 3:15:00 PM 16.35 61.43 0.315 8.03 3.25 10.55
4/18/2023 3:30:00 PM 16.35 61.43 0.316 8.03 4.49 10.56
4/18/2023 3:45:00 PM 16.38 61.484 0.316 8.04 4.03 10.55
4/18/2023 4:00:00 PM 16.36 61.448 0.316 8.04 3.24 10.57
4/18/2023 4:15:00 PM 16.33 61.394 0.316 8.04 17.42 10.53
4/18/2023 4:30:00 PM 16.26 61.268 0.307 8.04 3.91 10.54
4/18/2023 4:45:00 PM 16.17 61.106 0.316 8.04 5.1 10.51
4/18/2023 5:00:00 PM 16.06 60.908 0.317 8.04 7.25 10.48
4/18/2023 5:15:00 PM 15.98 60.764 0.317 8.04 4.55 10.46
4/18/2023 5:30:00 PM 15.84 60.512 0.317 8.04 3.93 10.41
4/18/2023 5:45:00 PM 15.7 60.26 0.317 8.04 4.27 10.37
4/18/2023 6:00:00 PM 15.46 59.828 0.317 8.04 3.92 10.3
4/18/2023 6:15:00 PM 15.26 59.468 0.318 8.03 3.57 10.21
4/18/2023 6:30:00 PM 15.09 59.162 0.318 8.02 12.35 10.12
4/18/2023 6:45:00 PM 14.91 58.838 0.319 8.02 5.32 10.03
4/18/2023 7:00:00 PM 14.74 58.532 0.319 8.01 4.58 9.93
4/18/2023 7:15:00 PM 14.59 58.262 0.319 8 3.02 9.85
4/18/2023 7:30:00 PM 14.46 58.028 0.319 7.99 3.86 9.75
4/18/2023 7:45:00 PM 14.36 57.848 0.32 7.98 3.43 9.66
4/18/2023 8:00:00 PM 14.27 57.686 0.32 7.97 3.96 9.59
4/18/2023 8:15:00 PM 14.19 57.542 0.32 7.96 3.64 9.51
4/18/2023 8:30:00 PM 14.14 57.452 0.321 7.96 3.21 9.44
4/18/2023 8:45:00 PM 14.11 57.398 0.321 7.95 3.7 9.4
4/18/2023 9:00:00 PM 14.08 57.344 0.322 7.94 4.29 9.37
4/18/2023 9:15:00 PM 14.06 57.308 0.322 7.94 3.15 9.35
4/18/2023 9:30:00 PM 14.04 57.272 0.321 7.94 3.47 9.36
4/18/2023 9:45:00 PM 14.02 57.236 0.32 7.94 3.94 9.35
4/18/2023 10:00:00 PM 13.97 57.146 0.323 7.94 3.46 9.36
4/18/2023 10:15:00 PM 13.97 57.146 0.323 7.94 3.06 9.38
4/18/2023 10:30:00 PM 13.93 57.074 0.323 7.95 4.4 9.4
4/18/2023 10:45:00 PM 13.92 57.056 0.323 7.95 3.67 9.42
4/18/2023 11:00:00 PM 13.9 57.02 0.324 7.96 4.21 9.45
4/18/2023 11:15:00 PM 13.9 57.02 0.324 7.96 3.06 9.46
4/18/2023 11:30:00 PM 13.89 57.002 0.324 7.96 3.77 9.47
4/18/2023 11:45:00 PM 13.9 57.02 0.324 7.97 3.34 9.5
4/19/2023 12:00:00 AM 13.89 57.002 0.32 7.97 5.89 9.5
4/19/2023 12:15:00 AM 13.92 57.056 0.32 7.98 7.34 9.53
4/19/2023 12:30:00 AM 13.94 57.092 0.325 7.99 4.34 9.53
4/19/2023 12:45:00 AM 13.95 57.11 0.326 8 4.08 9.56
4/19/2023 1:00:00 AM 13.98 57.164 0.327 8 5.71 9.56
4/19/2023 1:15:00 AM 13.96 57.128 0.327 8 4.88 9.58
4/19/2023 1:30:00 AM 13.96 57.128 0.327 8.01 3.89 9.57
4/19/2023 1:45:00 AM 13.98 57.164 0.328 8.02 3.46 9.59
4/19/2023 2:00:00 AM 13.98 57.164 0.328 8.02 3.07 9.6
4/19/2023 2:15:00 AM 14 57.2 0.328 8.03 3.29 9.6
4/19/2023 2:30:00 AM 13.98 57.164 0.328 8.03 3.2 9.61
4/19/2023 2:45:00 AM 13.97 57.146 0.328 8.04 5.31 9.61
4/19/2023 3:00:00 AM 13.96 57.128 0.328 8.04 3.74 9.63
4/19/2023 3:15:00 AM 13.94 57.092 0.327 8.05 4.05 9.66
4/19/2023 3:30:00 AM 13.89 57.002 0.328 8.04 3.14 9.63
4/19/2023 3:45:00 AM 13.85 56.93 0.328 8.04 3.58 9.66
4/19/2023 4:00:00 AM 13.8 56.84 0.329 8.05 3.73 9.67
4/19/2023 4:15:00 AM 13.76 56.768 0.329 8.04 3.12 9.68
4/19/2023 4:30:00 AM 13.7 56.66 0.329 8.04 3.26 9.67
4/19/2023 4:45:00 AM 13.65 56.57 0.329 8.04 2.9 9.69
4/19/2023 5:00:00 AM 13.6 56.48 0.33 8.05 4.12 9.68
4/19/2023 5:15:00 AM 13.56 56.408 0.33 8.04 3.59 9.7
4/19/2023 5:30:00 AM 13.51 56.318 0.33 8.04 3.94 9.72
4/19/2023 5:45:00 AM 13.45 56.21 0.33 8.04 4.2 9.73
4/19/2023 6:00:00 AM 13.38 56.084 0.331 8.04 3.31 9.72
4/19/2023 6:15:00 AM 13.32 55.976 0.331 8.04 4.09 9.74
4/19/2023 6:30:00 AM 13.26 55.868 0.331 8.04 4.26 9.74
4/19/2023 6:45:00 AM 13.19 55.742 0.331 8.04 3.97 9.75
4/19/2023 7:00:00 AM 13.14 55.652 0.331 8.03 3.81 9.8
4/19/2023 7:15:00 AM 13.08 55.544 0.331 8.03 4.52 9.81
4/19/2023 7:30:00 AM 13.04 55.472 0.331 8.03 4.04 9.83
4/19/2023 7:45:00 AM 13.01 55.418 0.332 8.03 3.16 9.87
4/19/2023 8:00:00 AM 13 55.4 0.332 8.04 3.28 9.93
4/19/2023 8:15:00 AM 12.99 55.382 0.332 8.04 4.86 10.02
4/19/2023 8:30:00 AM 13.01 55.418 0.332 8.04 2.75 10.08
4/19/2023 8:45:00 AM 13.02 55.436 0.332 8.05 3.24 10.15
4/19/2023 9:00:00 AM 13.04 55.472 0.333 8.06 2.82 10.25
4/19/2023 9:15:00 AM 13.06 55.508 0.333 8.06 3.04 10.34
4/19/2023 9:30:00 AM 13.08 55.544 0.333 8.07 3.69 10.42
4/19/2023 9:45:00 AM 13.11 55.598 0.334 8.07 2.6 10.5
4/19/2023 10:00:00 AM 13.13 55.634 0.334 8.08 2.96 10.58
4/19/2023 10:15:00 AM 13.16 55.688 0.335 8.09 3.54 10.65
4/19/2023 10:30:00 AM 13.21 55.778 0.335 8.09 3.57 10.72
4/19/2023 10:45:00 AM 13.26 55.868 0.335 8.1 2.44 10.79
4/19/2023 11:00:00 AM 13.34 56.012 0.335 8.1 3.1 10.86
4/19/2023 11:15:00 AM 13.43 56.174 0.334 8.11 2.75 10.9
4/19/2023 11:30:00 AM 13.56 56.408 0.308 8.11 2.53 10.96
4/19/2023 11:45:00 AM 13.67 56.606 0.2 8.11 2.41 11.01
4/19/2023 12:00:00 PM 13.81 56.858 0.332 8.12 2.3 11.04
4/19/2023 12:15:00 PM 13.98 57.164 0.317 8.12 2.6 11.08
4/19/2023 12:30:00 PM 14.14 57.452 0.337 8.12 2.46 11.12
4/19/2023 12:45:00 PM 14.32 57.776 0.338 8.12 2.67 11.16
4/19/2023 1:00:00 PM 14.5 58.1 0.338 8.12 2.36 11.19
4/19/2023 1:15:00 PM 14.67 58.406 0.339 8.12 2.77 11.22
4/19/2023 1:30:00 PM 14.82 58.676 0.339 8.12 2.86 11.25
4/19/2023 1:45:00 PM 14.95 58.91 0.339 8.12 2.34 11.27
4/19/2023 2:00:00 PM 15.09 59.162 0.34 8.12 2.66 11.27
4/19/2023 2:15:00 PM 15.2 59.36 0.341 8.12 2.43 11.27
4/19/2023 2:30:00 PM 15.37 59.666 0.341 8.12 2.41 11.29
4/19/2023 2:45:00 PM 15.46 59.828 0.341 8.12 2.28 11.3
4/19/2023 3:00:00 PM 15.57 60.026 0.341 8.12 2.18 11.31
4/19/2023 3:15:00 PM 15.69 60.242 0.341 8.12 2.36 11.31
4/19/2023 3:30:00 PM 15.76 60.368 0.341 8.12 5.12 11.28
4/19/2023 3:45:00 PM 15.83 60.494 0.342 8.12 3.37 11.28
4/19/2023 4:00:00 PM 15.88 60.584 0.342 8.12 2.35 11.26
4/19/2023 4:15:00 PM 15.85 60.53 0.342 8.12 2.62 11.24
4/19/2023 4:30:00 PM 15.86 60.548 0.343 8.12 2.71 11.22
4/19/2023 4:45:00 PM 15.85 60.53 0.343 8.12 2.25 11.18
4/19/2023 5:00:00 PM 15.75 60.35 0.343 8.12 2.22 11.15
4/19/2023 5:15:00 PM 15.7 60.26 0.343 8.12 2.82 11.1
4/19/2023 5:30:00 PM 15.59 60.062 0.343 8.12 2.28 11.07
4/19/2023 5:45:00 PM 15.42 59.756 0.344 8.11 2.33 11.02
4/19/2023 6:00:00 PM 15.25 59.45 0.344 8.11 2.16 10.92
4/19/2023 6:15:00 PM 15.08 59.144 0.344 8.11 2.29 10.84
4/19/2023 6:30:00 PM 14.86 58.748 0.345 8.1 2.03 10.74
4/19/2023 6:45:00 PM 14.67 58.406 0.345 8.09 2.71 10.64
4/19/2023 7:00:00 PM 14.5 58.1 0.345 8.09 1.73 10.54
4/19/2023 7:15:00 PM 14.39 57.902 0.346 8.08 2.03 10.45
4/19/2023 7:30:00 PM 14.27 57.686 0.346 8.06 10.73 10.34
4/19/2023 7:45:00 PM 14.16 57.488 0.347 8.05 2.02 10.25
4/19/2023 8:00:00 PM 14.09 57.362 0.347 8.04 2.06 10.14
4/19/2023 8:15:00 PM 14.02 57.236 0.347 8.03 2.68 10.04
4/19/2023 8:30:00 PM 13.97 57.146 0.348 8.02 2.14 9.97
4/19/2023 8:45:00 PM 13.94 57.092 0.348 8.02 1.86 9.92
4/19/2023 9:00:00 PM 13.91 57.038 0.348 8.01 2.49 9.87
4/19/2023 9:15:00 PM 13.9 57.02 0.349 8.01 3.46 9.83
4/19/2023 9:30:00 PM 13.88 56.984 0.349 8 2.62 9.81
4/19/2023 9:45:00 PM 13.88 56.984 0.349 8 2.56 9.81
4/19/2023 10:00:00 PM 13.89 57.002 0.349 8.01 2.66 9.79
4/19/2023 10:15:00 PM 13.9 57.02 0.349 8.01 2.54 9.78
4/19/2023 10:30:00 PM 13.91 57.038 0.349 8.01 2.59 9.81
4/19/2023 10:45:00 PM 13.95 57.11 0.349 8.02 2.12 9.81
4/19/2023 11:00:00 PM 13.98 57.164 0.349 8.02 2.24 9.83
4/19/2023 11:15:00 PM 14.02 57.236 0.349 8.03 2.28 9.83
4/19/2023 11:30:00 PM 14.05 57.29 0.349 8.03 2.83 9.83
4/19/2023 11:45:00 PM 14.11 57.398 0.349 8.04 3.09 9.83
4/20/2023 12:00:00 AM 14.14 57.452 0.349 8.04 2.09 9.84
4/20/2023 12:15:00 AM 14.19 57.542 0.349 8.05 2.53 9.84
4/20/2023 12:30:00 AM 14.21 57.578 0.349 8.04 2.35 9.8
4/20/2023 12:45:00 AM 14.29 57.722 0.35 8.05 2.35 9.82
4/20/2023 1:00:00 AM 14.35 57.83 0.35 8.06 2.57 9.81
4/20/2023 1:15:00 AM 14.43 57.974 0.35 8.06 2.66 9.8
4/20/2023 1:30:00 AM 14.48 58.064 0.35 8.06 7.08 9.8
4/20/2023 1:45:00 AM 14.54 58.172 0.35 8.07 2.5 9.8
4/20/2023 2:00:00 AM 14.58 58.244 0.351 8.07 2.32 9.79
4/20/2023 2:15:00 AM 14.64 58.352 0.351 8.07 3.19 9.77
4/20/2023 2:30:00 AM 14.69 58.442 0.351 8.08 3.12 9.77
4/20/2023 2:45:00 AM 14.71 58.478 0.351 8.08 3.56 9.74
4/20/2023 3:00:00 AM 14.74 58.532 0.351 8.09 3.1 9.73
4/20/2023 3:15:00 AM 14.78 58.604 0.351 8.09 2.86 9.73
4/20/2023 3:30:00 AM 14.78 58.604 0.351 8.09 2.42 9.7
4/20/2023 3:45:00 AM 14.82 58.676 0.351 8.09 2.53 9.71
4/20/2023 4:00:00 AM 14.83 58.694 0.351 8.09 3.26 9.69
4/20/2023 4:15:00 AM 14.83 58.694 0.351 8.1 3.64 9.67
4/20/2023 4:30:00 AM 14.83 58.694 0.351 8.09 3.38 9.66
4/20/2023 4:45:00 AM 14.85 58.73 0.351 8.1 3.12 9.66
4/20/2023 5:00:00 AM 14.82 58.676 0.351 8.1 2.7 9.65
4/20/2023 5:15:00 AM 14.8 58.64 0.351 8.1 3 9.64
4/20/2023 5:30:00 AM 14.77 58.586 0.351 8.1 2.48 9.62
4/20/2023 5:45:00 AM 14.74 58.532 0.352 8.1 3.29 9.61
4/20/2023 6:00:00 AM 14.72 58.496 0.351 8.09 3.97 9.6
4/20/2023 6:15:00 AM 14.68 58.424 0.352 8.09 3.14 9.61
4/20/2023 6:30:00 AM 14.65 58.37 0.351 8.09 2.74 9.59
4/20/2023 6:45:00 AM 14.61 58.298 0.351 8.08 7.49 9.59
4/20/2023 7:00:00 AM 14.61 58.298 0.351 8.08 3.12 9.61
4/20/2023 7:15:00 AM 14.59 58.262 0.351 8.08 3.25 9.61
4/20/2023 7:30:00 AM 14.59 58.262 0.351 8.09 2.79 9.66
4/20/2023 7:45:00 AM 14.58 58.244 0.351 8.09 2.93 9.7
4/20/2023 8:00:00 AM 14.59 58.262 0.351 8.1 2.66 9.78
4/20/2023 8:15:00 AM 14.61 58.298 0.351 8.1 2.55 9.84
4/20/2023 8:30:00 AM 14.63 58.334 0.351 8.11 2.51 9.92
4/20/2023 8:45:00 AM 14.65 58.37 0.351 8.12 1.94 10.01
4/20/2023 9:00:00 AM 14.68 58.424 0.351 8.12 4 10.1
4/20/2023 9:15:00 AM 14.73 58.514 0.352 8.13 3.41 10.2
4/20/2023 9:30:00 AM 14.77 58.586 0.352 8.14 2.8 10.27
4/20/2023 9:45:00 AM 14.81 58.658 0.352 8.15 2.15 10.36
4/20/2023 10:00:00 AM 14.86 58.748 0.352 8.15 4.92 10.44
4/20/2023 10:15:00 AM 14.9 58.82 0.352 8.16 3.24 10.54
4/20/2023 10:30:00 AM 14.96 58.928 0.353 8.16 3.19 10.6
4/20/2023 10:45:00 AM 15.04 59.072 0.353 8.17 1.8 10.65
4/20/2023 11:00:00 AM 15.13 59.234 0.352 8.17 2.31 10.73
4/20/2023 11:15:00 AM 15.24 59.432 0.353 8.17 2.69 10.8
4/20/2023 11:30:00 AM 15.36 59.648 0.353 8.18 2.2 10.86
4/20/2023 11:45:00 AM 15.5 59.9 0.353 8.18 2.39 10.92
4/20/2023 12:00:00 PM 15.66 60.188 0.353 8.18 2.41 10.98
4/20/2023 12:15:00 PM 15.81 60.458 0.353 8.18 2.19 11.01
4/20/2023 12:30:00 PM 15.99 60.782 0.354 8.18 2.25 11.06
4/20/2023 12:45:00 PM 16.19 61.142 0.354 8.17 5.44 11.08
4/20/2023 1:00:00 PM 16.36 61.448 0.354 8.18 2.28 11.12
4/20/2023 1:15:00 PM 16.58 61.844 0.355 8.18 3.59 11.16
4/20/2023 1:30:00 PM 16.78 62.204 0.355 8.17 2.69 11.18
4/20/2023 1:45:00 PM 16.91 62.438 0.355 8.17 2.72 11.21
4/20/2023 2:00:00 PM 17.1 62.78 0.355 8.17 3.26 11.22
4/20/2023 2:15:00 PM 17.27 63.086 0.356 8.17 2.23 11.23
4/20/2023 2:30:00 PM 17.42 63.356 0.356 8.17 2.31 11.23
4/20/2023 2:45:00 PM 17.55 63.59 0.356 8.17 2.86 11.22
4/20/2023 3:00:00 PM 17.68 63.824 0.357 8.16 2.51 11.22
4/20/2023 3:15:00 PM 17.77 63.986 0.357 8.16 3.23 11.23
4/20/2023 3:30:00 PM 17.91 64.238 0.357 8.16 2.45 11.21
4/20/2023 3:45:00 PM 17.92 64.256 0.358 8.16 2.23 11.19
4/20/2023 4:00:00 PM 17.95 64.31 0.358 8.15 2.46 11.13
4/20/2023 4:15:00 PM 17.92 64.256 0.358 8.15 2.89 11.09
4/20/2023 4:30:00 PM 17.89 64.202 0.358 8.14 2.47 11.05
4/20/2023 4:45:00 PM 17.9 64.22 0.358 8.14 2.42 11.01
4/20/2023 5:00:00 PM 17.86 64.148 0.359 8.14 2.3 10.97
4/20/2023 5:15:00 PM 17.84 64.112 0.358 8.14 2.45 10.92
4/20/2023 5:30:00 PM 17.75 63.95 0.359 8.13 2.11 10.84
4/20/2023 5:45:00 PM 17.65 63.77 0.359 8.13 1.87 10.75
4/20/2023 6:00:00 PM 17.52 63.536 0.36 8.12 1.88 10.68
4/20/2023 6:15:00 PM 17.39 63.302 0.36 8.11 1.92 10.57
4/20/2023 6:30:00 PM 17.2 62.96 0.361 8.1 2.26 10.44
4/20/2023 6:45:00 PM 17.1 62.78 0.361 8.09 2.14 10.3
4/20/2023 7:00:00 PM 16.98 62.564 0.362 8.08 2.86 10.15
4/20/2023 7:15:00 PM 16.84 62.312 0.363 8.07 1.87 10.03
4/20/2023 7:30:00 PM 16.75 62.15 0.363 8.06 2.98 9.88
4/20/2023 7:45:00 PM 16.65 61.97 0.363 8.04 2.51 9.73
4/20/2023 8:00:00 PM 16.58 61.844 0.363 8.02 2.64 9.59
4/20/2023 8:15:00 PM 16.5 61.7 0.363 8.01 5.58 9.46
4/20/2023 8:30:00 PM 16.43 61.574 0.363 8 4.08 9.35
4/20/2023 8:45:00 PM 16.37 61.466 0.363 7.98 3.1 9.28
4/20/2023 9:00:00 PM 16.31 61.358 0.363 7.97 3.43 9.22
4/20/2023 9:15:00 PM 16.27 61.286 0.363 7.97 3.18 9.17
4/20/2023 9:30:00 PM 16.25 61.25 0.363 7.96 2.01 9.11
4/20/2023 9:45:00 PM 16.23 61.214 0.363 7.96 1.67 9.11
4/20/2023 10:00:00 PM 16.22 61.196 0.364 7.95 3.33 9.11
4/20/2023 10:15:00 PM 16.22 61.196 0.364 7.95 3.39 9.09
4/20/2023 10:30:00 PM 16.22 61.196 0.364 7.95 3 9.11
4/20/2023 10:45:00 PM 16.23 61.214 0.364 7.95 3.41 9.09
4/20/2023 11:00:00 PM 16.23 61.214 0.365 7.96 2.37 9.11
4/20/2023 11:15:00 PM 16.25 61.25 0.365 7.96 3.1 9.1
4/20/2023 11:30:00 PM 16.27 61.286 0.365 7.96 2 9.09
4/20/2023 11:45:00 PM 16.31 61.358 0.365 7.96 2.46 9.12
4/21/2023 12:00:00 AM 16.35 61.43 0.365 7.97 4.08 9.11
4/21/2023 12:15:00 AM 16.39 61.502 0.365 7.97 2.08 9.12
4/21/2023 12:30:00 AM 16.43 61.574 0.364 7.97 3.46 9.12
4/21/2023 12:45:00 AM 16.49 61.682 0.364 7.98 2.37 9.14
4/21/2023 1:00:00 AM 16.55 61.79 0.364 7.99 3.58 9.11
4/21/2023 1:15:00 AM 16.62 61.916 0.363 8 2.88 9.13
4/21/2023 1:30:00 AM 16.67 62.006 0.363 8 3.01 9.12
4/21/2023 1:45:00 AM 16.74 62.132 0.363 8 2.58 9.1
4/21/2023 2:00:00 AM 16.8 62.24 0.363 8.01 3.23 9.1
4/21/2023 2:15:00 AM 16.84 62.312 0.363 8.01 2.76 9.08
4/21/2023 2:30:00 AM 16.89 62.402 0.363 8.01 2.63 9.06
4/21/2023 2:45:00 AM 16.93 62.474 0.363 8.01 3.2 9.06
4/21/2023 3:00:00 AM 16.97 62.546 0.363 8.02 2.12 9.03
4/21/2023 3:15:00 AM 17.01 62.618 0.363 8.03 2.66 9.05
4/21/2023 3:30:00 AM 17.06 62.708 0.363 8.03 2.82 9.07
4/21/2023 3:45:00 AM 17.07 62.726 0.364 8.03 2.17 9.01
4/21/2023 4:00:00 AM 17.11 62.798 0.364 8.04 4.91 9.03
4/21/2023 4:15:00 AM 17.13 62.834 0.364 8.04 2.2 9.02
4/21/2023 4:30:00 AM 17.14 62.852 0.365 8.05 2.9 9
4/21/2023 4:45:00 AM 17.16 62.888 0.365 8.05 2.69 9
4/21/2023 5:00:00 AM 17.16 62.888 0.366 8.05 2.91 8.98
4/21/2023 5:15:00 AM 17.17 62.906 0.366 8.06 3.18 8.97
4/21/2023 5:30:00 AM 17.17 62.906 0.367 8.06 3.54 8.95
4/21/2023 5:45:00 AM 17.16 62.888 0.367 8.06 2.69 8.95
4/21/2023 6:00:00 AM 17.17 62.906 0.368 8.06 2.5 8.93
4/21/2023 6:15:00 AM 17.17 62.906 0.368 8.06 3.31 8.92
4/21/2023 6:30:00 AM 17.15 62.87 0.368 8.06 2.62 8.9
4/21/2023 6:45:00 AM 17.12 62.816 0.368 8.06 2.81 8.87
4/21/2023 7:00:00 AM 17.11 62.798 0.368 8.06 2.64 8.88
4/21/2023 7:15:00 AM 17.12 62.816 0.367 8.06 2.39 8.91
4/21/2023 7:30:00 AM 17.11 62.798 0.367 8.06 3.25 8.94
4/21/2023 7:45:00 AM 17.12 62.816 0.367 8.07 4.15 8.98
4/21/2023 8:00:00 AM 17.13 62.834 0.366 8.07 2.64 9.05
4/21/2023 8:15:00 AM 17.14 62.852 0.366 8.08 2.49 9.09
4/21/2023 8:30:00 AM 17.17 62.906 0.366 8.09 2.45 9.23
4/21/2023 8:45:00 AM 17.22 62.996 0.366 8.1 4.06 9.32
4/21/2023 9:00:00 AM 17.27 63.086 0.365 8.11 2.34 9.43
4/21/2023 9:15:00 AM 17.32 63.176 0.365 8.12 4.09 9.53
4/21/2023 9:30:00 AM 17.38 63.284 0.365 8.13 2.64 9.65
4/21/2023 9:45:00 AM 17.44 63.392 0.365 8.14 2.38 9.72
4/21/2023 10:00:00 AM 17.5 63.5 0.365 8.15 2.48 9.83
4/21/2023 10:15:00 AM 17.57 63.626 0.365 8.15 2.03 9.93
4/21/2023 10:30:00 AM 17.65 63.77 0.365 8.16 1.86 10.03
4/21/2023 10:45:00 AM 17.73 63.914 0.365 8.17 2.14 10.12
4/21/2023 11:00:00 AM 17.84 64.112 0.365 8.17 3.55 10.21
4/21/2023 11:15:00 AM 17.95 64.31 0.365 8.18 2.42 10.3
4/21/2023 11:30:00 AM 18.09 64.562 0.364 8.18 2.07 10.37
4/21/2023 11:45:00 AM 18.25 64.85 0.365 8.19 2.86 10.45
4/21/2023 12:00:00 PM 18.42 65.156 0.357 8.19 2.48 10.51
4/21/2023 12:15:00 PM 18.6 65.48 0.361 8.19 3.39 10.56
4/21/2023 12:30:00 PM 18.81 65.858 0.365 8.19 2.32 10.64
4/21/2023 12:45:00 PM 19.02 66.236 0.363 8.19 2.23 10.7
4/21/2023 1:00:00 PM 19.24 66.632 0.365 8.19 4.6 10.73
4/21/2023 1:15:00 PM 19.44 66.992 0.365 8.19 2.64 10.76
4/21/2023 1:30:00 PM 19.64 67.352 0.365 8.19 3.56 10.82
4/21/2023 1:45:00 PM 19.83 67.694 0.359 8.19 2.34 10.86
4/21/2023 2:00:00 PM 19.97 67.946 0.366 8.18 3.27 10.85
4/21/2023 2:15:00 PM 20.08 68.144 0.366 8.18 2.38 10.83
4/21/2023 2:30:00 PM 20.27 68.486 0.367 8.18 2.34 10.84
4/21/2023 2:45:00 PM 20.38 68.684 0.367 8.18 2.3 10.84
4/21/2023 3:00:00 PM 20.44 68.792 0.367 8.17 2.38 10.81
4/21/2023 3:15:00 PM 20.55 68.99 0.366 8.17 3.13 10.78
4/21/2023 3:30:00 PM 20.62 69.116 0.368 8.17 2.76 10.75
4/21/2023 3:45:00 PM 20.65 69.17 0.368 8.16 2.96 10.68
4/21/2023 4:00:00 PM 20.73 69.314 0.367 8.15 7.8 10.67
4/21/2023 4:15:00 PM 20.69 69.242 0.369 8.14 4.56 10.63
4/21/2023 4:30:00 PM 20.65 69.17 0.369 8.13 4.57 10.56
4/21/2023 4:45:00 PM 20.58 69.044 0.369 8.13 3.45 10.51
4/21/2023 5:00:00 PM 20.49 68.882 0.37 8.13 4.79 10.45
4/21/2023 5:15:00 PM 20.27 68.486 0.37 8.12 4.52 10.29
4/21/2023 5:30:00 PM 20 68 0.371 8.1 3.58 10.08
4/21/2023 5:45:00 PM 19.78 67.604 0.371 8.08 5.87 9.87
4/21/2023 6:00:00 PM 19.62 67.316 0.371 8.07 3.56 9.65
4/21/2023 6:15:00 PM 19.48 67.064 0.371 8.05 2.74 9.47
4/21/2023 6:30:00 PM 19.29 66.722 0.37 8.03 2.38 9.23
4/21/2023 6:45:00 PM 19.12 66.416 0.372 8 2.63 9
4/21/2023 7:00:00 PM 19.06 66.308 0.37 7.98 2.14 8.84
4/21/2023 7:15:00 PM 18.96 66.128 0.372 7.96 2.77 8.73
4/21/2023 7:30:00 PM 18.87 65.966 0.372 7.95 2.97 8.64
4/21/2023 7:45:00 PM 18.79 65.82201 0.372 7.94 2.56 8.55
4/21/2023 8:00:00 PM 18.71 65.67799 0.373 7.92 2.29 8.46
4/21/2023 8:15:00 PM 18.63 65.534 0.363 7.92 2.21 8.4
4/21/2023 8:30:00 PM 18.56 65.408 0.373 7.91 2.74 8.35
4/21/2023 8:45:00 PM 18.5 65.3 0.374 7.9 2.66 8.3
4/21/2023 9:00:00 PM 18.45 65.21 0.374 7.89 2.89 8.25
4/21/2023 9:15:00 PM 18.41 65.138 0.375 7.88 2.6 8.22
4/21/2023 9:30:00 PM 18.38 65.084 0.375 7.88 3.35 8.18
4/21/2023 9:45:00 PM 18.35 65.03 0.375 7.88 3.21 8.17
4/21/2023 10:00:00 PM 18.34 65.012 0.376 7.88 2.42 8.16
4/21/2023 10:15:00 PM 18.32 64.976 0.376 7.88 2.54 8.17
4/21/2023 10:30:00 PM 18.31 64.958 0.376 7.88 2.34 8.18
4/21/2023 10:45:00 PM 18.31 64.958 0.377 7.88 2.61 8.17
4/21/2023 11:00:00 PM 18.33 64.994 0.376 7.89 8.37 8.22
4/21/2023 11:15:00 PM 18.33 64.994 0.376 7.9 2.59 8.23
4/21/2023 11:30:00 PM 18.34 65.012 0.375 7.9 3.57 8.23
4/21/2023 11:45:00 PM 18.37 65.066 0.375 7.9 2.91 8.25
4/22/2023 12:00:00 AM 18.39 65.102 0.375 7.9 3.32 8.24
4/22/2023 12:15:00 AM 18.41 65.138 0.374 7.91 2.13 8.24
4/22/2023 12:30:00 AM 18.47 65.246 0.374 7.91 20.42 8.26
4/22/2023 12:45:00 AM 18.49 65.282 0.373 7.91 3.06 8.23
4/22/2023 1:00:00 AM 18.53 65.354 0.373 7.92 2.72 8.25
4/22/2023 1:15:00 AM 18.57 65.426 0.373 7.93 2.56 8.27
4/22/2023 1:30:00 AM 18.62 65.516 0.372 7.93 2.61 8.26
4/22/2023 1:45:00 AM 18.66 65.588 0.372 7.94 2.6 8.27
4/22/2023 2:00:00 AM 18.7 65.66 0.372 7.95 3.04 8.3
4/22/2023 2:15:00 AM 18.73 65.714 0.372 7.96 3.16 8.3
4/22/2023 2:30:00 AM 18.77 65.786 0.372 7.96 2.77 8.31
4/22/2023 2:45:00 AM 18.78 65.804 0.372 7.97 2.49 8.3
4/22/2023 3:00:00 AM 18.82 65.876 0.372 7.98 3.04 8.33
4/22/2023 3:15:00 AM 18.84 65.912 0.372 7.98 2.3 8.29
4/22/2023 3:30:00 AM 18.85 65.93 0.372 7.98 2.11 8.28
4/22/2023 3:45:00 AM 18.87 65.966 0.373 7.99 3.48 8.29
4/22/2023 4:00:00 AM 18.89 66.002 0.373 7.99 4.01 8.29
4/22/2023 4:15:00 AM 18.9 66.02 0.373 7.99 3.75 8.28
4/22/2023 4:30:00 AM 18.91 66.038 0.374 7.99 2.82 8.29
4/22/2023 4:45:00 AM 18.94 66.092 0.374 7.99 11.78 8.27
4/22/2023 5:00:00 AM 18.93 66.074 0.374 7.99 6.53 8.27
4/22/2023 5:15:00 AM 18.93 66.074 0.375 7.99 3.44 8.24
4/22/2023 5:30:00 AM 18.94 66.092 0.375 7.99 3.8 8.24
4/22/2023 5:45:00 AM 18.96 66.128 0.375 7.99 10.44 8.22
4/22/2023 6:00:00 AM 18.96 66.128 0.376 7.99 3.11 8.23
4/22/2023 6:15:00 AM 18.95 66.11 0.376 7.99 4.38 8.18
4/22/2023 6:30:00 AM 18.93 66.074 0.376 7.99 2.67 8.21
4/22/2023 6:45:00 AM 18.92 66.056 0.376 7.99 4 8.19
4/22/2023 7:00:00 AM 18.93 66.074 0.377 8 3.25 8.2
4/22/2023 7:15:00 AM 18.91 66.038 0.377 7.99 2.96 8.23
4/22/2023 7:30:00 AM 18.9 66.02 0.376 8 2.21 8.23
4/22/2023 7:45:00 AM 18.91 66.038 0.376 8 2.38 8.29
4/22/2023 8:00:00 AM 18.9 66.02 0.376 8.01 2.9 8.35
4/22/2023 8:15:00 AM 18.93 66.074 0.375 8.01 2.46 8.45
4/22/2023 8:30:00 AM 18.99 66.182 0.375 8.02 3.12 8.58
4/22/2023 8:45:00 AM 19.07 66.326 0.375 8.04 2.52 8.73
4/22/2023 9:00:00 AM 19.12 66.416 0.374 8.05 2.14 8.83
4/22/2023 9:15:00 AM 19.17 66.506 0.374 8.07 2.83 8.95
4/22/2023 9:30:00 AM 19.24 66.632 0.373 8.07 2.43 9.1
4/22/2023 9:45:00 AM 19.32 66.776 0.373 8.09 3.46 9.27
4/22/2023 10:00:00 AM 19.37 66.866 0.373 8.11 2.93 9.41
4/22/2023 10:15:00 AM 19.39 66.902 0.373 8.12 3.23 9.53
4/22/2023 10:30:00 AM 19.45 67.01 0.373 8.13 2.96 9.64
4/22/2023 10:45:00 AM 19.52 67.136 0.373 8.14 2.5 9.78
4/22/2023 11:00:00 AM 19.56 67.208 0.372 8.16 2.98 9.87
4/22/2023 11:15:00 AM 19.6 67.28 0.372 8.16 2.55 9.95
4/22/2023 11:30:00 AM 19.65 67.37 0.372 8.16 3.4 9.98
4/22/2023 11:45:00 AM 19.79 67.622 0.372 8.17 2.67 10.07
4/22/2023 12:00:00 PM 19.88 67.784 0.372 8.17 3.16 10.11
4/22/2023 12:15:00 PM 19.94 67.892 0.372 8.17 8.08 10.14
4/22/2023 12:30:00 PM 20.05 68.09 0.372 8.17 6.06 10.18
4/22/2023 12:45:00 PM 20.17 68.306 0.373 8.17 4.29 10.21
4/22/2023 1:00:00 PM 20.24 68.432 0.373 8.18 3.96 10.22
4/22/2023 1:15:00 PM 20.34 68.612 0.373 8.18 3.61 10.28
4/22/2023 1:30:00 PM 20.38 68.684 0.373 8.18 6.79 10.29
4/22/2023 1:45:00 PM 20.24 68.432 0.365 8.18 3.22 10.26
4/22/2023 2:00:00 PM 20.06 68.108 0.374 8.17 2.66 10.07
4/22/2023 2:15:00 PM 19.87 67.766 0.372 8.15 3.97 9.83
4/22/2023 2:30:00 PM 19.74 67.532 0.372 8.13 2.79 9.64
4/22/2023 2:45:00 PM 19.6 67.28 0.374 8.1 2.99 9.46
4/22/2023 3:00:00 PM 19.41 66.938 0.374 8.07 2.51 9.16
4/22/2023 3:15:00 PM 19.19 66.542 0.373 8.03 3.16 8.87
4/22/2023 3:30:00 PM 19.05 66.29 0.373 8 9.59 8.66
4/22/2023 3:45:00 PM 18.92 66.056 0.373 7.97 5.73 8.54
4/22/2023 4:00:00 PM 18.8 65.84 0.372 7.96 5.66 8.43
4/22/2023 4:15:00 PM 18.72 65.696 0.372 7.95 4.02 8.36
4/22/2023 4:30:00 PM 18.68 65.624 0.373 7.94 3.3 8.37
4/22/2023 4:45:00 PM 18.64 65.552 0.373 7.93 4.13 8.35
4/22/2023 5:00:00 PM 18.63 65.534 0.374 7.93 4.2 8.37
4/22/2023 5:15:00 PM 18.61 65.498 0.375 7.92 3.26 8.38
4/22/2023 5:30:00 PM 18.59 65.462 0.375 7.92 4.24 8.39
4/22/2023 5:45:00 PM 18.58 65.444 0.376 7.93 3 8.43
4/22/2023 6:00:00 PM 18.54 65.372 0.377 7.92 3.13 8.41
4/22/2023 6:15:00 PM 18.51 65.318 0.377 7.92 2.95 8.4
4/22/2023 6:30:00 PM 18.47 65.246 0.377 7.92 3.07 8.37
4/22/2023 6:45:00 PM 18.45 65.21 0.377 7.91 3.16 8.33
4/22/2023 7:00:00 PM 18.42 65.156 0.378 7.9 2.57 8.27
4/22/2023 7:15:00 PM 18.38 65.084 0.378 7.89 2.55 8.21
4/22/2023 7:30:00 PM 18.34 65.012 0.378 7.89 4.78 8.19
4/22/2023 7:45:00 PM 18.3 64.94 0.379 7.88 2.78 8.18
4/22/2023 8:00:00 PM 18.26 64.868 0.379 7.88 4.87 8.18
4/22/2023 8:15:00 PM 18.22 64.796 0.379 7.88 4.34 8.13
4/22/2023 8:30:00 PM 18.19 64.742 0.38 7.87 3.86 8.12
4/22/2023 8:45:00 PM 18.15 64.67 0.38 7.87 3.84 8.08
4/22/2023 9:00:00 PM 18.12 64.616 0.381 7.86 2.93 8.04
4/22/2023 9:15:00 PM 18.08 64.544 0.381 7.86 2.66 8.03
4/22/2023 9:30:00 PM 18.05 64.49 0.381 7.86 3.74 8.02
4/22/2023 9:45:00 PM 18.03 64.454 0.381 7.86 6.04 8.02
4/22/2023 10:00:00 PM 18 64.4 0.382 7.86 3.74 8.02
4/22/2023 10:15:00 PM 17.99 64.382 0.382 7.87 4.28 8.05
4/22/2023 10:30:00 PM 17.97 64.346 0.382 7.86 3.54 8.03
4/22/2023 10:45:00 PM 17.95 64.31 0.382 7.87 3.31 8.04
4/22/2023 11:00:00 PM 17.94 64.292 0.382 7.88 3.58 8.08
4/22/2023 11:15:00 PM 17.92 64.256 0.382 7.88 2.98 8.08
4/22/2023 11:30:00 PM 17.91 64.238 0.382 7.88 3.24 8.11
4/22/2023 11:45:00 PM 17.9 64.22 0.382 7.88 2.81 8.13
4/23/2023 12:00:00 AM 17.87 64.166 0.382 7.89 3.13 8.14
4/23/2023 12:15:00 AM 17.85 64.13 0.382 7.89 2.67 8.16
4/23/2023 12:30:00 AM 17.81 64.058 0.382 7.9 3.6 8.17
4/23/2023 12:45:00 AM 17.79 64.022 0.382 7.9 3.62 8.2
4/23/2023 1:00:00 AM 17.76 63.968 0.382 7.91 3.78 8.22
4/23/2023 1:15:00 AM 17.74 63.932 0.383 7.91 2.99 8.24
4/23/2023 1:30:00 AM 17.71 63.878 0.383 7.91 3.48 8.26
4/23/2023 1:45:00 AM 17.68 63.824 0.383 7.92 3.64 8.26
4/23/2023 2:00:00 AM 17.66 63.788 0.383 7.92 3.37 8.29
4/23/2023 2:15:00 AM 17.64 63.752 0.384 7.93 3.17 8.3
4/23/2023 2:30:00 AM 17.6 63.68 0.384 7.93 5.4 8.3
4/23/2023 2:45:00 AM 17.6 63.68 0.384 7.94 3.16 8.33
4/23/2023 3:00:00 AM 17.57 63.626 0.384 7.94 3.04 8.34
4/23/2023 3:15:00 AM 17.55 63.59 0.384 7.95 3.07 8.36
4/23/2023 3:30:00 AM 17.5 63.5 0.384 7.94 4.16 8.35
4/23/2023 3:45:00 AM 17.45 63.41 0.384 7.95 3.04 8.35
4/23/2023 4:00:00 AM 17.43 63.374 0.383 7.95 3.88 8.37
4/23/2023 4:15:00 AM 17.39 63.302 0.383 7.96 4.37 8.38
4/23/2023 4:30:00 AM 17.36 63.248 0.383 7.96 8.16 8.38
4/23/2023 4:45:00 AM 17.31 63.158 0.382 7.96 3.2 8.4
4/23/2023 5:00:00 AM 17.27 63.086 0.382 7.96 3.14 8.4
4/23/2023 5:15:00 AM 17.22 62.996 0.382 7.96 4.1 8.4
4/23/2023 5:30:00 AM 17.17 62.906 0.382 7.96 3.54 8.41
4/23/2023 5:45:00 AM 17.13 62.834 0.381 7.96 2.98 8.4
4/23/2023 6:00:00 AM 17.08 62.744 0.381 7.96 6.69 8.39
4/23/2023 6:15:00 AM 17.02 62.636 0.381 7.95 3.65 8.38
4/23/2023 6:30:00 AM 16.98 62.564 0.381 7.95 4.01 8.4
4/23/2023 6:45:00 AM 16.93 62.474 0.381 7.95 2.94 8.41
4/23/2023 7:00:00 AM 16.87 62.366 0.381 7.95 3.66 8.4
4/23/2023 7:15:00 AM 16.85 62.33 0.381 7.95 3.65 8.43
4/23/2023 7:30:00 AM 16.84 62.312 0.38 7.95 4.23 8.46
4/23/2023 7:45:00 AM 16.82 62.276 0.38 7.95 3.58 8.51
4/23/2023 8:00:00 AM 16.83 62.294 0.38 7.96 4.12 8.57
4/23/2023 8:15:00 AM 16.84 62.312 0.38 7.96 2.81 8.63
4/23/2023 8:30:00 AM 16.86 62.348 0.38 7.96 2.32 8.71
4/23/2023 8:45:00 AM 16.88 62.384 0.38 7.97 4.32 8.81
4/23/2023 9:00:00 AM 16.92 62.456 0.38 7.98 5.98 8.89
4/23/2023 9:15:00 AM 16.95 62.51 0.38 7.98 3.15 8.95
4/23/2023 9:30:00 AM 17 62.6 0.38 7.99 2.56 9.08
4/23/2023 9:45:00 AM 17.04 62.672 0.38 8 3.94 9.17
4/23/2023 10:00:00 AM 17.07 62.726 0.38 8 3.08 9.25
4/23/2023 10:15:00 AM 17.14 62.852 0.38 8.01 2.92 9.34
4/23/2023 10:30:00 AM 17.22 62.996 0.38 8.02 2.78 9.48
4/23/2023 10:45:00 AM 17.23 63.014 0.38 8.03 2.51 9.58
4/23/2023 11:00:00 AM 17.4 63.32 0.38 8.04 4.08 9.66
4/23/2023 11:15:00 AM 17.48 63.464 0.38 8.05 3.51 9.79
4/23/2023 11:30:00 AM 17.6 63.68 0.38 8.06 3.09 9.88
4/23/2023 11:45:00 AM 17.72 63.896 0.38 8.06 3.34 9.96
4/23/2023 12:00:00 PM 17.86 64.148 0.38 8.06 2.63 10.04
4/23/2023 12:15:00 PM 17.97 64.346 0.38 8.07 2.57 10.09
4/23/2023 12:30:00 PM 17.99 64.382 0.38 8.07 3.13 10.13
4/23/2023 12:45:00 PM 18.1 64.58 0.38 8.07 2.65 10.15
4/23/2023 1:00:00 PM 18.33 64.994 0.381 8.07 3.15 10.2
4/23/2023 1:15:00 PM 18.29 64.922 0.381 8.07 2.57 10.2
4/23/2023 1:30:00 PM 18.29 64.922 0.381 8.07 3.72 10.2
4/23/2023 1:45:00 PM 18.3 64.94 0.381 8.07 2.67 10.22
4/23/2023 2:00:00 PM 18.19 64.742 0.381 8.07 3.2 10.18
4/23/2023 2:15:00 PM 18.03 64.454 0.381 8.06 2.64 10.12
4/23/2023 2:30:00 PM 17.85 64.13 0.381 8.06 2.34 10.03
4/23/2023 2:45:00 PM 17.71 63.878 0.382 8.05 2.84 9.94
4/23/2023 3:00:00 PM 17.6 63.68 0.382 8.04 2.35 9.9
4/23/2023 3:15:00 PM 17.51 63.518 0.382 8.04 2.98 9.89
4/23/2023 3:30:00 PM 17.44 63.392 0.382 8.03 2.56 9.87
4/23/2023 3:45:00 PM 17.46 63.428 0.382 8.03 3.77 9.88
4/23/2023 4:00:00 PM 17.72 63.896 0.382 8.03 2.37 9.94
4/23/2023 4:15:00 PM 17.78 64.004 0.382 8.04 2.34 10
4/23/2023 4:30:00 PM 17.83 64.094 0.383 8.04 2.71 10.03
4/23/2023 4:45:00 PM 17.87 64.166 0.383 8.04 3.01 10.06
4/23/2023 5:00:00 PM 17.9 64.22 0.383 8.05 2.5 10.07
4/23/2023 5:15:00 PM 17.93 64.274 0.384 8.05 3.25 10.07
4/23/2023 5:30:00 PM 17.87 64.166 0.384 8.05 3.13 10.03
4/23/2023 5:45:00 PM 17.78 64.004 0.383 8.05 2.57 10.01
4/23/2023 6:00:00 PM 17.6 63.68 0.384 8.04 2.72 9.94
4/23/2023 6:15:00 PM 17.4 63.32 0.383 8.03 3.59 9.85
4/23/2023 6:30:00 PM 17.22 62.996 0.383 8.03 2.2 9.77
4/23/2023 6:45:00 PM 17.04 62.672 0.383 8.03 2.6 9.67
4/23/2023 7:00:00 PM 16.88 62.384 0.383 8.02 2.29 9.57
4/23/2023 7:15:00 PM 16.71 62.078 0.383 8.01 2.19 9.45
4/23/2023 7:30:00 PM 16.57 61.826 0.383 8 2.55 9.35
4/23/2023 7:45:00 PM 16.45 61.61 0.383 7.99 3.32 9.23
4/23/2023 8:00:00 PM 16.34 61.412 0.383 7.98 2.47 9.12
4/23/2023 8:15:00 PM 16.24 61.232 0.383 7.97 2.82 9.03
4/23/2023 8:30:00 PM 16.17 61.106 0.383 7.96 2.4 8.96
4/23/2023 8:45:00 PM 16.09 60.962 0.383 7.96 3.09 8.88
4/23/2023 9:00:00 PM 16.03 60.854 0.383 7.95 2.79 8.85
4/23/2023 9:15:00 PM 15.99 60.782 0.383 7.95 2.83 8.81
4/23/2023 9:30:00 PM 15.95 60.71 0.383 7.95 2.74 8.81
4/23/2023 9:45:00 PM 15.91 60.638 0.383 7.95 2.54 8.8
4/23/2023 10:00:00 PM 15.87 60.566 0.383 7.95 2.82 8.8
4/23/2023 10:15:00 PM 15.84 60.512 0.383 7.95 2.89 8.82
4/23/2023 10:30:00 PM 15.84 60.512 0.383 7.96 2.14 8.84
4/23/2023 10:45:00 PM 15.8 60.44 0.383 7.96 3.76 8.86
4/23/2023 11:00:00 PM 15.78 60.404 0.383 7.96 2.22 8.86
4/23/2023 11:15:00 PM 15.78 60.404 0.383 7.97 2.71 8.9
4/23/2023 11:30:00 PM 15.75 60.35 0.383 7.97 3.04 8.9
4/23/2023 11:45:00 PM 15.75 60.35 0.383 7.98 3.93 8.95
4/24/2023 12:00:00 AM 15.73 60.314 0.383 7.99 3.11 8.96
4/24/2023 12:15:00 AM 15.72 60.296 0.383 7.99 2.63 8.97
4/24/2023 12:30:00 AM 15.72 60.296 0.383 8 3.1 9
4/24/2023 12:45:00 AM 15.69 60.242 0.383 8 3.38 9.02
4/24/2023 1:00:00 AM 15.69 60.242 0.383 8.01 3.16 9.02
4/24/2023 1:15:00 AM 15.67 60.206 0.383 8.01 2.94 9.06
4/24/2023 1:30:00 AM 15.63 60.134 0.383 8.02 3.17 9.06
4/24/2023 1:45:00 AM 15.61 60.098 0.383 8.02 2.77 9.07
4/24/2023 2:00:00 AM 15.64 60.152 0.383 8.03 4.44 9.12
4/24/2023 2:15:00 AM 15.6 60.08 0.383 8.03 3.3 9.1
4/24/2023 2:30:00 AM 15.56 60.008 0.383 8.04 3.82 9.11
4/24/2023 2:45:00 AM 15.53 59.954 0.383 8.04 3.41 9.13
4/24/2023 3:00:00 AM 15.5 59.9 0.383 8.05 2.62 9.15
4/24/2023 3:15:00 AM 15.46 59.828 0.382 8.05 5.51 9.15
4/24/2023 3:30:00 AM 15.42 59.756 0.382 8.05 3.88 9.16
4/24/2023 3:45:00 AM 15.39 59.702 0.382 8.06 2.46 9.19
4/24/2023 4:00:00 AM 15.34 59.612 0.382 8.06 4.99 9.18
4/24/2023 4:15:00 AM 15.3 59.54 0.382 8.06 3.71 9.19
4/24/2023 4:30:00 AM 15.24 59.432 0.382 8.06 3.16 9.18
4/24/2023 4:45:00 AM 15.22 59.396 0.382 8.07 2.96 9.21
4/24/2023 5:00:00 AM 15.18 59.324 0.382 8.07 4.16 9.2
4/24/2023 5:15:00 AM 15.13 59.234 0.382 8.07 4.24 9.21
4/24/2023 5:30:00 AM 15.06 59.108 0.381 8.07 3.29 9.22
4/24/2023 5:45:00 AM 15.03 59.054 0.381 8.07 3.09 9.23
4/24/2023 6:00:00 AM 14.98 58.964 0.381 8.07 2.4 9.23
4/24/2023 6:15:00 AM 14.94 58.892 0.381 8.07 3.6 9.24
4/24/2023 6:30:00 AM 14.87 58.766 0.381 8.07 3.05 9.24
4/24/2023 6:45:00 AM 14.83 58.694 0.381 8.07 2.64 9.26
4/24/2023 7:00:00 AM 14.78 58.604 0.381 8.07 4.61 9.28
4/24/2023 7:15:00 AM 14.74 58.532 0.381 8.07 3.51 9.32
4/24/2023 7:30:00 AM 14.72 58.496 0.381 8.07 3.99 9.34
4/24/2023 7:45:00 AM 14.69 58.442 0.381 8.07 3.37 9.38
4/24/2023 8:00:00 AM 14.7 58.46 0.38 8.08 3.65 9.46
4/24/2023 8:15:00 AM 14.71 58.478 0.38 8.08 6.02 9.54
4/24/2023 8:30:00 AM 14.72 58.496 0.38 8.09 2.85 9.61
4/24/2023 8:45:00 AM 14.73 58.514 0.38 8.09 3.18 9.68
4/24/2023 9:00:00 AM 14.76 58.568 0.38 8.1 3.01 9.79
4/24/2023 9:15:00 AM 14.78 58.604 0.379 8.11 2.75 9.86
4/24/2023 9:30:00 AM 14.79 58.622 0.379 8.11 2.52 9.96
4/24/2023 9:45:00 AM 14.82 58.676 0.379 8.12 2.26 10.03
4/24/2023 10:00:00 AM 14.83 58.694 0.379 8.13 2.74 10.12
4/24/2023 10:15:00 AM 14.86 58.748 0.379 8.13 3.44 10.21
4/24/2023 10:30:00 AM 14.9 58.82 0.379 8.14 2.94 10.3
4/24/2023 10:45:00 AM 14.95 58.91 0.379 8.14 3.49 10.37
4/24/2023 11:00:00 AM 15.06 59.108 0.379 8.15 4.61 10.48
4/24/2023 11:15:00 AM 15.13 59.234 0.379 8.16 2.16 10.57
4/24/2023 11:30:00 AM 15.09 59.162 0.379 8.16 2.38 10.6
4/24/2023 11:45:00 AM 15.07 59.126 0.379 8.16 2.23 10.58
4/24/2023 12:00:00 PM 15.16 59.288 0.379 8.16 2.11 10.62
4/24/2023 12:15:00 PM 15.26 59.468 0.379 8.16 2.49 10.69
4/24/2023 12:30:00 PM 15.32 59.576 0.379 8.16 2.27 10.76
4/24/2023 12:45:00 PM 15.3 59.54 0.379 8.17 2.21 10.79
4/24/2023 1:00:00 PM 15.27 59.486 0.379 8.16 2.13 10.78
4/24/2023 1:15:00 PM 15.34 59.612 0.379 8.17 1.94 10.85
4/24/2023 1:30:00 PM 15.5 59.9 0.379 8.17 2.02 10.92
4/24/2023 1:45:00 PM 15.6 60.08 0.379 8.18 2.34 10.98
4/24/2023 2:00:00 PM 15.86 60.548 0.379 8.18 2.51 11.04
4/24/2023 2:15:00 PM 16.04 60.872 0.379 8.18 2.59 11.08
4/24/2023 2:30:00 PM 16.12 61.016 0.379 8.17 2.32 11.1
4/24/2023 2:45:00 PM 16.06 60.908 0.379 8.17 2.14 11.08
4/24/2023 3:00:00 PM 15.93 60.674 0.379 8.17 2.69 11.04
4/24/2023 3:15:00 PM 16 60.8 0.379 8.17 2.15 11.06
4/24/2023 3:30:00 PM 16.07 60.926 0.379 8.17 1.92 11.08
4/24/2023 3:45:00 PM 16.02 60.836 0.379 8.17 1.71 11.05
4/24/2023 4:00:00 PM 15.88 60.584 0.379 8.16 2.36 11
4/24/2023 4:15:00 PM 15.72 60.296 0.379 8.15 2.37 10.92
4/24/2023 4:30:00 PM 15.6 60.08 0.38 8.15 1.99 10.86
4/24/2023 4:45:00 PM 15.47 59.846 0.38 8.14 3.44 10.78
4/24/2023 5:00:00 PM 15.31 59.558 0.38 8.13 2.21 10.73
4/24/2023 5:15:00 PM 15.25 59.45 0.38 8.13 2.77 10.67
4/24/2023 5:30:00 PM 15.06 59.108 0.38 8.12 2.57 10.59
4/24/2023 5:45:00 PM 15.05 59.09 0.38 8.11 2.1 10.58
4/24/2023 6:00:00 PM 14.98 58.964 0.38 8.11 2.76 10.56
4/24/2023 6:15:00 PM 14.85 58.73 0.38 8.11 2.26 10.5
4/24/2023 6:30:00 PM 14.73 58.514 0.38 8.11 2.61 10.45
4/24/2023 6:45:00 PM 14.63 58.334 0.38 8.1 2.34 10.4
4/24/2023 7:00:00 PM 14.52 58.136 0.38 8.1 2.22 10.33
4/24/2023 7:15:00 PM 14.4 57.92 0.38 8.09 2.13 10.25
4/24/2023 7:30:00 PM 14.31 57.758 0.38 8.09 1.74 10.16
4/24/2023 7:45:00 PM 14.21 57.578 0.38 8.08 2.64 10.05
4/24/2023 8:00:00 PM 14.13 57.434 0.38 8.07 2.64 9.97
4/24/2023 8:15:00 PM 14.05 57.29 0.38 8.06 1.89 9.86
4/24/2023 8:30:00 PM 13.97 57.146 0.38 8.05 2.37 9.8
4/24/2023 8:45:00 PM 13.91 57.038 0.38 8.04 2.69 9.71
4/24/2023 9:00:00 PM 13.84 56.912 0.38 8.03 2.5 9.67
4/24/2023 9:15:00 PM 13.8 56.84 0.38 8.03 2.89 9.63
4/24/2023 9:30:00 PM 13.77 56.786 0.381 8.02 2.77 9.61
4/24/2023 9:45:00 PM 13.72 56.696 0.381 8.02 2.82 9.58
4/24/2023 10:00:00 PM 13.7 56.66 0.381 8.02 2.61 9.58
4/24/2023 10:15:00 PM 13.67 56.606 0.381 8.02 2.41 9.58
4/24/2023 10:30:00 PM 13.66 56.588 0.381 8.03 2.82 9.6
4/24/2023 10:45:00 PM 13.63 56.534 0.381 8.03 2.87 9.61
4/24/2023 11:00:00 PM 13.61 56.498 0.381 8.03 4.86 9.61
4/24/2023 11:15:00 PM 13.6 56.48 0.381 8.03 2.66 9.64
4/24/2023 11:30:00 PM 13.58 56.444 0.381 8.04 3.07 9.68
4/24/2023 11:45:00 PM 13.58 56.444 0.381 8.04 3.19 9.67
4/25/2023 12:00:00 AM 13.55 56.39 0.381 8.04 2.13 9.69
4/25/2023 12:15:00 AM 13.57 56.426 0.38 8.05 2.47 9.72
4/25/2023 12:30:00 AM 13.55 56.39 0.38 8.05 2.49 9.74
4/25/2023 12:45:00 AM 13.53 56.354 0.38 8.06 2.09 9.73
4/25/2023 1:00:00 AM 13.53 56.354 0.38 8.06 2.1 9.74
4/25/2023 1:15:00 AM 13.52 56.336 0.38 8.06 3.57 9.77
4/25/2023 1:30:00 AM 13.5 56.3 0.379 8.07 2.34 9.78
4/25/2023 1:45:00 AM 13.51 56.318 0.379 8.07 3.01 9.79
4/25/2023 2:00:00 AM 13.48 56.264 0.38 8.07 3.01 9.79
4/25/2023 2:15:00 AM 13.49 56.282 0.38 8.08 3.5 9.82
4/25/2023 2:30:00 AM 13.48 56.264 0.379 8.08 2.06 9.82
4/25/2023 2:45:00 AM 13.48 56.264 0.379 8.09 2.39 9.83
4/25/2023 3:00:00 AM 13.46 56.228 0.379 8.1 2.68 9.85
4/25/2023 3:15:00 AM 13.47 56.246 0.379 8.1 2.99 9.84
4/25/2023 3:30:00 AM 13.43 56.174 0.379 8.1 2.07 9.83
4/25/2023 3:45:00 AM 13.43 56.174 0.379 8.11 2.35 9.85
4/25/2023 4:00:00 AM 13.41 56.138 0.379 8.1 2.93 9.84
4/25/2023 4:15:00 AM 13.39 56.102 0.379 8.11 2.54 9.86
4/25/2023 4:30:00 AM 13.37 56.066 0.379 8.11 2.69 9.85
4/25/2023 4:45:00 AM 13.36 56.048 0.379 8.12 2.68 9.85
4/25/2023 5:00:00 AM 13.35 56.03 0.379 8.12 2.41 9.86
4/25/2023 5:15:00 AM 13.34 56.012 0.379 8.12 3.91 9.87
4/25/2023 5:30:00 AM 13.29 55.922 0.379 8.12 2.76 9.86
4/25/2023 5:45:00 AM 13.27 55.886 0.379 8.12 3.52 9.86
4/25/2023 6:00:00 AM 13.24 55.832 0.379 8.12 3.12 9.86
4/25/2023 6:15:00 AM 13.2 55.76 0.379 8.12 2.72 9.85
4/25/2023 6:30:00 AM 13.16 55.688 0.379 8.12 2.34 9.86
4/25/2023 6:45:00 AM 13.11 55.598 0.379 8.12 2.55 9.85
4/25/2023 7:00:00 AM 13.07 55.526 0.379 8.13 2.47 9.87
4/25/2023 7:15:00 AM 13.06 55.508 0.379 8.12 2.47 9.9
4/25/2023 7:30:00 AM 13.06 55.508 0.379 8.13 2.05 9.95
4/25/2023 7:45:00 AM 13.07 55.526 0.379 8.13 3.06 10.02
4/25/2023 8:00:00 AM 13.09 55.562 0.379 8.14 2.14 10.09
4/25/2023 8:15:00 AM 13.1 55.58 0.379 8.14 2.46 10.18
4/25/2023 8:30:00 AM 13.13 55.634 0.379 8.15 1.97 10.25
4/25/2023 8:45:00 AM 13.15 55.67 0.379 8.16 2.36 10.34
4/25/2023 9:00:00 AM 13.19 55.742 0.378 8.17 2.47 10.44
4/25/2023 9:15:00 AM 13.23 55.814 0.378 8.18 2.35 10.52
4/25/2023 9:30:00 AM 13.27 55.886 0.378 8.19 1.81 10.63
4/25/2023 9:45:00 AM 13.3 55.94 0.378 8.19 2.2 10.71
4/25/2023 10:00:00 AM 13.4 56.12 0.379 8.2 2.2 10.82
4/25/2023 10:15:00 AM 13.36 56.048 0.378 8.21 1.7 10.9
4/25/2023 10:30:00 AM 13.42 56.156 0.378 8.22 2.31 10.96
4/25/2023 10:45:00 AM 13.56 56.408 0.379 8.23 2.71 11.07
4/25/2023 11:00:00 AM 13.62 56.516 0.378 8.23 2.6 11.15
4/25/2023 11:15:00 AM 13.69 56.642 0.378 8.24 2.22 11.24
4/25/2023 11:30:00 AM 13.71 56.678 0.378 8.25 1.82 11.28
4/25/2023 11:45:00 AM 13.83 56.894 0.378 8.24 1.75 11.33
4/25/2023 12:00:00 PM 13.98 57.164 0.378 8.25 1.63 11.39
4/25/2023 12:15:00 PM 14.09 57.362 0.378 8.25 1.93 11.45
4/25/2023 12:30:00 PM 14.16 57.488 0.378 8.26 1.94 11.51
4/25/2023 12:45:00 PM 14.16 57.488 0.378 8.26 1.81 11.53
4/25/2023 1:00:00 PM 14.33 57.794 0.378 8.26 1.69 11.56
4/25/2023 1:15:00 PM 14.37 57.866 0.378 8.26 2 11.6
4/25/2023 1:30:00 PM 14.35 57.83 0.378 8.26 1.67 11.61
4/25/2023 1:45:00 PM 14.63 58.334 0.378 8.26 2.07 11.61
4/25/2023 2:00:00 PM 14.79 58.622 0.378 8.25 1.81 11.62
4/25/2023 2:15:00 PM 14.86 58.748 0.378 8.25 1.75 11.63
4/25/2023 2:30:00 PM 15.14 59.252 0.378 8.25 2.12 11.68
4/25/2023 2:45:00 PM 15.16 59.288 0.379 8.24 2.81 11.66
4/25/2023 3:00:00 PM 15.37 59.666 0.379 8.24 2.08 11.69
4/25/2023 3:15:00 PM 15.6 60.08 0.379 8.24 1.84 11.75
4/25/2023 3:30:00 PM 15.76 60.368 0.379 8.24 2.22 11.77
4/25/2023 3:45:00 PM 15.86 60.548 0.379 8.24 2.09 11.76
4/25/2023 4:00:00 PM 15.93 60.674 0.379 8.23 2.57 11.74
4/25/2023 4:15:00 PM 15.98 60.764 0.379 8.23 2.57 11.73
4/25/2023 4:30:00 PM 15.97 60.746 0.379 8.22 1.8 11.7
4/25/2023 4:45:00 PM 15.96 60.728 0.377 8.21 2.55 11.64
4/25/2023 5:00:00 PM 15.87 60.566 0.379 8.21 2.73 11.6
4/25/2023 5:15:00 PM 15.75 60.35 0.379 8.2 2.95 11.56
4/25/2023 5:30:00 PM 15.55 59.99 0.379 8.2 1.71 11.5
4/25/2023 5:45:00 PM 15.37 59.666 0.379 8.19 1.77 11.43
4/25/2023 6:00:00 PM 15.02 59.036 0.379 8.18 1.9 11.29
4/25/2023 6:15:00 PM 14.72 58.496 0.379 8.17 1.82 11.12
4/25/2023 6:30:00 PM 14.49 58.082 0.379 8.15 1.86 11.01
4/25/2023 6:45:00 PM 14.23 57.614 0.379 8.14 1.58 10.9
4/25/2023 7:00:00 PM 14.08 57.344 0.379 8.13 1.64 10.79
4/25/2023 7:15:00 PM 13.91 57.038 0.38 8.11 1.86 10.68
4/25/2023 7:30:00 PM 13.73 56.714 0.38 8.1 1.67 10.58
4/25/2023 7:45:00 PM 13.57 56.426 0.38 8.1 2.02 10.48
4/25/2023 8:00:00 PM 13.4 56.12 0.381 8.09 2.19 10.35
4/25/2023 8:15:00 PM 13.27 55.886 0.381 8.08 2.59 10.25
4/25/2023 8:30:00 PM 13.14 55.652 0.381 8.08 3.01 10.17
4/25/2023 8:45:00 PM 13.03 55.454 0.379 8.06 2.02 10.09
4/25/2023 9:00:00 PM 12.95 55.31 0.381 8.06 3.34 10
4/25/2023 9:15:00 PM 12.86 55.148 0.38 8.05 1.89 9.96
4/25/2023 9:30:00 PM 12.79 55.022 0.381 8.04 1.63 9.92
4/25/2023 9:45:00 PM 12.74 54.932 0.381 8.03 2.09 9.89
4/25/2023 10:00:00 PM 12.68 54.824 0.381 8.03 1.6 9.87
4/25/2023 10:15:00 PM 12.64 54.752 0.38 8.03 2.89 9.88
4/25/2023 10:30:00 PM 12.6 54.68 0.38 8.03 1.64 9.87
4/25/2023 10:45:00 PM 12.56 54.608 0.381 8.03 2.22 9.9
4/25/2023 11:00:00 PM 12.53 54.554 0.381 8.03 2.73 9.9
4/25/2023 11:15:00 PM 12.51 54.518 0.381 8.03 2.3 9.93
4/25/2023 11:30:00 PM 12.49 54.482 0.381 8.03 1.63 9.93
4/25/2023 11:45:00 PM 12.48 54.464 0.381 8.03 2.41 9.96
4/26/2023 12:00:00 AM 12.49 54.482 0.381 8.03 1.56 9.97
4/26/2023 12:15:00 AM 12.49 54.482 0.381 8.04 2.31 9.98
4/26/2023 12:30:00 AM 12.49 54.482 0.381 8.04 2.42 10.02
4/26/2023 12:45:00 AM 12.5 54.5 0.38 8.04 2.13 10.03
4/26/2023 1:00:00 AM 12.51 54.518 0.38 8.05 2.08 10.04
4/26/2023 1:15:00 AM 12.53 54.554 0.38 8.05 2.38 10.08
4/26/2023 1:30:00 AM 12.54 54.572 0.38 8.05 2.58 10.08
4/26/2023 1:45:00 AM 12.57 54.626 0.38 8.06 1.95 10.1
4/26/2023 2:00:00 AM 12.59 54.662 0.38 8.06 1.99 10.12
4/26/2023 2:15:00 AM 12.6 54.68 0.38 8.06 2.3 10.11
4/26/2023 2:30:00 AM 12.62 54.716 0.38 8.07 2.24 10.14
4/26/2023 2:45:00 AM 12.63 54.734 0.38 8.07 2.2 10.13
4/26/2023 3:00:00 AM 12.67 54.806 0.379 8.07 3.12 10.16
4/26/2023 3:15:00 AM 12.68 54.824 0.379 8.07 2.67 10.14
4/26/2023 3:30:00 AM 12.71 54.878 0.379 8.08 2.34 10.16
4/26/2023 3:45:00 AM 12.74 54.932 0.378 8.08 2.99 10.17
4/26/2023 4:00:00 AM 12.75 54.95 0.378 8.08 3.42 10.13
4/26/2023 4:15:00 AM 12.78 55.004 0.378 8.09 3.05 10.15
4/26/2023 4:30:00 AM 12.79 55.022 0.377 8.09 3.41 10.16
4/26/2023 4:45:00 AM 12.81 55.058 0.377 8.09 2.81 10.16
4/26/2023 5:00:00 AM 12.83 55.094 0.377 8.1 3.42 10.16
4/26/2023 5:15:00 AM 12.84 55.112 0.377 8.09 5.13 10.14
4/26/2023 5:30:00 AM 12.87 55.166 0.377 8.1 5.37 10.13
4/26/2023 5:45:00 AM 12.89 55.202 0.377 8.1 6.47 10.14
4/26/2023 6:00:00 AM 12.88 55.184 0.377 8.1 3.07 10.13
4/26/2023 6:15:00 AM 12.9 55.22 0.376 8.1 2.93 10.13
4/26/2023 6:30:00 AM 12.92 55.256 0.376 8.1 2.78 10.1
4/26/2023 6:45:00 AM 12.92 55.256 0.376 8.11 5.43 10.1
4/26/2023 7:00:00 AM 12.94 55.292 0.376 8.11 2.08 10.1
4/26/2023 7:15:00 AM 12.94 55.292 0.376 8.11 1.98 10.12
4/26/2023 7:30:00 AM 12.94 55.292 0.376 8.11 1.75 10.16
4/26/2023 7:45:00 AM 12.98 55.364 0.376 8.12 1.83 10.21
4/26/2023 8:00:00 AM 13.01 55.418 0.375 8.12 2.81 10.29
4/26/2023 8:15:00 AM 13.03 55.454 0.375 8.14 2.21 10.37
4/26/2023 8:30:00 AM 13.06 55.508 0.375 8.14 2.07 10.45
4/26/2023 8:45:00 AM 13.12 55.616 0.375 8.16 2.04 10.6
4/26/2023 9:00:00 AM 13.19 55.742 0.375 8.17 1.64 10.74
4/26/2023 9:15:00 AM 13.29 55.922 0.374 8.19 1.78 10.89
4/26/2023 9:30:00 AM 13.28 55.904 0.374 8.21 1.56 11
4/26/2023 9:45:00 AM 13.31 55.958 0.374 8.21 2.92 11.07
4/26/2023 10:00:00 AM 13.4 56.12 0.373 8.22 1.43 11.16
4/26/2023 10:15:00 AM 13.47 56.246 0.373 8.23 1.87 11.27
4/26/2023 10:30:00 AM 13.55 56.39 0.373 8.24 1.43 11.34
4/26/2023 10:45:00 AM 13.64 56.552 0.372 8.25 1.71 11.4
4/26/2023 11:00:00 AM 13.73 56.714 0.372 8.25 1.74 11.46
4/26/2023 11:15:00 AM 13.86 56.948 0.372 8.25 1.76 11.53
4/26/2023 11:30:00 AM 14.03 57.254 0.372 8.26 2.21 11.59
4/26/2023 11:45:00 AM 14.23 57.614 0.372 8.26 1.75 11.67
4/26/2023 12:00:00 PM 14.4 57.92 0.372 8.26 1.75 11.71
4/26/2023 12:15:00 PM 14.61 58.298 0.372 8.26 1.78 11.73
4/26/2023 12:30:00 PM 14.73 58.514 0.371 8.26 1.73 11.78
4/26/2023 12:45:00 PM 14.95 58.91 0.371 8.26 1.92 11.82
4/26/2023 1:00:00 PM 15.18 59.324 0.371 8.26 1.82 11.84
4/26/2023 1:15:00 PM 15.38 59.684 0.371 8.26 1.75 11.91
4/26/2023 1:30:00 PM 15.32 59.576 0.37 8.25 1.91 11.85
4/26/2023 1:45:00 PM 15.34 59.612 0.37 8.25 2.48 11.82
4/26/2023 2:00:00 PM 15.52 59.936 0.37 8.25 2.39 11.86
4/26/2023 2:15:00 PM 15.43 59.774 0.37 8.25 1.83 11.83
4/26/2023 2:30:00 PM 15.57 60.026 0.37 8.25 2.13 11.83
4/26/2023 2:45:00 PM 15.52 59.936 0.369 8.25 1.88 11.8
4/26/2023 3:00:00 PM 15.37 59.666 0.369 8.24 2.12 11.69
4/26/2023 3:15:00 PM 15.39 59.702 0.37 8.24 1.4 11.67
4/26/2023 3:30:00 PM 15.48 59.864 0.37 8.24 1.89 11.61
4/26/2023 3:45:00 PM 15.65 60.17 0.37 8.23 1.89 11.59
4/26/2023 4:00:00 PM 15.68 60.224 0.37 8.23 1.93 11.59
4/26/2023 4:15:00 PM 15.52 59.936 0.37 8.22 1.68 11.48
4/26/2023 4:30:00 PM 15.63 60.134 0.371 8.22 1.84 11.44
4/26/2023 4:45:00 PM 15.76 60.368 0.371 8.22 1.8 11.47
4/26/2023 5:00:00 PM 15.89 60.602 0.371 8.22 2.59 11.51
4/26/2023 5:15:00 PM 15.89 60.602 0.37 8.22 1.96 11.47
4/26/2023 5:30:00 PM 15.9 60.62 0.371 8.21 2.65 11.45
4/26/2023 5:45:00 PM 15.9 60.62 0.371 8.21 2.09 11.4
4/26/2023 6:00:00 PM 15.73 60.314 0.371 8.21 1.81 11.34
4/26/2023 6:15:00 PM 15.56 60.008 0.372 8.2 1.74 11.21
4/26/2023 6:30:00 PM 15.36 59.648 0.372 8.19 2.21 11.11
4/26/2023 6:45:00 PM 15.19 59.342 0.373 8.18 2.11 10.94
4/26/2023 7:00:00 PM 15.02 59.036 0.374 8.17 1.8 10.79
4/26/2023 7:15:00 PM 14.86 58.748 0.375 8.15 1.72 10.56
4/26/2023 7:30:00 PM 14.7 58.46 0.376 8.12 1.79 10.33
4/26/2023 7:45:00 PM 14.59 58.262 0.377 8.1 2.03 10.17
4/26/2023 8:00:00 PM 14.47 58.046 0.378 8.08 1.71 10.02
4/26/2023 8:15:00 PM 14.35 57.83 0.376 8.06 3.61 9.9
4/26/2023 8:30:00 PM 14.28 57.704 0.378 8.04 1.8 9.78
4/26/2023 8:45:00 PM 14.22 57.596 0.378 8.02 2.79 9.67
4/26/2023 9:00:00 PM 14.15 57.47 0.378 8.01 2.98 9.61
4/26/2023 9:15:00 PM 14.11 57.398 0.378 8.01 2.26 9.56
4/26/2023 9:30:00 PM 14.08 57.344 0.375 7.99 1.86 9.51
4/26/2023 9:45:00 PM 14.05 57.29 0.377 7.99 4.45 9.48
4/26/2023 10:00:00 PM 14.01 57.218 0.378 7.98 2.05 9.48
4/26/2023 10:15:00 PM 13.97 57.146 0.378 7.98 3.57 9.46
4/26/2023 10:30:00 PM 13.95 57.11 0.377 7.98 2.19 9.45
4/26/2023 10:45:00 PM 13.93 57.074 0.378 7.98 2.16 9.45
4/26/2023 11:00:00 PM 13.91 57.038 0.378 7.98 2.42 9.48
4/26/2023 11:15:00 PM 13.89 57.002 0.378 7.99 2.13 9.48
4/26/2023 11:30:00 PM 13.87 56.966 0.378 7.98 2.18 9.49
4/26/2023 11:45:00 PM 13.86 56.948 0.378 7.99 1.98 9.49
4/27/2023 12:00:00 AM 13.88 56.984 0.378 7.99 2.81 9.51
4/27/2023 12:15:00 AM 13.89 57.002 0.379 8 2.41 9.54
4/27/2023 12:30:00 AM 13.91 57.038 0.379 8 2.09 9.53
4/27/2023 12:45:00 AM 13.93 57.074 0.379 8 3.18 9.56
4/27/2023 1:00:00 AM 13.96 57.128 0.379 8.01 1.73 9.57
4/27/2023 1:15:00 AM 13.99 57.182 0.379 8.01 1.77 9.57
4/27/2023 1:30:00 AM 14.03 57.254 0.379 8.01 2.03 9.58
4/27/2023 1:45:00 AM 14.07 57.326 0.379 8.02 2.48 9.59
4/27/2023 2:00:00 AM 14.12 57.416 0.379 8.02 3.29 9.61
4/27/2023 2:15:00 AM 14.14 57.452 0.379 8.03 2.63 9.6
4/27/2023 2:30:00 AM 14.19 57.542 0.379 8.03 1.67 9.6
4/27/2023 2:45:00 AM 14.24 57.632 0.379 8.03 1.55 9.61
4/27/2023 3:00:00 AM 14.28 57.704 0.379 8.04 1.94 9.62
4/27/2023 3:15:00 AM 14.33 57.794 0.379 8.05 2.06 9.62
4/27/2023 3:30:00 AM 14.34 57.812 0.379 8.05 1.85 9.6
4/27/2023 3:45:00 AM 14.39 57.902 0.379 8.05 3.58 9.62
4/27/2023 4:00:00 AM 14.43 57.974 0.379 8.06 3.06 9.61
4/27/2023 4:15:00 AM 14.45 58.01 0.379 8.06 3.15 9.6
4/27/2023 4:30:00 AM 14.51 58.118 0.38 8.06 1.81 9.61
4/27/2023 4:45:00 AM 14.54 58.172 0.38 8.07 1.75 9.58
4/27/2023 5:00:00 AM 14.58 58.244 0.38 8.07 4.55 9.59
4/27/2023 5:15:00 AM 14.61 58.298 0.381 8.07 2.22 9.59
4/27/2023 5:30:00 AM 14.69 58.442 0.381 8.08 2.37 9.61
4/27/2023 5:45:00 AM 14.68 58.424 0.382 8.07 2.5 9.57
4/27/2023 6:00:00 AM 14.72 58.496 0.382 8.08 2.3 9.56
4/27/2023 6:15:00 AM 14.76 58.568 0.383 8.08 2.13 9.56
4/27/2023 6:30:00 AM 14.78 58.604 0.384 8.08 2.44 9.53
4/27/2023 6:45:00 AM 14.79 58.622 0.384 8.08 1.89 9.53
4/27/2023 7:00:00 AM 14.82 58.676 0.385 8.08 2.43 9.55
4/27/2023 7:15:00 AM 14.85 58.73 0.385 8.08 2.17 9.55
4/27/2023 7:30:00 AM 14.88 58.784 0.385 8.09 1.64 9.6
4/27/2023 7:45:00 AM 14.91 58.838 0.385 8.09 1.52 9.66
4/27/2023 8:00:00 AM 14.94 58.892 0.386 8.1 2.68 9.74
4/27/2023 8:15:00 AM 14.99 58.982 0.386 8.11 2.05 9.85
4/27/2023 8:30:00 AM 15.04 59.072 0.386 8.13 1.66 9.97
4/27/2023 8:45:00 AM 15.09 59.162 0.386 8.14 2.01 10.08
4/27/2023 9:00:00 AM 15.12 59.216 0.386 8.15 1.7 10.2
4/27/2023 9:15:00 AM 15.2 59.36 0.386 8.17 1.51 10.34
4/27/2023 9:30:00 AM 15.26 59.468 0.386 8.19 1.72 10.47
4/27/2023 9:45:00 AM 15.35 59.63 0.386 8.2 1.49 10.63
4/27/2023 10:00:00 AM 15.44 59.792 0.385 8.21 2.25 10.75
4/27/2023 10:15:00 AM 15.48 59.864 0.385 8.22 1.48 10.84
4/27/2023 10:30:00 AM 15.51 59.918 0.385 8.23 1.69 10.9
4/27/2023 10:45:00 AM 15.55 59.99 0.385 8.24 1.5 10.99
4/27/2023 11:00:00 AM 15.57 60.026 0.385 8.24 1.63 11.06
4/27/2023 11:15:00 AM 15.59 60.062 0.384 8.25 1.43 11.11
4/27/2023 11:30:00 AM 15.59 60.062 0.384 8.26 1.38 11.13
4/27/2023 11:45:00 AM 15.62 60.116 0.384 8.26 1.49 11.14
4/27/2023 12:00:00 PM 15.68 60.224 0.384 8.26 1.37 11.22
4/27/2023 12:15:00 PM 15.8 60.44 0.384 8.26 1.62 11.28
4/27/2023 12:30:00 PM 15.93 60.674 0.384 8.26 1.69 11.32
4/27/2023 12:45:00 PM 15.95 60.71 0.384 8.26 1.55 11.35
4/27/2023 1:00:00 PM 16.22 61.196 0.384 8.27 1.41 11.46
4/27/2023 1:15:00 PM 16.33 61.394 0.384 8.27 1.73 11.5
4/27/2023 1:30:00 PM 16.65 61.97 0.384 8.28 2.24 11.63
4/27/2023 1:45:00 PM 17.01 62.618 0.385 8.28 1.94 11.74
4/27/2023 2:00:00 PM 17.31 63.158 0.385 8.29 1.62 11.84
4/27/2023 2:15:00 PM 17.57 63.626 0.38 8.29 2.01 11.91
4/27/2023 2:30:00 PM 17.71 63.878 0.385 8.29 2.14 11.92
4/27/2023 2:45:00 PM 17.81 64.058 0.326 8.29 1.94 11.96
4/27/2023 3:00:00 PM 17.87 64.166 0.317 8.29 2.02 11.9
4/27/2023 3:15:00 PM 17.85 64.13 0.327 8.29 3.39 11.92
4/27/2023 3:30:00 PM 17.7 63.86 0.378 8.29 2.37 11.87
4/27/2023 3:45:00 PM 17.57 63.626 0.347 8.28 2.27 11.81
4/27/2023 4:00:00 PM 17.46 63.428 0.371 8.28 1.96 11.75
4/27/2023 4:15:00 PM 17.35 63.23 0.385 8.28 2.05 11.7
4/27/2023 4:30:00 PM 17.26 63.068 0.384 8.27 2.15 11.63
4/27/2023 4:45:00 PM 17.15 62.87 0.386 8.27 3.13 11.53
4/27/2023 5:00:00 PM 17.13 62.834 0.378 8.26 2.46 11.46
4/27/2023 5:15:00 PM 17.01 62.618 0.385 8.25 1.79 11.32
4/27/2023 5:30:00 PM 16.96 62.528 0.379 8.24 1.76 11.22
4/27/2023 5:45:00 PM 16.92 62.456 0.359 8.23 1.91 11.12
4/27/2023 6:00:00 PM 16.82 62.276 0.375 8.22 1.64 11.01
4/27/2023 6:15:00 PM 16.73 62.114 0.38 8.21 2.2 10.91
4/27/2023 6:30:00 PM 16.61 61.898 0.367 8.2 1.87 10.77
4/27/2023 6:45:00 PM 16.48 61.664 0.37 8.18 2.73 10.59
4/27/2023 7:00:00 PM 16.35 61.43 0.367 8.17 1.85 10.44
4/27/2023 7:15:00 PM 16.21 61.178 0.336 8.15 2.18 10.27
4/27/2023 7:30:00 PM 16.11 60.998 0.387 8.13 2.04 10.08
4/27/2023 7:45:00 PM 15.97 60.746 0.376 8.11 1.63 9.89
4/27/2023 8:00:00 PM 15.87 60.566 0.385 8.09 2.82 9.71
4/27/2023 8:15:00 PM 15.76 60.368 0.391 8.06 1.61 9.52
4/27/2023 8:30:00 PM 15.68 60.224 0.392 8.04 1.74 9.38
4/27/2023 8:45:00 PM 15.61 60.098 0.392 8.03 2.15 9.25
4/27/2023 9:00:00 PM 15.54 59.972 0.393 8.01 2.93 9.13
4/27/2023 9:15:00 PM 15.48 59.864 0.393 8 2.81 9.04
4/27/2023 9:30:00 PM 15.43 59.774 0.393 7.98 2.29 8.98
4/27/2023 9:45:00 PM 15.38 59.684 0.393 7.97 2.08 8.93
4/27/2023 10:00:00 PM 15.34 59.612 0.393 7.97 1.97 8.89
4/27/2023 10:15:00 PM 15.32 59.576 0.393 7.96 2.12 8.89
4/27/2023 10:30:00 PM 15.3 59.54 0.394 7.96 1.7 8.87
4/27/2023 10:45:00 PM 15.28 59.504 0.394 7.96 2.16 8.9
4/27/2023 11:00:00 PM 15.27 59.486 0.394 7.96 1.81 8.87
4/27/2023 11:15:00 PM 15.26 59.468 0.394 7.95 2.4 8.89
4/27/2023 11:30:00 PM 15.25 59.45 0.394 7.95 2.68 8.89
4/27/2023 11:45:00 PM 15.25 59.45 0.394 7.95 2.42 8.89
4/28/2023 12:00:00 AM 15.25 59.45 0.394 7.95 1.93 8.91
4/28/2023 12:15:00 AM 15.25 59.45 0.394 7.95 1.77 8.92
4/28/2023 12:30:00 AM 15.25 59.45 0.394 7.96 3.77 8.95
4/28/2023 12:45:00 AM 15.25 59.45 0.394 7.96 1.7 8.95
4/28/2023 1:00:00 AM 15.25 59.45 0.394 7.96 1.89 8.99
4/28/2023 1:15:00 AM 15.24 59.432 0.394 7.96 1.65 8.98
4/28/2023 1:30:00 AM 15.24 59.432 0.395 7.97 2.21 8.99
4/28/2023 1:45:00 AM 15.24 59.432 0.395 7.97 2.2 9.03
4/28/2023 2:00:00 AM 15.21 59.378 0.395 7.97 1.95 9.02
4/28/2023 2:15:00 AM 15.2 59.36 0.395 7.97 1.68 9.05
4/28/2023 2:30:00 AM 15.18 59.324 0.395 7.98 1.5 9.07
4/28/2023 2:45:00 AM 15.18 59.324 0.394 7.98 1.53 9.09
4/28/2023 3:00:00 AM 15.18 59.324 0.394 7.99 2.07 9.1
4/28/2023 3:15:00 AM 15.18 59.324 0.394 7.99 2.2 9.12
4/28/2023 3:30:00 AM 15.18 59.324 0.393 8 2.18 9.1
4/28/2023 3:45:00 AM 15.2 59.36 0.393 8 1.51 9.13
4/28/2023 4:00:00 AM 15.22 59.396 0.392 8.01 2.28 9.18
4/28/2023 4:15:00 AM 15.24 59.432 0.391 8.01 1.87 9.16
4/28/2023 4:30:00 AM 15.27 59.486 0.391 8.02 1.72 9.17
4/28/2023 4:45:00 AM 15.29 59.522 0.39 8.02 1.6 9.18
4/28/2023 5:00:00 AM 15.34 59.612 0.39 8.02 1.75 9.18
4/28/2023 5:15:00 AM 15.36 59.648 0.39 8.03 2.38 9.19
4/28/2023 5:30:00 AM 15.38 59.684 0.39 8.04 3.15 9.18
4/28/2023 5:45:00 AM 15.39 59.702 0.39 8.04 3.2 9.18
4/28/2023 6:00:00 AM 15.41 59.738 0.39 8.04 3.32 9.17
4/28/2023 6:15:00 AM 15.44 59.792 0.39 8.04 2.6 9.17
4/28/2023 6:30:00 AM 15.45 59.81 0.39 8.04 2.66 9.17
4/28/2023 6:45:00 AM 15.48 59.864 0.39 8.05 2.05 9.17
4/28/2023 7:00:00 AM 15.48 59.864 0.39 8.05 2.02 9.14
4/28/2023 7:15:00 AM 15.49 59.882 0.391 8.05 4.43 9.18
4/28/2023 7:30:00 AM 15.52 59.936 0.391 8.05 1.9 9.19
4/28/2023 7:45:00 AM 15.53 59.954 0.392 8.06 2.56 9.19
4/28/2023 8:00:00 AM 15.55 59.99 0.393 8.06 1.69 9.2
4/28/2023 8:15:00 AM 15.56 60.008 0.393 8.06 1.44 9.24
4/28/2023 8:30:00 AM 15.58 60.044 0.393 8.07 1.73 9.27
4/28/2023 8:45:00 AM 15.58 60.044 0.393 8.07 2.36 9.3
4/28/2023 9:00:00 AM 15.61 60.098 0.393 8.08 2 9.36
4/28/2023 9:15:00 AM 15.6 60.08 0.393 8.08 1.66 9.39
4/28/2023 9:30:00 AM 15.58 60.044 0.393 8.09 1.66 9.42
4/28/2023 9:45:00 AM 15.56 60.008 0.392 8.09 2.03 9.45
4/28/2023 10:00:00 AM 15.55 59.99 0.391 8.09 1.46 9.5
4/28/2023 10:15:00 AM 15.54 59.972 0.391 8.1 1.67 9.54
4/28/2023 10:30:00 AM 15.53 59.954 0.39 8.1 1.6 9.6
4/28/2023 10:45:00 AM 15.52 59.936 0.349 8.11 1.97 9.67
4/28/2023 11:00:00 AM 15.53 59.954 0.39 8.11 1.97 9.74
4/28/2023 11:15:00 AM 15.52 59.936 0.387 8.12 1.93 9.82
4/28/2023 11:30:00 AM 15.52 59.936 0.39 8.12 2.01 9.87
4/28/2023 11:45:00 AM 15.51 59.918 0.39 8.13 1.45 9.87
4/28/2023 12:00:00 PM 15.5 59.9 0.39 8.13 1.69 9.94
4/28/2023 12:15:00 PM 15.49 59.882 0.39 8.13 1.97 9.96
4/28/2023 12:30:00 PM 15.5 59.9 0.39 8.13 1.59 10.04
4/28/2023 12:45:00 PM 15.5 59.9 0.39 8.14 1.84 10.1
4/28/2023 1:00:00 PM 15.52 59.936 0.39 8.14 1.64 10.2
4/28/2023 1:15:00 PM 15.53 59.954 0.39 8.15 1.7 10.27
4/28/2023 1:30:00 PM 15.51 59.918 0.39 8.15 2.1 10.31
4/28/2023 1:45:00 PM 15.51 59.918 0.39 8.15 2.01 10.34
4/28/2023 2:00:00 PM 15.5 59.9 0.39 8.15 1.64 10.36
4/28/2023 2:15:00 PM 15.48 59.864 0.39 8.16 1.88 10.36
4/28/2023 2:30:00 PM 15.45 59.81 0.391 8.16 1.76 10.35
4/28/2023 2:45:00 PM 15.42 59.756 0.391 8.15 1.71 10.3
4/28/2023 3:00:00 PM 15.38 59.684 0.391 8.14 1.8 10.25
4/28/2023 3:15:00 PM 15.34 59.612 0.391 8.13 1.68 10.16
4/28/2023 3:30:00 PM 15.3 59.54 0.392 8.12 2.08 10.07
4/28/2023 3:45:00 PM 15.25 59.45 0.384 8.11 2.59 9.99
4/28/2023 4:00:00 PM 15.22 59.396 0.386 8.1 1.96 9.94
4/28/2023 4:15:00 PM 15.18 59.324 0.389 8.1 2.1 9.91
4/28/2023 4:30:00 PM 15.13 59.234 0.353 8.09 2.06 9.83
4/28/2023 4:45:00 PM 15.09 59.162 0.392 8.08 2.57 9.78
4/28/2023 5:00:00 PM 15.05 59.09 0.393 8.07 2.71 9.72
4/28/2023 5:15:00 PM 15.01 59.018 0.392 8.06 2.34 9.66
4/28/2023 5:30:00 PM 14.96 58.928 0.381 8.05 2.42 9.61
4/28/2023 5:45:00 PM 14.91 58.838 0.358 8.05 2.04 9.53
4/28/2023 6:00:00 PM 14.87 58.766 0.395 8.04 2.66 9.47
4/28/2023 6:15:00 PM 14.82 58.676 0.395 8.03 2.03 9.4
4/28/2023 6:30:00 PM 14.77 58.586 0.396 8.02 2.19 9.32
4/28/2023 6:45:00 PM 14.73 58.514 0.396 8.01 2.31 9.26
4/28/2023 7:00:00 PM 14.68 58.424 0.397 8 1.94 9.21
4/28/2023 7:15:00 PM 14.64 58.352 0.397 7.99 1.99 9.14
4/28/2023 7:30:00 PM 14.58 58.244 0.397 7.98 1.95 9.09
4/28/2023 7:45:00 PM 14.54 58.172 0.397 7.97 1.8 9.04
4/28/2023 8:00:00 PM 14.49 58.082 0.396 7.97 2.11 9.01
4/28/2023 8:15:00 PM 14.45 58.01 0.396 7.96 2.61 8.98
4/28/2023 8:30:00 PM 14.39 57.902 0.396 7.95 4.73 8.93
4/28/2023 8:45:00 PM 14.34 57.812 0.395 7.95 3.14 8.93
4/28/2023 9:00:00 PM 14.27 57.686 0.394 7.94 4.44 8.95
4/28/2023 9:15:00 PM 14.2 57.56 0.394 7.94 3.7 8.93
4/28/2023 9:30:00 PM 14.16 57.488 0.393 7.93 4.45 8.94
4/28/2023 9:45:00 PM 14.11 57.398 0.391 7.93 4.52 8.93
4/28/2023 10:00:00 PM 14.05 57.29 0.39 7.92 6.02 8.93
4/28/2023 10:15:00 PM 14.02 57.236 0.389 7.92 6.02 8.95
4/28/2023 10:30:00 PM 13.98 57.164 0.388 7.92 5.4 8.95
4/28/2023 10:45:00 PM 13.95 57.11 0.388 7.91 8.13 8.96
4/28/2023 11:00:00 PM 13.92 57.056 0.389 7.91 7.45 8.95
4/28/2023 11:15:00 PM 13.9 57.02 0.389 7.91 6.36 8.97
4/28/2023 11:30:00 PM 13.88 56.984 0.344 7.91 6.3 8.98
4/28/2023 11:45:00 PM 13.85 56.93 0.389 7.91 6.05 8.99
4/29/2023 12:00:00 AM 13.84 56.912 0.389 7.9 5.64 9
4/29/2023 12:15:00 AM 13.82 56.876 0.389 7.9 5.89 9.01
4/29/2023 12:30:00 AM 13.8 56.84 0.389 7.9 6.9 9.02
4/29/2023 12:45:00 AM 13.79 56.822 0.389 7.9 5.48 9.04
4/29/2023 1:00:00 AM 13.77 56.786 0.389 7.9 6.65 9.04
4/29/2023 1:15:00 AM 13.76 56.768 0.389 7.9 6.16 9.07
4/29/2023 1:30:00 AM 13.74 56.732 0.389 7.9 5.8 9.08
4/29/2023 1:45:00 AM 13.72 56.696 0.39 7.9 4.83 9.07
4/29/2023 2:00:00 AM 13.71 56.678 0.39 7.91 5.29 9.11
4/29/2023 2:15:00 AM 13.7 56.66 0.39 7.91 5.35 9.13
4/29/2023 2:30:00 AM 13.69 56.642 0.391 7.91 7 9.15
4/29/2023 2:45:00 AM 13.68 56.624 0.391 7.91 4.78 9.16
4/29/2023 3:00:00 AM 13.67 56.606 0.391 7.91 5.36 9.18
4/29/2023 3:15:00 AM 13.66 56.588 0.391 7.92 4.18 9.19
4/29/2023 3:30:00 AM 13.64 56.552 0.391 7.92 4.25 9.22
4/29/2023 3:45:00 AM 13.63 56.534 0.391 7.92 4.83 9.24
4/29/2023 4:00:00 AM 13.62 56.516 0.391 7.92 4.94 9.25
4/29/2023 4:15:00 AM 13.6 56.48 0.391 7.92 4.24 9.26
4/29/2023 4:30:00 AM 13.58 56.444 0.391 7.93 4.67 9.27
4/29/2023 4:45:00 AM 13.56 56.408 0.391 7.92 4.05 9.28
4/29/2023 5:00:00 AM 13.54 56.372 0.392 7.93 4.46 9.28
4/29/2023 5:15:00 AM 13.52 56.336 0.392 7.92 4.6 9.29
4/29/2023 5:30:00 AM 13.5 56.3 0.392 7.92 5.27 9.29
4/29/2023 5:45:00 AM 13.47 56.246 0.392 7.92 4.49 9.3
4/29/2023 6:00:00 AM 13.45 56.21 0.392 7.92 4.16 9.32
4/29/2023 6:15:00 AM 13.42 56.156 0.392 7.92 5 9.32
4/29/2023 6:30:00 AM 13.4 56.12 0.391 7.92 5.3 9.32
4/29/2023 6:45:00 AM 13.38 56.084 0.391 7.92 4.63 9.32
4/29/2023 7:00:00 AM 13.36 56.048 0.391 7.92 3.39 9.32
4/29/2023 7:15:00 AM 13.34 56.012 0.391 7.92 5.13 9.36
4/29/2023 7:30:00 AM 13.33 55.994 0.391 7.92 4.7 9.38
4/29/2023 7:45:00 AM 13.31 55.958 0.391 7.92 3.21 9.4
4/29/2023 8:00:00 AM 13.3 55.94 0.391 7.92 4.05 9.43
4/29/2023 8:15:00 AM 13.29 55.922 0.39 7.92 3.39 9.48
4/29/2023 8:30:00 AM 13.29 55.922 0.39 7.92 3.27 9.53
4/29/2023 8:45:00 AM 13.28 55.904 0.39 7.93 3.05 9.59
4/29/2023 9:00:00 AM 13.29 55.922 0.389 7.93 3.98 9.66
4/29/2023 9:15:00 AM 13.3 55.94 0.389 7.94 2.56 9.73
4/29/2023 9:30:00 AM 13.3 55.94 0.388 7.94 4.14 9.79
4/29/2023 9:45:00 AM 13.32 55.976 0.387 7.95 2.72 9.88
4/29/2023 10:00:00 AM 13.35 56.03 0.387 7.95 2.8 9.95
4/29/2023 10:15:00 AM 13.4 56.12 0.386 7.96 3.91 10.04
4/29/2023 10:30:00 AM 13.42 56.156 0.386 7.96 3.41 10.11
4/29/2023 10:45:00 AM 13.45 56.21 0.385 7.96 3.02 10.16
4/29/2023 11:00:00 AM 13.47 56.246 0.385 7.97 4.03 10.22
4/29/2023 11:15:00 AM 13.51 56.318 0.384 7.97 3.32 10.27
4/29/2023 11:30:00 AM 13.52 56.336 0.384 7.97 4.47 10.31
4/29/2023 11:45:00 AM 13.53 56.354 0.383 7.98 3.31 10.33
4/29/2023 12:00:00 PM 13.54 56.372 0.383 7.97 3.08 10.33
4/29/2023 12:15:00 PM 13.54 56.372 0.383 7.97 3.34 10.32
4/29/2023 12:30:00 PM 13.54 56.372 0.382 7.97 3.42 10.33
4/29/2023 12:45:00 PM 13.55 56.39 0.382 7.97 3.02 10.34
4/29/2023 1:00:00 PM 13.56 56.408 0.382 7.97 3.41 10.35
4/29/2023 1:15:00 PM 13.6 56.48 0.345 7.97 2.95 10.36
4/29/2023 1:30:00 PM 13.6 56.48 0.361 7.96 3.74 10.36
4/29/2023 1:45:00 PM 13.66 56.588 0.319 7.97 2.91 10.41
4/29/2023 2:00:00 PM 13.68 56.624 0.362 7.97 4.22 10.43
4/29/2023 2:15:00 PM 13.67 56.606 0.345 7.97 3.42 10.4
4/29/2023 2:30:00 PM 13.66 56.588 0.364 7.97 3.14 10.41
4/29/2023 2:45:00 PM 13.67 56.606 0.369 7.97 3.83 10.39
4/29/2023 3:00:00 PM 13.67 56.606 0.349 7.97 3.42 10.37
4/29/2023 3:15:00 PM 13.7 56.66 0.366 7.97 3.62 10.38
4/29/2023 3:30:00 PM 13.73 56.714 0.319 7.97 3.95 10.4
4/29/2023 3:45:00 PM 13.78 56.804 0.364 7.97 3.22 10.41
4/29/2023 4:00:00 PM 13.85 56.93 0.376 7.97 2.8 10.45
4/29/2023 4:15:00 PM 13.86 56.948 0.355 7.98 3.07 10.45
4/29/2023 4:30:00 PM 13.9 57.02 0.376 7.98 3.57 10.45
4/29/2023 4:45:00 PM 13.89 57.002 0.365 7.98 4.63 10.43
4/29/2023 5:00:00 PM 13.89 57.002 0.378 7.98 3.19 10.42
4/29/2023 5:15:00 PM 13.87 56.966 0.378 7.98 3.48 10.39
4/29/2023 5:30:00 PM 13.86 56.948 0.376 7.99 4.69 10.37
4/29/2023 5:45:00 PM 13.86 56.948 0.347 7.99 2.91 10.37
4/29/2023 6:00:00 PM 13.84 56.912 0.335 7.99 2.5 10.36
4/29/2023 6:15:00 PM 13.84 56.912 0.377 7.99 3.37 10.34
4/29/2023 6:30:00 PM 13.85 56.93 0.376 8 3.03 10.35
4/29/2023 6:45:00 PM 13.83 56.894 0.376 8 2.84 10.33
4/29/2023 7:00:00 PM 13.81 56.858 0.376 8 2.93 10.28
4/29/2023 7:15:00 PM 13.79 56.822 0.376 8 4.65 10.23
4/29/2023 7:30:00 PM 13.77 56.786 0.375 8 3.93 10.16
4/29/2023 7:45:00 PM 13.76 56.768 0.375 8 4.68 10.11
4/29/2023 8:00:00 PM 13.75 56.75 0.374 8 3.8 10.04
4/29/2023 8:15:00 PM 13.74 56.732 0.374 7.99 3.93 10.01
4/29/2023 8:30:00 PM 13.73 56.714 0.372 7.99 3.34 9.96
4/29/2023 8:45:00 PM 13.73 56.714 0.316 7.99 4.23 9.93
4/29/2023 9:00:00 PM 13.73 56.714 0.372 7.99 4.13 9.93
4/29/2023 9:15:00 PM 13.73 56.714 0.371 7.99 4.5 9.88
4/29/2023 9:30:00 PM 13.73 56.714 0.371 7.99 4.38 9.9
4/29/2023 9:45:00 PM 13.73 56.714 0.37 7.99 3.56 9.88
4/29/2023 10:00:00 PM 13.75 56.75 0.37 7.99 10.57 9.88
4/29/2023 10:15:00 PM 13.76 56.768 0.369 8 3.83 9.91
4/29/2023 10:30:00 PM 13.78 56.804 0.369 8 3.83 9.92
4/29/2023 10:45:00 PM 13.79 56.822 0.369 8 5.03 9.91
4/29/2023 11:00:00 PM 13.81 56.858 0.368 8 3.83 9.92
4/29/2023 11:15:00 PM 13.83 56.894 0.367 8.01 4.25 9.92
4/29/2023 11:30:00 PM 13.83 56.894 0.366 8.01 4.97 9.9
4/29/2023 11:45:00 PM 13.84 56.912 0.365 8.01 4.5 9.9
4/30/2023 12:00:00 AM 13.84 56.912 0.365 8 5.97 9.89
4/30/2023 12:15:00 AM 13.84 56.912 0.365 8.01 6.08 9.87
4/30/2023 12:30:00 AM 13.84 56.912 0.365 8 4.61 9.88
4/30/2023 12:45:00 AM 13.85 56.93 0.364 8 5.22 9.87
4/30/2023 1:00:00 AM 13.84 56.912 0.364 8 10.62 9.86
4/30/2023 1:15:00 AM 13.84 56.912 0.363 8.01 3.4 9.88
4/30/2023 1:30:00 AM 13.82 56.876 0.362 8 3.69 9.84
4/30/2023 1:45:00 AM 13.81 56.858 0.362 7.99 4.9 9.83
4/30/2023 2:00:00 AM 13.8 56.84 0.362 8 4.51 9.83
4/30/2023 2:15:00 AM 13.76 56.768 0.356 8 6.2 9.83
4/30/2023 2:30:00 AM 13.71 56.678 0.35 7.97 11.09 9.78
4/30/2023 2:45:00 AM 13.71 56.678 0.349 7.97 11.66 9.79
4/30/2023 3:00:00 AM 13.69 56.642 0.349 7.97 11.32 9.74
4/30/2023 3:15:00 AM 13.66 56.588 0.348 7.95 11.78 9.73
4/30/2023 3:30:00 AM 13.65 56.57 0.35 7.94 14.1 9.7
4/30/2023 3:45:00 AM 13.64 56.552 0.351 7.94 12.03 9.69
4/30/2023 4:00:00 AM 13.63 56.534 0.351 7.94 14.38 9.66
4/30/2023 4:15:00 AM 13.62 56.516 0.349 7.93 13.14 9.64
4/30/2023 4:30:00 AM 13.6 56.48 0.347 7.91 12.96 9.62
4/30/2023 4:45:00 AM 13.59 56.462 0.347 7.91 9.01 9.59
4/30/2023 5:00:00 AM 13.58 56.444 0.346 7.9 12.3 9.58
4/30/2023 5:15:00 AM 13.57 56.426 0.345 7.9 10.81 9.57
4/30/2023 5:30:00 AM 13.53 56.354 0.34 7.89 18.95 9.57
4/30/2023 5:45:00 AM 13.49 56.282 0.333 7.87 14.59 9.55
4/30/2023 6:00:00 AM 13.47 56.246 0.329 7.87 23.26 9.56
4/30/2023 6:15:00 AM 13.45 56.21 0.331 7.86 15.38 9.56
4/30/2023 6:30:00 AM 13.43 56.174 0.331 7.85 19.02 9.52
4/30/2023 6:45:00 AM 13.42 56.156 0.331 7.84 14.38 9.5
4/30/2023 7:00:00 AM 13.4 56.12 0.332 7.84 14.66 9.49
4/30/2023 7:15:00 AM 13.38 56.084 0.332 7.83 19.56 9.49
4/30/2023 7:30:00 AM 13.36 56.048 0.331 7.83 15.07 9.49
4/30/2023 7:45:00 AM 13.33 55.994 0.328 7.82 16.23 9.48
4/30/2023 8:00:00 AM 13.31 55.958 0.327 7.81 16.06 9.48
4/30/2023 8:15:00 AM 13.29 55.922 0.326 7.82 14.7 9.5
4/30/2023 8:30:00 AM 13.26 55.868 0.324 7.81 14.54 9.49
4/30/2023 8:45:00 AM 13.25 55.85 0.322 7.8 15.45 9.5
4/30/2023 9:00:00 AM 13.23 55.814 0.321 7.8 16.86 9.52
4/30/2023 9:15:00 AM 13.22 55.796 0.32 7.8 16.19 9.51
4/30/2023 9:30:00 AM 13.2 55.76 0.318 7.79 21.77 9.52
4/30/2023 9:45:00 AM 13.18 55.724 0.316 7.79 20.83 9.53
4/30/2023 10:00:00 AM 13.15 55.67 0.312 7.78 22.64 9.53
4/30/2023 10:15:00 AM 13.11 55.598 0.307 7.78 29.98 9.56
4/30/2023 10:30:00 AM 13.09 55.562 0.302 7.77 30.41 9.55
4/30/2023 10:45:00 AM 13.06 55.508 0.298 7.76 32.78 9.56
4/30/2023 11:00:00 AM 13.04 55.472 0.295 7.75 38.38 9.58
4/30/2023 11:15:00 AM 13.02 55.436 0.293 7.74 43.79 9.58
4/30/2023 11:30:00 AM 13.01 55.418 0.291 7.73 35.12 9.57
4/30/2023 11:45:00 AM 13 55.4 0.289 7.72 36.71 9.58
4/30/2023 12:00:00 PM 13 55.4 0.287 7.71 40.58 9.56
4/30/2023 12:15:00 PM 13.01 55.418 0.287 7.71 34.92 9.58
4/30/2023 12:30:00 PM 13.02 55.436 0.286 7.7 39.18 9.58
4/30/2023 12:45:00 PM 13.03 55.454 0.285 7.7 39.07 9.58
4/30/2023 1:00:00 PM 13.04 55.472 0.283 7.69 33.13 9.57
4/30/2023 1:15:00 PM 13.05 55.49 0.282 7.69 36.12 9.55
4/30/2023 1:30:00 PM 13.07 55.526 0.279 7.68 33.3 9.54
4/30/2023 1:45:00 PM 13.1 55.58 0.276 7.67 33.62 9.54
4/30/2023 2:00:00 PM 13.11 55.598 0.273 7.66 41.96 9.54
4/30/2023 2:15:00 PM 13.12 55.616 0.269 7.65 39.3 9.52
4/30/2023 2:30:00 PM 13.12 55.616 0.265 7.65 41.86 9.53
4/30/2023 2:45:00 PM 13.13 55.634 0.262 7.64 41.38 9.51
4/30/2023 3:00:00 PM 13.13 55.634 0.258 7.63 42.02 9.51
4/30/2023 3:15:00 PM 13.13 55.634 0.255 7.63 44.09 9.51
4/30/2023 3:30:00 PM 13.13 55.634 0.252 7.62 46.1 9.5
4/30/2023 3:45:00 PM 13.12 55.616 0.248 7.61 49.66 9.5
4/30/2023 4:00:00 PM 13.11 55.598 0.245 7.61 57.55 9.49
4/30/2023 4:15:00 PM 13.11 55.598 0.243 7.61 55.62 9.5
4/30/2023 4:30:00 PM 13.11 55.598 0.24 7.6 54.55 9.5
4/30/2023 4:45:00 PM 13.11 55.598 0.238 7.59 45.68 9.49
4/30/2023 5:00:00 PM 13.12 55.616 0.236 7.59 48.68 9.49
4/30/2023 5:15:00 PM 13.12 55.616 0.234 7.59 56.86 9.48
4/30/2023 5:30:00 PM 13.11 55.598 0.232 7.58 61.71 9.49
4/30/2023 5:45:00 PM 13.11 55.598 0.23 7.58 62.31 9.47
4/30/2023 6:00:00 PM 13.1 55.58 0.227 7.58 58.9 9.48
4/30/2023 6:15:00 PM 13.1 55.58 0.225 7.57 63.4 9.49
4/30/2023 6:30:00 PM 13.09 55.562 0.223 7.57 58.27 9.47
4/30/2023 6:45:00 PM 13.09 55.562 0.22 7.56 85.98 9.47
4/30/2023 7:00:00 PM 13.08 55.544 0.219 7.56 81.27 9.47
4/30/2023 7:15:00 PM 13.07 55.526 0.216 7.55 72.19 9.47
4/30/2023 7:30:00 PM 13.06 55.508 0.215 7.55 62.9 9.48
4/30/2023 7:45:00 PM 13.04 55.472 0.213 7.55 60.57 9.48
4/30/2023 8:00:00 PM 13.03 55.454 0.211 7.54 65.83 9.47
4/30/2023 8:15:00 PM 13.02 55.436 0.21 7.54 61.89 9.46
4/30/2023 8:30:00 PM 13.01 55.418 0.209 7.53 52.63 9.44
4/30/2023 8:45:00 PM 13 55.4 0.208 7.53 56.79 9.43
4/30/2023 9:00:00 PM 12.97 55.346 0.207 7.52 58.59 9.44
4/30/2023 9:15:00 PM 12.95 55.31 0.206 7.52 60.63 9.44
4/30/2023 9:30:00 PM 12.93 55.274 0.205 7.52 56.37 9.44
4/30/2023 9:45:00 PM 12.91 55.238 0.204 7.52 61.12 9.45
4/30/2023 10:00:00 PM 12.88 55.184 0.204 7.51 56.7 9.46
4/30/2023 10:15:00 PM 12.86 55.148 0.163 7.52 56.35 9.46
4/30/2023 10:30:00 PM 12.84 55.112 0.159 7.52 49.55 9.45
4/30/2023 10:45:00 PM 12.82 55.076 0.177 7.51 55.94 9.47
4/30/2023 11:00:00 PM 12.79 55.022 0.196 7.51 46.49 9.47
4/30/2023 11:15:00 PM 12.78 55.004 0.184 7.51 50.55 9.47
4/30/2023 11:30:00 PM 12.76 54.968 0.184 7.51 54.32 9.48
4/30/2023 11:45:00 PM 12.74 54.932 0.186 7.51 49.1 9.48
5/1/2023 12:00:00 AM 12.72 54.896 0.183 7.51 51.37 9.5
5/1/2023 12:15:00 AM 12.71 54.878 0.184 7.51 45.37 9.49
5/1/2023 12:30:00 AM 12.69 54.842 0.184 7.51 49.38 9.5
5/1/2023 12:45:00 AM 12.67 54.806 0.182 7.51 43.92 9.52
5/1/2023 1:00:00 AM 12.66 54.788 0.185 7.5 51.73 9.53
5/1/2023 1:15:00 AM 12.64 54.752 0.187 7.51 49.46 9.52
5/1/2023 1:30:00 AM 12.63 54.734 0.187 7.51 54.08 9.52
5/1/2023 1:45:00 AM 12.6 54.68 0.195 7.51 46.82 9.55
5/1/2023 2:00:00 AM 12.57 54.626 0.196 7.51 53.8 9.54
5/1/2023 2:15:00 AM 12.55 54.59 0.19 7.51 56.12 9.56
5/1/2023 2:30:00 AM 12.53 54.554 0.191 7.51 45.32 9.56
5/1/2023 2:45:00 AM 12.51 54.518 0.186 7.51 41.73 9.56
5/1/2023 3:00:00 AM 12.49 54.482 0.191 7.51 47.51 9.58
5/1/2023 3:15:00 AM 12.47 54.446 0.196 7.51 46.42 9.58
5/1/2023 3:30:00 AM 12.45 54.41 0.193 7.52 46.53 9.59
5/1/2023 3:45:00 AM 12.43 54.374 0.191 7.51 44.84 9.58
5/1/2023 4:00:00 AM 12.42 54.356 0.198 7.52 54.83 9.59
5/1/2023 4:15:00 AM 12.4 54.32 0.2 7.52 41.4 9.6
5/1/2023 4:30:00 AM 12.38 54.284 0.198 7.52 66.54 9.61
5/1/2023 4:45:00 AM 12.36 54.248 0.201 7.52 46.64 9.63
5/1/2023 5:00:00 AM 12.34 54.212 0.201 7.52 45.24 9.6
5/1/2023 5:15:00 AM 12.32 54.176 0.202 7.53 39.45 9.62
5/1/2023 5:30:00 AM 12.29 54.122 0.202 7.53 42.68 9.63
5/1/2023 5:45:00 AM 12.27 54.086 0.204 7.53 53.07 9.66
5/1/2023 6:00:00 AM 12.24 54.032 0.204 7.53 48.61 9.65
5/1/2023 6:15:00 AM 12.22 53.996 0.205 7.53 45.63 9.66
5/1/2023 6:30:00 AM 12.2 53.96 0.205 7.53 40.56 9.65
5/1/2023 6:45:00 AM 12.17 53.906 0.204 7.54 42.66 9.67
5/1/2023 7:00:00 AM 12.15 53.87 0.201 7.54 46.57 9.69
5/1/2023 7:15:00 AM 12.13 53.834 0.201 7.55 42.56 9.7
5/1/2023 7:30:00 AM 12.11 53.798 0.204 7.54 41.15 9.71
5/1/2023 7:45:00 AM 12.09 53.762 0.204 7.54 42.94 9.72
5/1/2023 8:00:00 AM 12.08 53.744 0.203 7.55 37.01 9.74
5/1/2023 8:15:00 AM 12.07 53.726 0.204 7.54 39.58 9.75
5/1/2023 8:30:00 AM 12.05 53.69 0.199 7.55 37.36 9.75
5/1/2023 8:45:00 AM 12.03 53.654 0.212 7.55 31.9 9.76
5/1/2023 9:00:00 AM 12.01 53.618 0.211 7.55 33.2 9.77
5/1/2023 9:15:00 AM 12.01 53.618 0.211 7.55 30.41 9.79
5/1/2023 9:30:00 AM 12.03 53.654 0.211 7.56 34.55 9.79
5/1/2023 9:45:00 AM 12.01 53.618 0.211 7.56 36.13 9.81
5/1/2023 10:00:00 AM 12.01 53.618 0.211 7.56 34.3 9.81
5/1/2023 10:15:00 AM 12.01 53.618 0.211 7.57 30.92 9.83
5/1/2023 10:30:00 AM 12.01 53.618 0.211 7.57 35.4 9.84
5/1/2023 10:45:00 AM 12.02 53.636 0.211 7.57 26.92 9.86
5/1/2023 11:00:00 AM 12.05 53.69 0.211 7.56 27.68 9.85
5/1/2023 11:15:00 AM 12.06 53.708 0.211 7.57 27.33 9.87
5/1/2023 11:30:00 AM 12.09 53.762 0.211 7.57 28 9.87
5/1/2023 11:45:00 AM 12.13 53.834 0.21 7.57 25.03 9.87
5/1/2023 12:00:00 PM 12.13 53.834 0.211 7.57 33.79 9.87
5/1/2023 12:15:00 PM 12.15 53.87 0.211 7.57 24.01 9.89
5/1/2023 12:30:00 PM 12.19 53.942 0.21 7.57 30.35 9.9
5/1/2023 12:45:00 PM 12.25 54.05 0.21 7.58 37.47 9.91
5/1/2023 1:00:00 PM 12.31 54.158 0.21 7.58 26.45 9.94
5/1/2023 1:15:00 PM 12.38 54.284 0.21 7.58 23.41 9.95
5/1/2023 1:30:00 PM 12.44 54.392 0.21 7.58 30.99 9.96
5/1/2023 1:45:00 PM 12.51 54.518 0.21 7.58 26.38 9.95
5/1/2023 2:00:00 PM 12.56 54.608 0.209 7.58 27.16 9.95
5/1/2023 2:15:00 PM 12.57 54.626 0.209 7.58 24.1 9.96
5/1/2023 2:30:00 PM 12.64 54.752 0.208 7.58 24.26 9.97
5/1/2023 2:45:00 PM 12.62 54.716 0.208 7.58 26.56 9.96
5/1/2023 3:00:00 PM 12.6 54.68 0.207 7.58 21.94 9.94
5/1/2023 3:15:00 PM 12.62 54.716 0.207 7.58 25.68 9.95
5/1/2023 3:30:00 PM 12.69 54.842 0.206 7.58 24.49 9.94
5/1/2023 3:45:00 PM 12.82 55.076 0.206 7.58 24.25 9.96
5/1/2023 4:00:00 PM 12.9 55.22 0.206 7.59 24.37 9.95
5/1/2023 4:15:00 PM 12.96 55.328 0.207 7.59 25.4 9.98
5/1/2023 4:30:00 PM 13 55.4 0.207 7.59 25.7 10
5/1/2023 4:45:00 PM 13.01 55.418 0.207 7.59 25.6 9.97
5/1/2023 5:00:00 PM 12.99 55.382 0.206 7.59 22.93 9.96
5/1/2023 5:15:00 PM 12.97 55.346 0.206 7.59 24.06 9.97
5/1/2023 5:30:00 PM 12.95 55.31 0.206 7.59 23.08 9.95
5/1/2023 5:45:00 PM 12.95 55.31 0.206 7.59 24.08 9.96
5/1/2023 6:00:00 PM 12.93 55.274 0.206 7.59 20.45 9.93
5/1/2023 6:15:00 PM 12.91 55.238 0.206 7.59 25.31 9.94
5/1/2023 6:30:00 PM 12.89 55.202 0.206 7.59 30.36 9.93
5/1/2023 6:45:00 PM 12.87 55.166 0.206 7.6 22.33 9.94
5/1/2023 7:00:00 PM 12.85 55.13 0.206 7.59 35.78 9.92
5/1/2023 7:15:00 PM 12.82 55.076 0.206 7.59 23.7 9.91
5/1/2023 7:30:00 PM 12.79 55.022 0.206 7.6 24.64 9.89
5/1/2023 7:45:00 PM 12.77 54.986 0.206 7.59 20.06 9.9
5/1/2023 8:00:00 PM 12.75 54.95 0.205 7.59 20.83 9.88
5/1/2023 8:15:00 PM 12.73 54.914 0.205 7.59 24.23 9.89
5/1/2023 8:30:00 PM 12.7 54.86 0.206 7.59 21.37 9.88
5/1/2023 8:45:00 PM 12.68 54.824 0.205 7.59 21.29 9.89
5/1/2023 9:00:00 PM 12.65 54.77 0.206 7.59 24.81 9.89
5/1/2023 9:15:00 PM 12.62 54.716 0.206 7.59 22.8 9.87
5/1/2023 9:30:00 PM 12.6 54.68 0.206 7.59 25.97 9.89
5/1/2023 9:45:00 PM 12.58 54.644 0.206 7.59 23.38 9.87
5/1/2023 10:00:00 PM 12.56 54.608 0.205 7.59 21.8 9.89
5/1/2023 10:15:00 PM 12.54 54.572 0.205 7.59 18.7 9.88
5/1/2023 10:30:00 PM 12.52 54.536 0.205 7.59 20.48 9.88
5/1/2023 10:45:00 PM 12.5 54.5 0.205 7.59 19.85 9.89
5/1/2023 11:00:00 PM 12.48 54.464 0.205 7.59 21.39 9.88
5/1/2023 11:15:00 PM 12.46 54.428 0.205 7.59 20.73 9.87
5/1/2023 11:30:00 PM 12.44 54.392 0.205 7.59 23.97 9.86
5/1/2023 11:45:00 PM 12.42 54.356 0.205 7.59 21.95 9.86
5/2/2023 12:00:00 AM 12.4 54.32 0.206 7.59 27.25 9.87
5/2/2023 12:15:00 AM 12.37 54.266 0.205 7.59 21.3 9.87
5/2/2023 12:30:00 AM 12.34 54.212 0.205 7.59 22.11 9.87
5/2/2023 12:45:00 AM 12.31 54.158 0.204 7.59 20.11 9.87
5/2/2023 1:00:00 AM 12.28 54.104 0.204 7.59 20.34 9.88
5/2/2023 1:15:00 AM 12.24 54.032 0.204 7.6 22.38 9.86
5/2/2023 1:30:00 AM 12.2 53.96 0.204 7.6 22.79 9.88
5/2/2023 1:45:00 AM 12.16 53.888 0.204 7.59 25.22 9.89
5/2/2023 2:00:00 AM 12.13 53.834 0.204 7.6 19.13 9.9
5/2/2023 2:15:00 AM 12.09 53.762 0.204 7.59 27.22 9.9
5/2/2023 2:30:00 AM 12.05 53.69 0.204 7.6 19.54 9.91
5/2/2023 2:45:00 AM 12.02 53.636 0.204 7.6 18.44 9.9
5/2/2023 3:00:00 AM 11.98 53.564 0.204 7.6 19.52 9.9
5/2/2023 3:15:00 AM 11.96 53.528 0.204 7.6 19.72 9.93
5/2/2023 3:30:00 AM 11.93 53.474 0.204 7.6 20.91 9.93
5/2/2023 3:45:00 AM 11.91 53.438 0.204 7.6 23.25 9.95
5/2/2023 4:00:00 AM 11.88 53.384 0.204 7.6 19.55 9.95
5/2/2023 4:15:00 AM 11.86 53.348 0.204 7.6 18.87 9.96
5/2/2023 4:30:00 AM 11.83 53.294 0.204 7.61 21.19 9.93
5/2/2023 4:45:00 AM 11.81 53.258 0.204 7.61 15.87 9.97
5/2/2023 5:00:00 AM 11.78 53.204 0.205 7.61 16.11 9.96
5/2/2023 5:15:00 AM 11.76 53.168 0.205 7.61 19.61 9.97
5/2/2023 5:30:00 AM 11.73 53.114 0.205 7.61 18.27 9.98
5/2/2023 5:45:00 AM 11.7 53.06 0.205 7.61 20.6 9.98
5/2/2023 6:00:00 AM 11.68 53.024 0.205 7.61 19.57 10
5/2/2023 6:15:00 AM 11.65 52.97 0.205 7.61 18.59 10.01
5/2/2023 6:30:00 AM 11.63 52.934 0.205 7.61 18.52 9.99
5/2/2023 6:45:00 AM 11.6 52.88 0.205 7.62 17.91 10.02
5/2/2023 7:00:00 AM 11.57 52.826 0.205 7.62 16.39 10.02
5/2/2023 7:15:00 AM 11.55 52.79 0.205 7.62 14.93 10.04
5/2/2023 7:30:00 AM 11.54 52.772 0.205 7.62 16.64 10.03
5/2/2023 7:45:00 AM 11.52 52.736 0.206 7.62 16.43 10.07
5/2/2023 8:00:00 AM 11.51 52.718 0.206 7.62 16.68 10.07
5/2/2023 8:15:00 AM 11.5 52.7 0.205 7.62 16.14 10.1
5/2/2023 8:30:00 AM 11.49 52.682 0.206 7.62 16.68 10.11
5/2/2023 8:45:00 AM 11.49 52.682 0.206 7.63 18.69 10.15
5/2/2023 9:00:00 AM 11.5 52.7 0.206 7.63 15.61 10.16
5/2/2023 9:15:00 AM 11.5 52.7 0.206 7.64 14.56 10.17
5/2/2023 9:30:00 AM 11.49 52.682 0.207 7.64 14.34 10.2
5/2/2023 9:45:00 AM 11.49 52.682 0.207 7.64 14.21 10.21
5/2/2023 10:00:00 AM 11.48 52.664 0.207 7.64 13.26 10.22
5/2/2023 10:15:00 AM 11.48 52.664 0.207 7.64 12.91 10.23
5/2/2023 10:30:00 AM 11.49 52.682 0.207 7.65 14.93 10.23
5/2/2023 10:45:00 AM 11.51 52.718 0.207 7.65 12.01 10.26
5/2/2023 11:00:00 AM 11.52 52.736 0.208 7.65 13.98 10.32
5/2/2023 11:15:00 AM 11.54 52.772 0.208 7.65 15.8 10.34
5/2/2023 11:30:00 AM 11.55 52.79 0.208 7.65 16.27 10.36
5/2/2023 11:45:00 AM 11.57 52.826 0.208 7.67 16.71 10.37
5/2/2023 12:00:00 PM 11.58 52.844 0.208 7.67 13.47 10.39
5/2/2023 12:15:00 PM 11.6 52.88 0.209 7.67 14.54 10.4
5/2/2023 12:30:00 PM 11.6 52.88 0.209 7.68 13.02 10.41
5/2/2023 12:45:00 PM 11.62 52.916 0.209 7.68 13.51 10.41
5/2/2023 1:00:00 PM 11.63 52.934 0.209 7.67 15.67 10.43
5/2/2023 1:15:00 PM 11.64 52.952 0.209 7.68 13.47 10.43
5/2/2023 1:30:00 PM 11.66 52.988 0.209 7.69 13.7 10.46
5/2/2023 1:45:00 PM 11.69 53.042 0.21 7.69 13.97 10.48
5/2/2023 2:00:00 PM 11.71 53.078 0.21 7.7 14.24 10.49
5/2/2023 2:15:00 PM 11.74 53.132 0.205 7.69 14.03 10.51
5/2/2023 2:30:00 PM 11.77 53.186 0.207 7.7 12.9 10.53
5/2/2023 2:45:00 PM 11.78 53.204 0.194 7.71 14.36 10.53
5/2/2023 3:00:00 PM 11.82 53.276 0.192 7.71 12.02 10.55
5/2/2023 3:15:00 PM 11.84 53.312 0.193 7.71 15.23 10.55
5/2/2023 3:30:00 PM 11.85 53.33 0.211 7.72 12.74 10.57
5/2/2023 3:45:00 PM 11.86 53.348 0.205 7.72 11.96 10.57
5/2/2023 4:00:00 PM 11.87 53.366 0.206 7.72 13.14 10.55
5/2/2023 4:15:00 PM 11.87 53.366 0.204 7.73 11.8 10.57
5/2/2023 4:30:00 PM 11.87 53.366 0.202 7.73 12.12 10.56
5/2/2023 4:45:00 PM 11.86 53.348 0.192 7.73 14.03 10.55
5/2/2023 5:00:00 PM 11.87 53.366 0.198 7.73 13.47 10.54
5/2/2023 5:15:00 PM 11.87 53.366 0.198 7.73 11.05 10.53
5/2/2023 5:30:00 PM 11.87 53.366 0.199 7.73 11.32 10.52
5/2/2023 5:45:00 PM 11.88 53.384 0.197 7.74 11.03 10.55
5/2/2023 6:00:00 PM 11.89 53.402 0.193 7.74 11.49 10.56
5/2/2023 6:15:00 PM 11.88 53.384 0.194 7.74 15.73 10.55
5/2/2023 6:30:00 PM 11.87 53.366 0.196 7.74 10.81 10.55
5/2/2023 6:45:00 PM 11.85 53.33 0.197 7.74 12.45 10.55
5/2/2023 7:00:00 PM 11.83 53.294 0.198 7.75 12.3 10.53
5/2/2023 7:15:00 PM 11.81 53.258 0.194 7.75 11.09 10.51
5/2/2023 7:30:00 PM 11.78 53.204 0.213 7.74 11.72 10.49
5/2/2023 7:45:00 PM 11.76 53.168 0.209 7.74 12.62 10.48
5/2/2023 8:00:00 PM 11.74 53.132 0.21 7.73 12.13 10.45
5/2/2023 8:15:00 PM 11.72 53.096 0.205 7.74 10.96 10.45
5/2/2023 8:30:00 PM 11.7 53.06 0.216 7.74 12.06 10.44
5/2/2023 8:45:00 PM 11.68 53.024 0.216 7.74 12.09 10.43
5/2/2023 9:00:00 PM 11.66 52.988 0.216 7.74 12.09 10.42
5/2/2023 9:15:00 PM 11.64 52.952 0.218 7.73 11.67 10.42
5/2/2023 9:30:00 PM 11.62 52.916 0.219 7.73 14.71 10.41
5/2/2023 9:45:00 PM 11.6 52.88 0.22 7.73 14.26 10.43
5/2/2023 10:00:00 PM 11.57 52.826 0.22 7.73 12 10.42
5/2/2023 10:15:00 PM 11.54 52.772 0.221 7.73 11.74 10.42
5/2/2023 10:30:00 PM 11.51 52.718 0.221 7.73 12.99 10.41
5/2/2023 10:45:00 PM 11.48 52.664 0.221 7.73 13.95 10.42
5/2/2023 11:00:00 PM 11.45 52.61 0.221 7.73 13.04 10.42
5/2/2023 11:15:00 PM 11.43 52.574 0.221 7.73 13.65 10.41
5/2/2023 11:30:00 PM 11.4 52.52 0.221 7.73 13.47 10.39
5/2/2023 11:45:00 PM 11.37 52.466 0.222 7.73 11.54 10.4
5/3/2023 12:00:00 AM 11.35 52.43 0.222 7.72 10.84 10.39
5/3/2023 12:15:00 AM 11.33 52.394 0.223 7.72 11.71 10.38
5/3/2023 12:30:00 AM 11.31 52.358 0.223 7.72 13.16 10.38
5/3/2023 12:45:00 AM 11.29 52.322 0.223 7.72 13.5 10.39
5/3/2023 1:00:00 AM 11.27 52.286 0.223 7.72 10.9 10.39
5/3/2023 1:15:00 AM 11.25 52.25 0.224 7.72 12.12 10.38
5/3/2023 1:30:00 AM 11.23 52.214 0.224 7.71 13.49 10.37
5/3/2023 1:45:00 AM 11.21 52.178 0.224 7.71 11.89 10.36
5/3/2023 2:00:00 AM 11.19 52.142 0.224 7.71 12.25 10.36
5/3/2023 2:15:00 AM 11.17 52.106 0.224 7.71 13.2 10.37
5/3/2023 2:30:00 AM 11.15 52.07 0.225 7.71 15.03 10.36
5/3/2023 2:45:00 AM 11.12 52.016 0.225 7.71 12.5 10.34
5/3/2023 3:00:00 AM 11.1 51.98 0.225 7.71 11.17 10.36
5/3/2023 3:15:00 AM 11.08 51.944 0.225 7.71 13.88 10.37
5/3/2023 3:30:00 AM 11.06 51.908 0.226 7.71 11.08 10.36
5/3/2023 3:45:00 AM 11.03 51.854 0.226 7.71 11.07 10.35
5/3/2023 4:00:00 AM 11.01 51.818 0.226 7.7 11.24 10.36
5/3/2023 4:15:00 AM 10.99 51.782 0.226 7.71 11.79 10.35
5/3/2023 4:30:00 AM 10.96 51.728 0.226 7.7 10.72 10.36
5/3/2023 4:45:00 AM 10.94 51.692 0.226 7.71 12.77 10.36
5/3/2023 5:00:00 AM 10.91 51.638 0.227 7.7 13.22 10.34
5/3/2023 5:15:00 AM 10.89 51.602 0.227 7.7 10.26 10.34
5/3/2023 5:30:00 AM 10.87 51.566 0.227 7.7 10.04 10.35
5/3/2023 5:45:00 AM 10.85 51.53 0.227 7.7 12.77 10.34
5/3/2023 6:00:00 AM 10.84 51.512 0.227 7.71 11.61 10.35
5/3/2023 6:15:00 AM 10.82 51.476 0.228 7.7 11 10.34
5/3/2023 6:30:00 AM 10.81 51.458 0.228 7.7 10.4 10.36
5/3/2023 6:45:00 AM 10.8 51.44 0.228 7.7 11.19 10.36
5/3/2023 7:00:00 AM 10.79 51.422 0.228 7.71 13.02 10.36
5/3/2023 7:15:00 AM 10.78 51.404 0.228 7.7 11.5 10.37
5/3/2023 7:30:00 AM 10.77 51.386 0.228 7.7 10.85 10.37
5/3/2023 7:45:00 AM 10.77 51.386 0.228 7.7 11.66 10.39
5/3/2023 8:00:00 AM 10.76 51.368 0.229 7.71 11.38 10.42
5/3/2023 8:15:00 AM 10.77 51.386 0.229 7.71 11.41 10.44
5/3/2023 8:30:00 AM 10.77 51.386 0.229 7.71 10.62 10.47
5/3/2023 8:45:00 AM 10.77 51.386 0.229 7.71 9.21 10.49
5/3/2023 9:00:00 AM 10.77 51.386 0.229 7.71 10.3 10.51
5/3/2023 9:15:00 AM 10.75 51.35 0.229 7.72 10.66 10.52
5/3/2023 9:30:00 AM 10.73 51.314 0.229 7.72 10.46 10.54
5/3/2023 9:45:00 AM 10.73 51.314 0.229 7.72 9.49 10.56
5/3/2023 10:00:00 AM 10.74 51.332 0.229 7.72 10.04 10.57
5/3/2023 10:15:00 AM 10.75 51.35 0.23 7.72 12.19 10.58
5/3/2023 10:30:00 AM 10.77 51.386 0.23 7.73 9.95 10.64
5/3/2023 10:45:00 AM 10.81 51.458 0.23 7.73 9.31 10.67
5/3/2023 11:00:00 AM 10.82 51.476 0.23 7.73 9.8 10.69
5/3/2023 11:15:00 AM 10.85 51.53 0.23 7.74 10.34 10.73
5/3/2023 11:30:00 AM 10.87 51.566 0.23 7.74 14.2 10.75
5/3/2023 11:45:00 AM 10.89 51.602 0.23 7.75 10.45 10.76
5/3/2023 12:00:00 PM 10.94 51.692 0.23 7.76 10.61 10.79
5/3/2023 12:15:00 PM 10.99 51.782 0.23 7.76 11.05 10.82
5/3/2023 12:30:00 PM 11.05 51.89 0.23 7.76 10.69 10.85
5/3/2023 12:45:00 PM 11.11 51.998 0.23 7.76 11.2 10.87
5/3/2023 1:00:00 PM 11.15 52.07 0.23 7.77 9.23 10.86
5/3/2023 1:15:00 PM 11.15 52.07 0.23 7.77 9.68 10.87
5/3/2023 1:30:00 PM 11.17 52.106 0.23 7.78 10.12 10.89
5/3/2023 1:45:00 PM 11.2 52.16 0.23 7.78 8.45 10.87
5/3/2023 2:00:00 PM 11.21 52.178 0.23 7.79 8.45 10.85
5/3/2023 2:15:00 PM 11.22 52.196 0.23 7.79 8.68 10.86
5/3/2023 2:30:00 PM 11.26 52.268 0.23 7.79 10.23 10.88
5/3/2023 2:45:00 PM 11.27 52.286 0.231 7.8 8.36 10.88
5/3/2023 3:00:00 PM 11.29 52.322 0.231 7.8 9.64 10.88
5/3/2023 3:15:00 PM 11.27 52.286 0.231 7.8 10.5 10.87
5/3/2023 3:30:00 PM 11.29 52.322 0.231 7.81 9.13 10.87
5/3/2023 3:45:00 PM 11.34 52.412 0.231 7.8 13.13 10.89
5/3/2023 4:00:00 PM 11.42 52.556 0.231 7.82 8.68 10.9
5/3/2023 4:15:00 PM 11.45 52.61 0.231 7.82 8.76 10.89
5/3/2023 4:30:00 PM 11.55 52.79 0.231 7.82 9.37 10.95
5/3/2023 4:45:00 PM 11.62 52.916 0.232 7.84 9.33 10.97
5/3/2023 5:00:00 PM 11.7 53.06 0.232 7.84 8.85 11
5/3/2023 5:15:00 PM 11.69 53.042 0.232 7.84 8.85 10.95
5/3/2023 5:30:00 PM 11.68 53.024 0.233 7.84 8.75 10.95
5/3/2023 5:45:00 PM 11.65 52.97 0.233 7.85 8.22 10.93
5/3/2023 6:00:00 PM 11.64 52.952 0.233 7.85 8.5 10.9
5/3/2023 6:15:00 PM 11.59 52.862 0.233 7.85 8.78 10.9
5/3/2023 6:30:00 PM 11.57 52.826 0.233 7.85 8.51 10.87
5/3/2023 6:45:00 PM 11.55 52.79 0.233 7.85 9.03 10.86
5/3/2023 7:00:00 PM 11.52 52.736 0.233 7.85 9.09 10.84
5/3/2023 7:15:00 PM 11.48 52.664 0.233 7.85 10.65 10.81
5/3/2023 7:30:00 PM 11.45 52.61 0.234 7.85 8.98 10.79
5/3/2023 7:45:00 PM 11.43 52.574 0.234 7.84 8.57 10.76
5/3/2023 8:00:00 PM 11.41 52.538 0.234 7.84 8.7 10.71
5/3/2023 8:15:00 PM 11.39 52.502 0.234 7.84 9.68 10.71
5/3/2023 8:30:00 PM 11.37 52.466 0.234 7.83 9.4 10.68
5/3/2023 8:45:00 PM 11.36 52.448 0.235 7.83 9.03 10.69
5/3/2023 9:00:00 PM 11.34 52.412 0.235 7.83 11.2 10.67
5/3/2023 9:15:00 PM 11.32 52.376 0.235 7.83 10.79 10.64
5/3/2023 9:30:00 PM 11.3 52.34 0.235 7.82 8.37 10.63
5/3/2023 9:45:00 PM 11.27 52.286 0.235 7.83 9.58 10.64
5/3/2023 10:00:00 PM 11.24 52.232 0.235 7.83 9.27 10.64
5/3/2023 10:15:00 PM 11.21 52.178 0.236 7.82 8.6 10.64
5/3/2023 10:30:00 PM 11.18 52.124 0.236 7.81 8.86 10.64
5/3/2023 10:45:00 PM 11.14 52.052 0.236 7.81 8.97 10.64
5/3/2023 11:00:00 PM 11.11 51.998 0.236 7.82 9.49 10.64
5/3/2023 11:15:00 PM 11.07 51.926 0.236 7.81 7.37 10.64
5/3/2023 11:30:00 PM 11.03 51.854 0.236 7.8 9.33 10.64
5/3/2023 11:45:00 PM 10.99 51.782 0.237 7.8 11.07 10.63
5/4/2023 12:00:00 AM 10.96 51.728 0.237 7.81 9.05 10.6
5/4/2023 12:15:00 AM 10.92 51.656 0.237 7.8 8.2 10.62
5/4/2023 12:30:00 AM 10.89 51.602 0.237 7.79 8.7 10.61
5/4/2023 12:45:00 AM 10.85 51.53 0.237 7.79 7.76 10.61
5/4/2023 1:00:00 AM 10.82 51.476 0.238 7.79 8.97 10.58
5/4/2023 1:15:00 AM 10.78 51.404 0.238 7.79 8.69 10.59
5/4/2023 1:30:00 AM 10.74 51.332 0.238 7.78 7.97 10.6
5/4/2023 1:45:00 AM 10.7 51.26 0.238 7.78 9.28 10.59
5/4/2023 2:00:00 AM 10.66 51.188 0.238 7.78 10.02 10.58
5/4/2023 2:15:00 AM 10.63 51.134 0.239 7.77 8.57 10.58
5/4/2023 2:30:00 AM 10.6 51.08 0.239 7.77 8.05 10.58
5/4/2023 2:45:00 AM 10.57 51.026 0.239 7.77 8.01 10.58
5/4/2023 3:00:00 AM 10.54 50.972 0.24 7.77 9.15 10.57
5/4/2023 3:15:00 AM 10.51 50.918 0.239 7.77 8.29 10.55
5/4/2023 3:30:00 AM 10.48 50.864 0.24 7.77 7.82 10.56
5/4/2023 3:45:00 AM 10.45 50.81 0.24 7.76 9.35 10.55
5/4/2023 4:00:00 AM 10.42 50.756 0.24 7.76 10.48 10.56
5/4/2023 4:15:00 AM 10.4 50.72 0.24 7.76 8.9 10.57
5/4/2023 4:30:00 AM 10.38 50.684 0.24 7.76 8.74 10.58
5/4/2023 4:45:00 AM 10.35 50.63 0.241 7.76 8.15 10.58
5/4/2023 5:00:00 AM 10.32 50.576 0.241 7.76 8 10.56
5/4/2023 5:15:00 AM 10.3 50.54 0.241 7.76 9.22 10.58
5/4/2023 5:30:00 AM 10.26 50.468 0.241 7.76 9.52 10.58
5/4/2023 5:45:00 AM 10.23 50.414 0.241 7.76 8.69 10.58
5/4/2023 6:00:00 AM 10.2 50.36 0.241 7.76 7.6 10.59
5/4/2023 6:15:00 AM 10.17 50.306 0.241 7.76 9.64 10.6
5/4/2023 6:30:00 AM 10.14 50.252 0.241 7.76 8.76 10.59
5/4/2023 6:45:00 AM 10.12 50.216 0.242 7.75 8.11 10.62
5/4/2023 7:00:00 AM 10.11 50.198 0.242 7.75 7.66 10.6
5/4/2023 7:15:00 AM 10.09 50.162 0.242 7.75 7.47 10.63
5/4/2023 7:30:00 AM 10.09 50.162 0.242 7.75 9.41 10.66
5/4/2023 7:45:00 AM 10.07 50.126 0.242 7.75 7.97 10.67
5/4/2023 8:00:00 AM 10.07 50.126 0.242 7.76 7.87 10.69
5/4/2023 8:15:00 AM 10.09 50.162 0.243 7.76 8.12 10.71
5/4/2023 8:30:00 AM 10.1 50.18 0.243 7.76 7.96 10.72
5/4/2023 8:45:00 AM 10.11 50.198 0.243 7.76 10.64 10.77
5/4/2023 9:00:00 AM 10.11 50.198 0.243 7.76 7.53 10.81
5/4/2023 9:15:00 AM 10.13 50.234 0.243 7.77 7.25 10.85
5/4/2023 9:30:00 AM 10.17 50.306 0.243 7.77 7.67 10.88
5/4/2023 9:45:00 AM 10.22 50.396 0.244 7.78 8.11 10.93
5/4/2023 10:00:00 AM 10.25 50.45 0.244 7.78 8.1 10.96
5/4/2023 10:15:00 AM 10.28 50.504 0.244 7.78 8.34 10.99
5/4/2023 10:30:00 AM 10.31 50.558 0.244 7.79 7.32 11
5/4/2023 10:45:00 AM 10.34 50.612 0.244 7.79 7.71 11.04
5/4/2023 11:00:00 AM 10.35 50.63 0.245 7.79 7.21 11.03
5/4/2023 11:15:00 AM 10.38 50.684 0.245 7.79 7.79 11.06
5/4/2023 11:30:00 AM 10.41 50.738 0.245 7.8 7.77 11.07
5/4/2023 11:45:00 AM 10.48 50.864 0.245 7.8 8.04 11.09
5/4/2023 12:00:00 PM 10.53 50.954 0.245 7.81 7.31 11.11
5/4/2023 12:15:00 PM 10.61 51.098 0.245 7.81 6.91 11.14
5/4/2023 12:30:00 PM 10.65 51.17 0.245 7.82 7.45 11.14
5/4/2023 12:45:00 PM 10.71 51.278 0.245 7.82 7.55 11.17
5/4/2023 1:00:00 PM 10.77 51.386 0.245 7.82 7.75 11.2
5/4/2023 1:15:00 PM 10.79 51.422 0.245 7.83 6.81 11.19
5/4/2023 1:30:00 PM 10.86 51.548 0.245 7.83 7.35 11.22
5/4/2023 1:45:00 PM 10.9 51.62 0.245 7.84 6.82 11.22
5/4/2023 2:00:00 PM 11.02 51.836 0.245 7.84 8.32 11.26
5/4/2023 2:15:00 PM 11.22 52.196 0.245 7.85 7.4 11.26
5/4/2023 2:30:00 PM 11.36 52.448 0.245 7.85 6.72 11.29
5/4/2023 2:45:00 PM 11.43 52.574 0.245 7.86 7.67 11.3
5/4/2023 3:00:00 PM 11.49 52.682 0.245 7.86 7.68 11.29
5/4/2023 3:15:00 PM 11.56 52.808 0.245 7.87 6.7 11.28
5/4/2023 3:30:00 PM 11.57 52.826 0.245 7.88 7.04 11.29
5/4/2023 3:45:00 PM 11.58 52.844 0.245 7.88 7.27 11.29
5/4/2023 4:00:00 PM 11.64 52.952 0.245 7.88 7.62 11.28
5/4/2023 4:15:00 PM 11.67 53.006 0.245 7.89 7.51 11.28
5/4/2023 4:30:00 PM 11.67 53.006 0.245 7.89 7.28 11.26
5/4/2023 4:45:00 PM 11.71 53.078 0.245 7.9 6.95 11.25
5/4/2023 5:00:00 PM 11.91 53.438 0.246 7.9 7.23 11.27
5/4/2023 5:15:00 PM 11.94 53.492 0.245 7.9 6.77 11.24
5/4/2023 5:30:00 PM 11.91 53.438 0.246 7.91 7.12 11.21
5/4/2023 5:45:00 PM 11.9 53.42 0.246 7.91 6.5 11.16
5/4/2023 6:00:00 PM 11.89 53.402 0.246 7.9 6.5 11.1
5/4/2023 6:15:00 PM 11.89 53.402 0.247 7.9 7.79 11.08
5/4/2023 6:30:00 PM 11.92 53.456 0.247 7.91 6.17 11.08
5/4/2023 6:45:00 PM 11.93 53.474 0.247 7.91 8.17 11.03
5/4/2023 7:00:00 PM 11.94 53.492 0.247 7.9 6.75 11.01
5/4/2023 7:15:00 PM 11.95 53.51 0.247 7.9 13.69 10.99
5/4/2023 7:30:00 PM 11.97 53.546 0.247 7.91 7.62 10.99
5/4/2023 7:45:00 PM 11.98 53.564 0.247 7.9 7.33 10.94
5/4/2023 8:00:00 PM 12.01 53.618 0.247 7.91 6.78 10.89
5/4/2023 8:15:00 PM 12.04 53.672 0.247 7.9 7.12 10.82
5/4/2023 8:30:00 PM 12.09 53.762 0.247 7.9 6.61 10.8
5/4/2023 8:45:00 PM 12.13 53.834 0.247 7.89 8.12 10.75
5/4/2023 9:00:00 PM 12.16 53.888 0.247 7.89 8.06 10.72
5/4/2023 9:15:00 PM 12.17 53.906 0.248 7.89 7.09 10.67
5/4/2023 9:30:00 PM 12.17 53.906 0.248 7.88 7 10.67
5/4/2023 9:45:00 PM 12.15 53.87 0.248 7.88 7.34 10.65
5/4/2023 10:00:00 PM 12.11 53.798 0.249 7.88 6.59 10.64
5/4/2023 10:15:00 PM 12.07 53.726 0.249 7.87 7.83 10.65
5/4/2023 10:30:00 PM 12.03 53.654 0.249 7.87 7.24 10.65
5/4/2023 10:45:00 PM 11.99 53.582 0.25 7.87 6.46 10.64
5/4/2023 11:00:00 PM 11.96 53.528 0.25 7.86 7.4 10.64
5/4/2023 11:15:00 PM 11.94 53.492 0.25 7.86 7.3 10.61
5/4/2023 11:30:00 PM 11.91 53.438 0.25 7.86 7.32 10.61
5/4/2023 11:45:00 PM 11.89 53.402 0.25 7.85 7.64 10.59
5/5/2023 12:00:00 AM 11.87 53.366 0.251 7.85 7.9 10.58
5/5/2023 12:15:00 AM 11.87 53.366 0.251 7.85 9.36 10.56
5/5/2023 12:30:00 AM 11.86 53.348 0.251 7.84 7.14 10.56
5/5/2023 12:45:00 AM 11.86 53.348 0.251 7.84 9.58 10.55
5/5/2023 1:00:00 AM 11.85 53.33 0.252 7.83 7.95 10.54
5/5/2023 1:15:00 AM 11.84 53.312 0.251 7.83 6.55 10.53
5/5/2023 1:30:00 AM 11.82 53.276 0.252 7.83 6.69 10.5
5/5/2023 1:45:00 AM 11.8 53.24 0.252 7.82 7.76 10.51
5/5/2023 2:00:00 AM 11.77 53.186 0.252 7.82 7.27 10.48
5/5/2023 2:15:00 AM 11.73 53.114 0.252 7.81 6.86 10.48
5/5/2023 2:30:00 AM 11.7 53.06 0.252 7.81 7.96 10.47
5/5/2023 2:45:00 AM 11.67 53.006 0.252 7.81 7.34 10.44
5/5/2023 3:00:00 AM 11.64 52.952 0.253 7.8 7.47 10.44
5/5/2023 3:15:00 AM 11.61 52.898 0.253 7.8 7.23 10.44
5/5/2023 3:30:00 AM 11.57 52.826 0.253 7.8 7.81 10.43
5/5/2023 3:45:00 AM 11.54 52.772 0.253 7.8 10.37 10.43
5/5/2023 4:00:00 AM 11.51 52.718 0.253 7.79 7.07 10.42
5/5/2023 4:15:00 AM 11.48 52.664 0.254 7.79 7.47 10.4
5/5/2023 4:30:00 AM 11.46 52.628 0.254 7.78 7.36 10.39
5/5/2023 4:45:00 AM 11.43 52.574 0.254 7.79 27.76 10.4
5/5/2023 5:00:00 AM 11.4 52.52 0.254 7.78 7.52 10.38
5/5/2023 5:15:00 AM 11.37 52.466 0.254 7.78 8.64 10.4
5/5/2023 5:30:00 AM 11.33 52.394 0.254 7.78 7.48 10.39
5/5/2023 5:45:00 AM 11.3 52.34 0.255 7.78 7.84 10.39
5/5/2023 6:00:00 AM 11.27 52.286 0.255 7.77 7.14 10.38
5/5/2023 6:15:00 AM 11.23 52.214 0.255 7.77 7.31 10.39
5/5/2023 6:30:00 AM 11.2 52.16 0.256 7.77 9.15 10.39
5/5/2023 6:45:00 AM 11.18 52.124 0.256 7.77 8.07 10.42
5/5/2023 7:00:00 AM 11.16 52.088 0.256 7.77 6.73 10.42
5/5/2023 7:15:00 AM 11.15 52.07 0.256 7.77 8.63 10.43
5/5/2023 7:30:00 AM 11.14 52.052 0.256 7.77 7.37 10.45
5/5/2023 7:45:00 AM 11.13 52.034 0.256 7.77 6.86 10.49
5/5/2023 8:00:00 AM 11.14 52.052 0.257 7.77 9.59 10.54
5/5/2023 8:15:00 AM 11.14 52.052 0.257 7.78 6.89 10.57
5/5/2023 8:30:00 AM 11.15 52.07 0.257 7.78 7.11 10.6
5/5/2023 8:45:00 AM 11.16 52.088 0.257 7.78 6.7 10.63
5/5/2023 9:00:00 AM 11.19 52.142 0.257 7.78 7.41 10.67
5/5/2023 9:15:00 AM 11.23 52.214 0.258 7.78 6.74 10.69
5/5/2023 9:30:00 AM 11.25 52.25 0.258 7.79 7.89 10.71
5/5/2023 9:45:00 AM 11.26 52.268 0.258 7.79 6.79 10.78
5/5/2023 10:00:00 AM 11.31 52.358 0.258 7.8 6.96 10.8
5/5/2023 10:15:00 AM 11.44 52.592 0.258 7.8 6.8 10.84
5/5/2023 10:30:00 AM 11.47 52.646 0.255 7.81 6.77 10.85
5/5/2023 10:45:00 AM 11.53 52.754 0.258 7.81 7.02 10.88
5/5/2023 11:00:00 AM 11.64 52.952 0.258 7.81 7.01 10.92
5/5/2023 11:15:00 AM 11.66 52.988 0.259 7.82 6.24 10.94
5/5/2023 11:30:00 AM 11.67 53.006 0.259 7.82 7.1 10.93
5/5/2023 11:45:00 AM 11.75 53.15 0.259 7.82 6.55 10.94
5/5/2023 12:00:00 PM 11.81 53.258 0.259 7.83 6.45 10.96
5/5/2023 12:15:00 PM 11.96 53.528 0.26 7.83 7.27 10.98
5/5/2023 12:30:00 PM 12.03 53.654 0.26 7.83 6.56 10.99
5/5/2023 12:45:00 PM 12.2 53.96 0.26 7.83 6.06 11
5/5/2023 1:00:00 PM 12.27 54.086 0.26 7.84 6.71 11
5/5/2023 1:15:00 PM 12.41 54.338 0.26 7.84 7.28 11
5/5/2023 1:30:00 PM 12.46 54.428 0.26 7.85 7.25 10.98
5/5/2023 1:45:00 PM 12.53 54.554 0.26 7.85 6.84 10.98
5/5/2023 2:00:00 PM 12.63 54.734 0.26 7.86 8.07 10.99
5/5/2023 2:15:00 PM 12.85 55.13 0.261 7.86 6.51 11.02
5/5/2023 2:30:00 PM 12.97 55.346 0.261 7.87 7.21 11.04
5/5/2023 2:45:00 PM 13.09 55.562 0.261 7.87 7 11.05
5/5/2023 3:00:00 PM 13.17 55.706 0.26 7.88 7.93 11.05
5/5/2023 3:15:00 PM 13.14 55.652 0.26 7.88 6.38 11.05
5/5/2023 3:30:00 PM 13.25 55.85 0.26 7.89 6.81 11.06
5/5/2023 3:45:00 PM 13.31 55.958 0.261 7.89 6.59 11.05
5/5/2023 4:00:00 PM 13.18 55.724 0.261 7.9 8.33 10.96
5/5/2023 4:15:00 PM 13.12 55.616 0.261 7.9 6.46 10.88
5/5/2023 4:30:00 PM 13.12 55.616 0.261 7.9 6.62 10.85
5/5/2023 4:45:00 PM 13.08 55.544 0.261 7.9 7.22 10.8
5/5/2023 5:00:00 PM 13.05 55.49 0.26 7.9 7.05 10.73
5/5/2023 5:15:00 PM 13.06 55.508 0.26 7.89 6.35 10.69
5/5/2023 5:30:00 PM 13.14 55.652 0.26 7.9 6.78 10.72
5/5/2023 5:45:00 PM 13.22 55.796 0.26 7.9 6.26 10.72
5/5/2023 6:00:00 PM 13.32 55.976 0.26 7.9 7.38 10.76
5/5/2023 6:15:00 PM 13.39 56.102 0.26 7.91 7.12 10.8
5/5/2023 6:30:00 PM 13.41 56.138 0.26 7.92 7.39 10.83
5/5/2023 6:45:00 PM 13.42 56.156 0.26 7.92 7.65 10.81
5/5/2023 7:00:00 PM 13.39 56.102 0.26 7.93 8.27 10.8
5/5/2023 7:15:00 PM 13.39 56.102 0.26 7.93 7.55 10.77
5/5/2023 7:30:00 PM 13.38 56.084 0.26 7.93 6.45 10.7
5/5/2023 7:45:00 PM 13.39 56.102 0.26 7.93 7.19 10.65
5/5/2023 8:00:00 PM 13.39 56.102 0.26 7.92 6.75 10.59
5/5/2023 8:15:00 PM 13.39 56.102 0.261 7.92 7.55 10.54
5/5/2023 8:30:00 PM 13.39 56.102 0.261 7.92 8.63 10.49
5/5/2023 8:45:00 PM 13.38 56.084 0.261 7.91 9.59 10.43
5/5/2023 9:00:00 PM 13.37 56.066 0.26 7.9 8.45 10.4
5/5/2023 9:15:00 PM 13.35 56.03 0.26 7.9 13.4 10.37
5/5/2023 9:30:00 PM 13.33 55.994 0.26 7.89 10.99 10.35
5/5/2023 9:45:00 PM 13.31 55.958 0.26 7.89 8.52 10.33
5/5/2023 10:00:00 PM 13.29 55.922 0.261 7.89 9.56 10.32
5/5/2023 10:15:00 PM 13.27 55.886 0.261 7.88 11.58 10.29
5/5/2023 10:30:00 PM 13.25 55.85 0.261 7.87 13.15 10.3
5/5/2023 10:45:00 PM 13.22 55.796 0.261 7.87 8.81 10.27
5/5/2023 11:00:00 PM 13.2 55.76 0.261 7.87 10.21 10.28
5/5/2023 11:15:00 PM 13.16 55.688 0.261 7.87 8.99 10.26
5/5/2023 11:30:00 PM 13.13 55.634 0.261 7.86 7.39 10.24
5/5/2023 11:45:00 PM 13.1 55.58 0.261 7.86 9.91 10.24
5/6/2023 12:00:00 AM 13.07 55.526 0.262 7.85 7.61 10.24
5/6/2023 12:15:00 AM 13.03 55.454 0.262 7.85 9.39 10.22
5/6/2023 12:30:00 AM 12.99 55.382 0.262 7.84 10.61 10.22
5/6/2023 12:45:00 AM 12.95 55.31 0.262 7.85 8.95 10.22
5/6/2023 1:00:00 AM 12.91 55.238 0.263 7.84 9.29 10.2
5/6/2023 1:15:00 AM 12.87 55.166 0.263 7.84 7.92 10.19
5/6/2023 1:30:00 AM 12.84 55.112 0.263 7.83 8.59 10.19
5/6/2023 1:45:00 AM 12.82 55.076 0.263 7.83 8.06 10.19
5/6/2023 2:00:00 AM 12.78 55.004 0.264 7.83 6.85 10.19
5/6/2023 2:15:00 AM 12.74 54.932 0.264 7.83 7.54 10.17
5/6/2023 2:30:00 AM 12.7 54.86 0.264 7.82 10.39 10.16
5/6/2023 2:45:00 AM 12.66 54.788 0.265 7.82 6.65 10.17
5/6/2023 3:00:00 AM 12.63 54.734 0.265 7.81 7.4 10.16
5/6/2023 3:15:00 AM 12.58 54.644 0.265 7.81 7.85 10.14
5/6/2023 3:30:00 AM 12.54 54.572 0.265 7.81 8.27 10.13
5/6/2023 3:45:00 AM 12.51 54.518 0.265 7.8 6.34 10.15
5/6/2023 4:00:00 AM 12.47 54.446 0.265 7.81 7.78 10.12
5/6/2023 4:15:00 AM 12.43 54.374 0.266 7.8 7.73 10.1
5/6/2023 4:30:00 AM 12.39 54.302 0.266 7.8 7.85 10.11
5/6/2023 4:45:00 AM 12.36 54.248 0.266 7.79 8.08 10.11
5/6/2023 5:00:00 AM 12.32 54.176 0.266 7.79 8.24 10.07
5/6/2023 5:15:00 AM 12.29 54.122 0.266 7.79 8.89 10.09
5/6/2023 5:30:00 AM 12.25 54.05 0.267 7.79 9.39 10.1
5/6/2023 5:45:00 AM 12.22 53.996 0.267 7.79 8.67 10.09
5/6/2023 6:00:00 AM 12.18 53.924 0.267 7.78 6.98 10.08
5/6/2023 6:15:00 AM 12.15 53.87 0.267 7.78 9.82 10.08
5/6/2023 6:30:00 AM 12.12 53.816 0.268 7.78 7.51 10.08
5/6/2023 6:45:00 AM 12.09 53.762 0.268 7.78 6.15 10.09
5/6/2023 7:00:00 AM 12.07 53.726 0.268 7.77 6.87 10.1
5/6/2023 7:15:00 AM 12.06 53.708 0.268 7.77 8.6 10.11
5/6/2023 7:30:00 AM 12.05 53.69 0.268 7.78 6.72 10.14
5/6/2023 7:45:00 AM 12.06 53.708 0.268 7.78 8.38 10.17
5/6/2023 8:00:00 AM 12.07 53.726 0.269 7.78 8.69 10.2
5/6/2023 8:15:00 AM 12.08 53.744 0.269 7.78 6.6 10.2
5/6/2023 8:30:00 AM 12.1 53.78 0.269 7.78 8.51 10.24
5/6/2023 8:45:00 AM 12.13 53.834 0.269 7.79 6.38 10.28
5/6/2023 9:00:00 AM 12.16 53.888 0.269 7.79 5.86 10.34
5/6/2023 9:15:00 AM 12.19 53.942 0.27 7.79 8.17 10.37
5/6/2023 9:30:00 AM 12.22 53.996 0.27 7.8 5.61 10.4
5/6/2023 9:45:00 AM 12.26 54.068 0.27 7.8 6.22 10.45
5/6/2023 10:00:00 AM 12.31 54.158 0.271 7.81 7.66 10.48
5/6/2023 10:15:00 AM 12.36 54.248 0.271 7.81 7.05 10.52
5/6/2023 10:30:00 AM 12.41 54.338 0.271 7.82 6.77 10.56
5/6/2023 10:45:00 AM 12.48 54.464 0.271 7.83 7.46 10.59
5/6/2023 11:00:00 AM 12.55 54.59 0.271 7.83 6.79 10.62
5/6/2023 11:15:00 AM 12.64 54.752 0.272 7.83 7.26 10.65
5/6/2023 11:30:00 AM 12.76 54.968 0.272 7.84 5.74 10.68
5/6/2023 11:45:00 AM 12.87 55.166 0.272 7.85 8.45 10.71
5/6/2023 12:00:00 PM 13.01 55.418 0.272 7.84 7.66 10.73
5/6/2023 12:15:00 PM 13.15 55.67 0.272 7.85 6.45 10.76
5/6/2023 12:30:00 PM 13.3 55.94 0.273 7.85 8.75 10.79
5/6/2023 12:45:00 PM 13.47 56.246 0.273 7.86 6.16 10.81
5/6/2023 1:00:00 PM 13.63 56.534 0.274 7.86 7.08 10.83
5/6/2023 1:15:00 PM 13.83 56.894 0.274 7.87 5.81 10.85
5/6/2023 1:30:00 PM 13.99 57.182 0.274 7.87 5.65 10.86
5/6/2023 1:45:00 PM 14.17 57.506 0.274 7.88 6.49 10.9
5/6/2023 2:00:00 PM 14.36 57.848 0.274 7.88 7.05 10.91
5/6/2023 2:15:00 PM 14.5 58.1 0.275 7.89 6.62 10.93
5/6/2023 2:30:00 PM 14.67 58.406 0.275 7.9 7.06 10.95
5/6/2023 2:45:00 PM 14.81 58.658 0.275 7.91 9.72 10.94
5/6/2023 3:00:00 PM 14.96 58.928 0.275 7.91 11.03 10.93
5/6/2023 3:15:00 PM 15.1 59.18 0.275 7.91 11.08 10.95
5/6/2023 3:30:00 PM 15.22 59.396 0.275 7.92 13.87 10.96
5/6/2023 3:45:00 PM 15.34 59.612 0.276 7.93 6.25 10.97
5/6/2023 4:00:00 PM 15.45 59.81 0.276 7.94 6.78 11
5/6/2023 4:15:00 PM 15.56 60.008 0.277 7.95 5.33 10.99
5/6/2023 4:30:00 PM 15.63 60.134 0.277 7.96 4.84 10.99
5/6/2023 4:45:00 PM 15.68 60.224 0.277 7.96 6.13 10.95
5/6/2023 5:00:00 PM 15.74 60.332 0.277 7.98 5.57 10.94
5/6/2023 5:15:00 PM 15.76 60.368 0.277 7.98 6.04 10.9
5/6/2023 5:30:00 PM 15.74 60.332 0.277 7.99 6.04 10.85
5/6/2023 5:45:00 PM 15.65 60.17 0.277 8 6.94 10.77
5/6/2023 6:00:00 PM 15.59 60.062 0.278 7.99 6.61 10.68
5/6/2023 6:15:00 PM 15.53 59.954 0.277 8 5.59 10.61
5/6/2023 6:30:00 PM 15.52 59.936 0.277 7.99 7.33 10.57
5/6/2023 6:45:00 PM 15.5 59.9 0.278 7.99 6.77 10.48
5/6/2023 7:00:00 PM 15.5 59.9 0.273 7.99 7.94 10.4
5/6/2023 7:15:00 PM 15.5 59.9 0.278 7.98 7.22 10.33
5/6/2023 7:30:00 PM 15.52 59.936 0.278 7.99 5.75 10.3
5/6/2023 7:45:00 PM 15.53 59.954 0.278 7.99 5.65 10.25
5/6/2023 8:00:00 PM 15.53 59.954 0.278 7.98 5.58 10.19
5/6/2023 8:15:00 PM 15.54 59.972 0.279 7.98 5.03 10.13
5/6/2023 8:30:00 PM 15.55 59.99 0.279 7.98 5.12 10.06
5/6/2023 8:45:00 PM 15.57 60.026 0.279 7.97 5.45 10
5/6/2023 9:00:00 PM 15.58 60.044 0.279 7.97 4.21 9.96
5/6/2023 9:15:00 PM 15.62 60.116 0.28 7.98 5.88 9.93
5/6/2023 9:30:00 PM 15.64 60.152 0.28 7.97 6.83 9.91
5/6/2023 9:45:00 PM 15.65 60.17 0.281 7.97 8.22 9.87
5/6/2023 10:00:00 PM 15.68 60.224 0.281 7.96 5.31 9.85
5/6/2023 10:15:00 PM 15.68 60.224 0.281 7.96 5.15 9.82
5/6/2023 10:30:00 PM 15.69 60.242 0.281 7.96 7.51 9.8
5/6/2023 10:45:00 PM 15.71 60.278 0.281 7.96 4.83 9.82
5/6/2023 11:00:00 PM 15.7 60.26 0.281 7.96 5.02 9.79
5/6/2023 11:15:00 PM 15.7 60.26 0.281 7.95 9.48 9.77
5/6/2023 11:30:00 PM 15.71 60.278 0.281 7.95 8.72 9.78
5/6/2023 11:45:00 PM 15.69 60.242 0.28 7.95 9.04 9.75
5/7/2023 12:00:00 AM 15.67 60.206 0.281 7.95 4.66 9.74
5/7/2023 12:15:00 AM 15.63 60.134 0.281 7.93 5.32 9.69
5/7/2023 12:30:00 AM 15.61 60.098 0.281 7.93 4.43 9.68
5/7/2023 12:45:00 AM 15.58 60.044 0.281 7.93 4.99 9.7
5/7/2023 1:00:00 AM 15.54 59.972 0.281 7.92 5.4 9.67
5/7/2023 1:15:00 AM 15.49 59.882 0.281 7.91 5.56 9.67
5/7/2023 1:30:00 AM 15.45 59.81 0.281 7.9 6.43 9.65
5/7/2023 1:45:00 AM 15.4 59.72 0.281 7.9 4.77 9.64
5/7/2023 2:00:00 AM 15.35 59.63 0.282 7.9 4.35 9.63
5/7/2023 2:15:00 AM 15.3 59.54 0.281 7.89 4.78 9.62
5/7/2023 2:30:00 AM 15.23 59.414 0.282 7.89 5.23 9.58
5/7/2023 2:45:00 AM 15.18 59.324 0.282 7.88 6.05 9.6
5/7/2023 3:00:00 AM 15.12 59.216 0.282 7.87 4.84 9.58
5/7/2023 3:15:00 AM 15.07 59.126 0.282 7.86 5.4 9.57
5/7/2023 3:30:00 AM 15.01 59.018 0.282 7.86 4.36 9.56
5/7/2023 3:45:00 AM 14.95 58.91 0.282 7.86 4.33 9.55
5/7/2023 4:00:00 AM 14.89 58.802 0.282 7.85 5.16 9.5
5/7/2023 4:15:00 AM 14.85 58.73 0.282 7.84 4.83 9.52
5/7/2023 4:30:00 AM 14.79 58.622 0.282 7.84 8.17 9.5
5/7/2023 4:45:00 AM 14.74 58.532 0.282 7.83 5.02 9.47
5/7/2023 5:00:00 AM 14.7 58.46 0.282 7.83 4.47 9.5
5/7/2023 5:15:00 AM 14.64 58.352 0.283 7.82 4.6 9.46
5/7/2023 5:30:00 AM 14.61 58.298 0.283 7.82 4.87 9.48
5/7/2023 5:45:00 AM 14.58 58.244 0.283 7.82 5.17 9.45
5/7/2023 6:00:00 AM 14.54 58.172 0.283 7.81 5.24 9.43
5/7/2023 6:15:00 AM 14.51 58.118 0.283 7.81 5.06 9.43
5/7/2023 6:30:00 AM 14.48 58.064 0.283 7.8 4.36 9.42
5/7/2023 6:45:00 AM 14.46 58.028 0.283 7.8 4.39 9.44
5/7/2023 7:00:00 AM 14.44 57.992 0.283 7.8 4.05 9.43
5/7/2023 7:15:00 AM 14.42 57.956 0.274 7.81 4.16 9.44
5/7/2023 7:30:00 AM 14.4 57.92 0.283 7.8 4.37 9.47
5/7/2023 7:45:00 AM 14.37 57.866 0.283 7.8 4.6 9.5
5/7/2023 8:00:00 AM 14.34 57.812 0.284 7.8 4.2 9.51
5/7/2023 8:15:00 AM 14.35 57.83 0.284 7.8 5.04 9.56
5/7/2023 8:30:00 AM 14.33 57.794 0.284 7.81 4.4 9.59
5/7/2023 8:45:00 AM 14.35 57.83 0.284 7.81 4.23 9.65
5/7/2023 9:00:00 AM 14.36 57.848 0.284 7.82 4.09 9.69
5/7/2023 9:15:00 AM 14.4 57.92 0.284 7.82 4.19 9.78
5/7/2023 9:30:00 AM 14.44 57.992 0.284 7.82 3.8 9.86
5/7/2023 9:45:00 AM 14.49 58.082 0.284 7.83 4.52 9.94
5/7/2023 10:00:00 AM 14.52 58.136 0.284 7.84 4.61 10.01
5/7/2023 10:15:00 AM 14.6 58.28 0.284 7.84 4.22 10.05
5/7/2023 10:30:00 AM 14.66 58.388 0.285 7.85 5.12 10.12
5/7/2023 10:45:00 AM 14.68 58.424 0.285 7.86 4.4 10.16
5/7/2023 11:00:00 AM 14.77 58.586 0.285 7.87 4.23 10.2
5/7/2023 11:15:00 AM 14.79 58.622 0.285 7.88 4.18 10.23
5/7/2023 11:30:00 AM 14.87 58.766 0.285 7.88 6.04 10.27
5/7/2023 11:45:00 AM 14.92 58.856 0.285 7.89 4.32 10.3
5/7/2023 12:00:00 PM 14.96 58.928 0.285 7.89 5.72 10.32
5/7/2023 12:15:00 PM 14.98 58.964 0.286 7.9 3.67 10.31
5/7/2023 12:30:00 PM 14.97 58.946 0.286 7.9 4.05 10.28
5/7/2023 12:45:00 PM 15.01 59.018 0.286 7.9 4.15 10.31
5/7/2023 1:00:00 PM 15.08 59.144 0.286 7.9 3.5 10.32
5/7/2023 1:15:00 PM 15.05 59.09 0.286 7.9 4.1 10.27
5/7/2023 1:30:00 PM 15.03 59.054 0.287 7.9 5.36 10.22
5/7/2023 1:45:00 PM 15.04 59.072 0.287 7.9 3.99 10.21
5/7/2023 2:00:00 PM 15.04 59.072 0.287 7.9 3.89 10.2
5/7/2023 2:15:00 PM 15.03 59.054 0.287 7.9 4.48 10.15
5/7/2023 2:30:00 PM 15.02 59.036 0.287 7.9 5.56 10.13
5/7/2023 2:45:00 PM 15.04 59.072 0.288 7.9 4.74 10.1
5/7/2023 3:00:00 PM 15.09 59.162 0.288 7.91 4.81 10.15
5/7/2023 3:15:00 PM 15.14 59.252 0.288 7.91 4.07 10.13
5/7/2023 3:30:00 PM 15.17 59.306 0.288 7.91 3.77 10.17
5/7/2023 3:45:00 PM 15.21 59.378 0.288 7.93 3.78 10.19
5/7/2023 4:00:00 PM 15.25 59.45 0.288 7.93 4.46 10.22
5/7/2023 4:15:00 PM 15.27 59.486 0.288 7.94 3.93 10.2
5/7/2023 4:30:00 PM 15.28 59.504 0.289 7.94 3.66 10.17
5/7/2023 4:45:00 PM 15.29 59.522 0.289 7.94 4.05 10.15
5/7/2023 5:00:00 PM 15.31 59.558 0.289 7.94 4.2 10.11
5/7/2023 5:15:00 PM 15.34 59.612 0.289 7.95 5.15 10.08
5/7/2023 5:30:00 PM 15.38 59.684 0.29 7.95 4.99 10.05
5/7/2023 5:45:00 PM 15.42 59.756 0.29 7.95 4.5 10.04
5/7/2023 6:00:00 PM 15.47 59.846 0.29 7.96 3.78 10.04
5/7/2023 6:15:00 PM 15.5 59.9 0.29 7.96 4.45 10.05
5/7/2023 6:30:00 PM 15.53 59.954 0.29 7.96 3.7 10.05
5/7/2023 6:45:00 PM 15.56 60.008 0.29 7.98 3.9 10.06
5/7/2023 7:00:00 PM 15.59 60.062 0.29 7.98 3.98 10.02
5/7/2023 7:15:00 PM 15.6 60.08 0.29 7.98 3.65 10
5/7/2023 7:30:00 PM 15.62 60.116 0.29 7.98 3.91 9.97
5/7/2023 7:45:00 PM 15.63 60.134 0.291 7.99 4.39 9.91
5/7/2023 8:00:00 PM 15.64 60.152 0.291 7.98 3.68 9.86
5/7/2023 8:15:00 PM 15.65 60.17 0.291 7.98 4.21 9.81
5/7/2023 8:30:00 PM 15.65 60.17 0.291 7.97 5.59 9.75
5/7/2023 8:45:00 PM 15.66 60.188 0.291 7.97 4.03 9.72
5/7/2023 9:00:00 PM 15.66 60.188 0.291 7.96 6.31 9.65
5/7/2023 9:15:00 PM 15.66 60.188 0.291 7.95 10.88 9.61
5/7/2023 9:30:00 PM 15.67 60.206 0.291 7.95 4.29 9.59
5/7/2023 9:45:00 PM 15.68 60.224 0.291 7.95 4.2 9.57
5/7/2023 10:00:00 PM 15.67 60.206 0.291 7.95 3.93 9.56
5/7/2023 10:15:00 PM 15.68 60.224 0.291 7.95 6.1 9.57
5/7/2023 10:30:00 PM 15.68 60.224 0.291 7.95 4.19 9.53
5/7/2023 10:45:00 PM 15.66 60.188 0.291 7.94 4.54 9.54
5/7/2023 11:00:00 PM 15.65 60.17 0.292 7.95 3.76 9.54
5/7/2023 11:15:00 PM 15.64 60.152 0.292 7.96 4.61 9.54
5/7/2023 11:30:00 PM 15.63 60.134 0.292 7.95 4.88 9.52
5/7/2023 11:45:00 PM 15.61 60.098 0.292 7.94 4.09 9.51
5/8/2023 12:00:00 AM 15.59 60.062 0.293 7.94 3.75 9.49
5/8/2023 12:15:00 AM 15.57 60.026 0.247 7.94 3.69 9.52
5/8/2023 12:30:00 AM 15.55 59.99 0.231 7.94 4.53 9.51
5/8/2023 12:45:00 AM 15.54 59.972 0.232 7.94 4 9.47
5/8/2023 1:00:00 AM 15.53 59.954 0.232 7.94 5.03 9.47
5/8/2023 1:15:00 AM 15.52 59.936 0.231 7.94 4.54 9.46
5/8/2023 1:30:00 AM 15.5 59.9 0.23 7.94 5.57 9.47
5/8/2023 1:45:00 AM 15.48 59.864 0.288 7.93 4.28 9.44
5/8/2023 2:00:00 AM 15.46 59.828 0.29 7.93 4.42 9.44
5/8/2023 2:15:00 AM 15.44 59.792 0.261 7.92 4.37 9.42
5/8/2023 2:30:00 AM 15.43 59.774 0.262 7.92 4.16 9.41
5/8/2023 2:45:00 AM 15.4 59.72 0.261 7.91 4.84 9.39
5/8/2023 3:00:00 AM 15.37 59.666 0.263 7.91 4.1 9.37
5/8/2023 3:15:00 AM 15.35 59.63 0.263 7.91 4.88 9.39
5/8/2023 3:30:00 AM 15.34 59.612 0.289 7.9 3.81 9.37
5/8/2023 3:45:00 AM 15.31 59.558 0.289 7.9 4.42 9.36
5/8/2023 4:00:00 AM 15.29 59.522 0.29 7.89 5.11 9.32
5/8/2023 4:15:00 AM 15.26 59.468 0.29 7.89 3.88 9.33
5/8/2023 4:30:00 AM 15.23 59.414 0.288 7.89 4.37 9.31
5/8/2023 4:45:00 AM 15.2 59.36 0.288 7.89 4 9.3
5/8/2023 5:00:00 AM 15.17 59.306 0.288 7.88 5.92 9.28
5/8/2023 5:15:00 AM 15.14 59.252 0.264 7.87 4.71 9.27
5/8/2023 5:30:00 AM 15.1 59.18 0.274 7.86 5.81 9.24
5/8/2023 5:45:00 AM 15.06 59.108 0.232 7.86 4.5 9.23
5/8/2023 6:00:00 AM 15.03 59.054 0.236 7.86 4.48 9.22
5/8/2023 6:15:00 AM 15 59 0.243 7.85 4.01 9.2
5/8/2023 6:30:00 AM 14.98 58.964 0.256 7.85 4.7 9.21
5/8/2023 6:45:00 AM 14.95 58.91 0.228 7.85 3.97 9.2
5/8/2023 7:00:00 AM 14.94 58.892 0.243 7.84 11.88 9.22
5/8/2023 7:15:00 AM 14.93 58.874 0.259 7.84 5.18 9.22
5/8/2023 7:30:00 AM 14.93 58.874 0.283 7.84 3.87 9.27
5/8/2023 7:45:00 AM 14.93 58.874 0.251 7.84 3.52 9.3
5/8/2023 8:00:00 AM 14.93 58.874 0.234 7.84 4.95 9.35
5/8/2023 8:15:00 AM 14.93 58.874 0.243 7.84 4.19 9.37
5/8/2023 8:30:00 AM 14.92 58.856 0.247 7.85 4.65 9.4
5/8/2023 8:45:00 AM 14.92 58.856 0.297 7.84 3.87 9.41
5/8/2023 9:00:00 AM 14.92 58.856 0.272 7.85 3.95 9.42
5/8/2023 9:15:00 AM 14.93 58.874 0.228 7.85 3.94 9.5
5/8/2023 9:30:00 AM 14.98 58.964 0.293 7.86 3.79 9.55
5/8/2023 9:45:00 AM 15.04 59.072 0.285 7.86 4.51 9.59
5/8/2023 10:00:00 AM 15.06 59.108 0.281 7.86 3.46 9.65
5/8/2023 10:15:00 AM 15.12 59.216 0.274 7.87 3.8 9.75
5/8/2023 10:30:00 AM 15.18 59.324 0.278 7.88 3.91 9.83
5/8/2023 10:45:00 AM 15.26 59.468 0.287 7.89 4.56 9.91
5/8/2023 11:00:00 AM 15.3 59.54 0.293 7.9 4 9.97
5/8/2023 11:15:00 AM 15.38 59.684 0.294 7.91 3.3 10.03
5/8/2023 11:30:00 AM 15.37 59.666 0.298 7.91 4.37 10.02
5/8/2023 11:45:00 AM 15.45 59.81 0.299 7.91 6.05 10.04
5/8/2023 12:00:00 PM 15.48 59.864 0.278 7.92 4.51 10.06
5/8/2023 12:15:00 PM 15.65 60.17 0.235 7.91 3.98 10.1
5/8/2023 12:30:00 PM 15.67 60.206 0.285 7.92 4.24 10.13
5/8/2023 12:45:00 PM 15.79 60.422 0.291 7.92 3.88 10.17
5/8/2023 1:00:00 PM 15.83 60.494 0.252 7.93 5.42 10.16
5/8/2023 1:15:00 PM 15.88 60.584 0.3 7.93 4.09 10.17
5/8/2023 1:30:00 PM 16.11 60.998 0.296 7.94 4.19 10.21
5/8/2023 1:45:00 PM 16.21 61.178 0.288 7.94 4.04 10.22
5/8/2023 2:00:00 PM 16.38 61.484 0.3 7.95 4.01 10.27
5/8/2023 2:15:00 PM 16.52 61.736 0.257 7.95 3.48 10.27
5/8/2023 2:30:00 PM 16.79 62.222 0.263 7.95 3.76 10.32
5/8/2023 2:45:00 PM 17.02 62.636 0.266 7.95 4.79 10.36
5/8/2023 3:00:00 PM 17.17 62.906 0.294 7.96 5.84 10.39
5/8/2023 3:15:00 PM 17.29 63.122 0.278 7.97 4.29 10.38
5/8/2023 3:30:00 PM 17.34 63.212 0.292 7.97 4.23 10.37
5/8/2023 3:45:00 PM 17.36 63.248 0.287 7.98 3.66 10.36
5/8/2023 4:00:00 PM 17.46 63.428 0.249 7.98 3.86 10.38
5/8/2023 4:15:00 PM 17.5 63.5 0.24 7.99 3.58 10.38
5/8/2023 4:30:00 PM 17.46 63.428 0.297 7.99 4.62 10.34
5/8/2023 4:45:00 PM 17.43 63.374 0.25 8 4.36 10.31
5/8/2023 5:00:00 PM 17.47 63.446 0.299 8.01 4.39 10.29
5/8/2023 5:15:00 PM 17.45 63.41 0.227 8.01 3.66 10.27
5/8/2023 5:30:00 PM 17.44 63.392 0.239 8.02 8.65 10.25
5/8/2023 5:45:00 PM 17.44 63.392 0.236 8.02 3.15 10.22
5/8/2023 6:00:00 PM 17.42 63.356 0.234 8.03 3.28 10.18
5/8/2023 6:15:00 PM 17.37 63.266 0.233 8.03 3.78 10.13
5/8/2023 6:30:00 PM 17.29 63.122 0.24 8.03 3.49 10.04
5/8/2023 6:45:00 PM 17.23 63.014 0.244 8.03 3.89 9.97
5/8/2023 7:00:00 PM 17.18 62.924 0.237 8.03 4.79 9.86
5/8/2023 7:15:00 PM 17.14 62.852 0.245 8.03 5.46 9.78
5/8/2023 7:30:00 PM 17.11 62.798 0.25 8.02 4.43 9.72
5/8/2023 7:45:00 PM 17.09 62.762 0.265 8.02 4.09 9.65
5/8/2023 8:00:00 PM 17.07 62.726 0.238 8.02 4.2 9.57
5/8/2023 8:15:00 PM 17.06 62.708 0.231 8.01 4.04 9.48
5/8/2023 8:30:00 PM 17.06 62.708 0.283 8.01 3.88 9.44
5/8/2023 8:45:00 PM 17.06 62.708 0.272 8.01 3.7 9.4
5/8/2023 9:00:00 PM 17.07 62.726 0.294 8.01 28.74 9.36
5/8/2023 9:15:00 PM 17.08 62.744 0.289 8.01 3.93 9.33
5/8/2023 9:30:00 PM 17.1 62.78 0.258 8 4.02 9.29
5/8/2023 9:45:00 PM 17.11 62.798 0.248 8.01 4.06 9.26
5/8/2023 10:00:00 PM 17.14 62.852 0.234 8.01 3.72 9.27
5/8/2023 10:15:00 PM 17.16 62.888 0.258 8.01 4.85 9.27
5/8/2023 10:30:00 PM 17.17 62.906 0.255 8.01 4.35 9.25
5/8/2023 10:45:00 PM 17.2 62.96 0.243 8.01 3.53 9.24
5/8/2023 11:00:00 PM 17.21 62.978 0.236 8.01 3.44 9.25
5/8/2023 11:15:00 PM 17.24 63.032 0.26 8.01 5.28 9.22
5/8/2023 11:30:00 PM 17.27 63.086 0.262 8.01 4.95 9.24
5/8/2023 11:45:00 PM 17.28 63.104 0.268 8.01 3.22 9.23
5/9/2023 12:00:00 AM 17.3 63.14 0.254 8.01 4.91 9.2
5/9/2023 12:15:00 AM 17.32 63.176 0.242 8 3.87 9.22
5/9/2023 12:30:00 AM 17.33 63.194 0.283 8.02 5 9.2
5/9/2023 12:45:00 AM 17.32 63.176 0.296 8.01 9.36 9.17
5/9/2023 1:00:00 AM 17.32 63.176 0.273 8.01 10.69 9.17
5/9/2023 1:15:00 AM 17.31 63.158 0.275 8.01 4.82 9.15
5/9/2023 1:30:00 AM 17.3 63.14 0.242 8 5.41 9.14
5/9/2023 1:45:00 AM 17.27 63.086 0.255 7.99 4.19 9.14
5/9/2023 2:00:00 AM 17.25 63.05 0.268 7.99 9.22 9.12
5/9/2023 2:15:00 AM 17.23 63.014 0.26 7.97 6.29 9.1
5/9/2023 2:30:00 AM 17.19 62.942 0.229 7.97 5 9.07
5/9/2023 2:45:00 AM 17.17 62.906 0.243 7.97 3.88 9.08
5/9/2023 3:00:00 AM 17.14 62.852 0.249 7.96 3.72 9.04
5/9/2023 3:15:00 AM 17.1 62.78 0.258 7.95 5.92 9.03
5/9/2023 3:30:00 AM 17.07 62.726 0.246 7.94 3.1 9.01
5/9/2023 3:45:00 AM 17.04 62.672 0.244 7.94 5.94 9
5/9/2023 4:00:00 AM 17.01 62.618 0.24 7.93 11.61 8.99
5/9/2023 4:15:00 AM 16.97 62.546 0.239 7.93 4.11 8.96
5/9/2023 4:30:00 AM 16.93 62.474 0.267 7.92 3.5 8.95
5/9/2023 4:45:00 AM 16.89 62.402 0.232 7.92 4.03 8.93
5/9/2023 5:00:00 AM 16.85 62.33 0.253 7.91 4.16 8.91
5/9/2023 5:15:00 AM 16.81 62.258 0.24 7.9 3.94 8.86
5/9/2023 5:30:00 AM 16.76 62.168 0.294 7.89 6.01 8.86
5/9/2023 5:45:00 AM 16.73 62.114 0.25 7.89 6.27 8.87
5/9/2023 6:00:00 AM 16.69 62.042 0.244 7.88 5.3 8.84
5/9/2023 6:15:00 AM 16.65 61.97 0.256 7.87 4.23 8.81
5/9/2023 6:30:00 AM 16.62 61.916 0.275 7.87 3.49 8.81
5/9/2023 6:45:00 AM 16.59 61.862 0.295 7.86 4.02 8.79
5/9/2023 7:00:00 AM 16.56 61.808 0.308 7.86 4.37 8.8
5/9/2023 7:15:00 AM 16.54 61.772 0.268 7.86 3.74 8.8
5/9/2023 7:30:00 AM 16.51 61.718 0.303 7.86 5.2 8.8
5/9/2023 7:45:00 AM 16.49 61.682 0.264 7.85 3.39 8.84
5/9/2023 8:00:00 AM 16.48 61.664 0.256 7.85 4.14 8.85
5/9/2023 8:15:00 AM 16.47 61.646 0.259 7.85 3.74 8.88
5/9/2023 8:30:00 AM 16.45 61.61 0.263 7.85 3.46 8.9
5/9/2023 8:45:00 AM 16.41 61.538 0.253 7.86 4.24 8.91
5/9/2023 9:00:00 AM 16.41 61.538 0.255 7.86 4.16 8.96
5/9/2023 9:15:00 AM 16.41 61.538 0.245 7.85 4.84 9.01
5/9/2023 9:30:00 AM 16.39 61.502 0.297 7.86 3.98 9.04
5/9/2023 9:45:00 AM 16.37 61.466 0.284 7.86 5.33 9.04
5/9/2023 10:00:00 AM 16.38 61.484 0.248 7.86 3.66 9.1
5/9/2023 10:15:00 AM 16.4 61.52 0.293 7.87 3.48 9.17
5/9/2023 10:30:00 AM 16.42 61.556 0.248 7.87 3.09 9.26
5/9/2023 10:45:00 AM 16.44 61.592 0.26 7.88 4.35 9.31
5/9/2023 11:00:00 AM 16.45 61.61 0.245 7.88 3.58 9.36
5/9/2023 11:15:00 AM 16.47 61.646 0.273 7.89 3.35 9.41
5/9/2023 11:30:00 AM 16.51 61.718 0.25 7.89 3.81 9.48
5/9/2023 11:45:00 AM 16.53 61.754 0.25 7.9 3.57 9.57
5/9/2023 12:00:00 PM 16.57 61.826 0.231 7.91 3.38 9.62
5/9/2023 12:15:00 PM 16.63 61.934 0.282 7.91 3.46 9.67
5/9/2023 12:30:00 PM 16.72 62.096 0.298 7.92 3.94 9.75
5/9/2023 12:45:00 PM 16.89 62.402 0.273 7.93 5.52 9.83
5/9/2023 1:00:00 PM 17.11 62.798 0.301 7.94 3.51 9.89
5/9/2023 1:15:00 PM 17.21 62.978 0.259 7.94 3.23 9.95
5/9/2023 1:30:00 PM 17.42 63.356 0.235 7.95 5.52 10.02
5/9/2023 1:45:00 PM 17.61 63.698 0.253 7.95 3.9 10.05
5/9/2023 2:00:00 PM 17.79 64.022 0.271 7.96 3.59 10.08
5/9/2023 2:15:00 PM 17.94 64.292 0.241 7.97 3.6 10.08
5/9/2023 2:30:00 PM 18.08 64.544 0.289 7.97 3.35 10.1
5/9/2023 2:45:00 PM 18.21 64.778 0.254 7.97 4.2 10.11
5/9/2023 3:00:00 PM 18.32 64.976 0.295 7.97 3.7 10.11
5/9/2023 3:15:00 PM 18.43 65.174 0.289 7.97 3.8 10.12
5/9/2023 3:30:00 PM 18.47 65.246 0.253 7.98 3.54 10.11
5/9/2023 3:45:00 PM 18.57 65.426 0.245 7.98 4.75 10.1
5/9/2023 4:00:00 PM 18.62 65.516 0.259 7.99 4.6 10.09
5/9/2023 4:15:00 PM 18.67 65.606 0.255 7.99 3.68 10.1
5/9/2023 4:30:00 PM 18.65 65.57 0.236 7.99 3.3 10.07
5/9/2023 4:45:00 PM 18.66 65.588 0.262 7.99 3.51 10.06
5/9/2023 5:00:00 PM 18.65 65.57 0.305 7.99 3.33 10.03
5/9/2023 5:15:00 PM 18.65 65.57 0.28 8 5.34 10.02
5/9/2023 5:30:00 PM 18.56 65.408 0.234 8 5.07 9.97
5/9/2023 5:45:00 PM 18.44 65.192 0.245 8 5.42 9.89
5/9/2023 6:00:00 PM 18.32 64.976 0.265 8 4.45 9.83
5/9/2023 6:15:00 PM 18.23 64.814 0.267 8 3.85 9.77
5/9/2023 6:30:00 PM 18.1 64.58 0.297 7.99 3.37 9.69
5/9/2023 6:45:00 PM 17.99 64.382 0.26 7.99 3.56 9.57
5/9/2023 7:00:00 PM 17.88 64.184 0.287 7.98 3.23 9.5
5/9/2023 7:15:00 PM 17.82 64.076 0.272 7.99 3.55 9.41
5/9/2023 7:30:00 PM 17.77 63.986 0.248 7.98 3.42 9.37
5/9/2023 7:45:00 PM 17.73 63.914 0.244 7.98 3.58 9.31
5/9/2023 8:00:00 PM 17.69 63.842 0.277 7.98 3.28 9.22
5/9/2023 8:15:00 PM 17.64 63.752 0.241 7.98 3.5 9.16
5/9/2023 8:30:00 PM 17.6 63.68 0.294 7.98 2.98 9.12
5/9/2023 8:45:00 PM 17.55 63.59 0.264 7.98 5.03 9.07
5/9/2023 9:00:00 PM 17.51 63.518 0.252 7.97 4.38 9.02
5/9/2023 9:15:00 PM 17.49 63.482 0.313 7.98 3.98 9.02
5/9/2023 9:30:00 PM 17.5 63.5 0.313 7.98 7.28 8.99
5/9/2023 9:45:00 PM 17.52 63.536 0.313 7.99 3.69 9.01
5/9/2023 10:00:00 PM 17.51 63.518 0.313 8 5.99 8.97
5/9/2023 10:15:00 PM 17.52 63.536 0.313 8 4.18 9
5/9/2023 10:30:00 PM 17.54 63.572 0.313 8.01 3.81 9.01
5/9/2023 10:45:00 PM 17.56 63.608 0.314 8.02 3.83 9.03
5/9/2023 11:00:00 PM 17.58 63.644 0.314 8.03 15.6 9.05
5/9/2023 11:15:00 PM 17.59 63.662 0.293 8.04 7.99 9.06
5/9/2023 11:30:00 PM 17.59 63.662 0.311 8.04 7.58 9.06
5/9/2023 11:45:00 PM 17.61 63.698 0.311 8.05 6.19 9.07
5/10/2023 12:00:00 AM 17.6 63.68 0.313 8.05 3.28 9.05
5/10/2023 12:15:00 AM 17.58 63.644 0.314 8.05 7.17 9.06
5/10/2023 12:30:00 AM 17.56 63.608 0.28 8.05 6.01 9.08
5/10/2023 12:45:00 AM 17.56 63.608 0.293 8.04 23.28 9.07
5/10/2023 1:00:00 AM 17.53 63.554 0.314 8.04 7.01 9.07
5/10/2023 1:15:00 AM 17.52 63.536 0.312 8.05 5.33 9.07
5/10/2023 1:30:00 AM 17.52 63.536 0.314 8.06 3.8 9.1
5/10/2023 1:45:00 AM 17.46 63.428 0.3 8.05 4.05 9.07
5/10/2023 2:00:00 AM 17.41 63.338 0.299 8.04 4.57 9.05
5/10/2023 2:15:00 AM 17.36 63.248 0.313 8.04 3.21 9.06
5/10/2023 2:30:00 AM 17.33 63.194 0.312 8.04 4.95 9.07
5/10/2023 2:45:00 AM 17.28 63.104 0.27 8.03 3 9.06
5/10/2023 3:00:00 AM 17.23 63.014 0.296 8.03 5.06 9.05
5/10/2023 3:15:00 AM 17.17 62.906 0.301 8.02 20.73 9.01
5/10/2023 3:30:00 AM 17.11 62.798 0.294 8.01 3.15 9.02
5/10/2023 3:45:00 AM 17.05 62.69 0.318 8.01 3.53 9.01
5/10/2023 4:00:00 AM 16.98 62.564 0.311 8 3.46 9
5/10/2023 4:15:00 AM 16.91 62.438 0.316 7.99 4.38 8.99
5/10/2023 4:30:00 AM 16.86 62.348 0.318 7.98 4.21 8.97
5/10/2023 4:45:00 AM 16.8 62.24 0.308 7.98 3.24 8.95
5/10/2023 5:00:00 AM 16.74 62.132 0.315 7.97 3.88 8.96
5/10/2023 5:15:00 AM 16.67 62.006 0.291 7.98 2.78 8.93
5/10/2023 5:30:00 AM 16.61 61.898 0.315 7.96 3.86 8.91
5/10/2023 5:45:00 AM 16.55 61.79 0.305 7.95 4.42 8.91
5/10/2023 6:00:00 AM 16.48 61.664 0.318 7.94 3.1 8.9
5/10/2023 6:15:00 AM 16.42 61.556 0.32 7.93 3.07 8.89
5/10/2023 6:30:00 AM 16.35 61.43 0.259 7.92 3.24 8.89
5/10/2023 6:45:00 AM 16.3 61.34 0.311 7.92 3.91 8.89
5/10/2023 7:00:00 AM 16.26 61.268 0.306 7.92 3.42 8.9
5/10/2023 7:15:00 AM 16.22 61.196 0.322 7.91 2.97 8.92
5/10/2023 7:30:00 AM 16.18 61.124 0.293 7.91 4.29 8.96
5/10/2023 7:45:00 AM 16.16 61.088 0.314 7.91 3.65 9.01
5/10/2023 8:00:00 AM 16.15 61.07 0.304 7.91 2.83 9.08
5/10/2023 8:15:00 AM 16.14 61.052 0.318 7.91 3.31 9.14
5/10/2023 8:30:00 AM 16.14 61.052 0.321 7.92 4.1 9.2
5/10/2023 8:45:00 AM 16.14 61.052 0.322 7.92 3.03 9.27
5/10/2023 9:00:00 AM 16.14 61.052 0.316 7.92 3.88 9.34
5/10/2023 9:15:00 AM 16.15 61.07 0.323 7.93 2.9 9.41
5/10/2023 9:30:00 AM 16.17 61.106 0.323 7.93 4.13 9.47
5/10/2023 9:45:00 AM 16.17 61.106 0.284 7.93 3.25 9.51
5/10/2023 10:00:00 AM 16.19 61.142 0.32 7.94 3.14 9.58
5/10/2023 10:15:00 AM 16.2 61.16 0.312 7.94 2.92 9.65
5/10/2023 10:30:00 AM 16.24 61.232 0.313 7.95 3.16 9.69
5/10/2023 10:45:00 AM 16.29 61.322 0.298 7.95 2.32 9.72
5/10/2023 11:00:00 AM 16.37 61.466 0.297 7.96 3.19 9.78
5/10/2023 11:15:00 AM 16.44 61.592 0.299 7.96 3.68 9.83
5/10/2023 11:30:00 AM 16.54 61.772 0.302 7.96 3.28 9.86
5/10/2023 11:45:00 AM 16.64 61.952 0.302 7.98 3.2 9.92
5/10/2023 12:00:00 PM 16.77 62.186 0.307 7.97 3.45 9.95
5/10/2023 12:15:00 PM 16.92 62.456 0.276 7.97 2.61 9.98
5/10/2023 12:30:00 PM 17.07 62.726 0.307 7.98 2.47 10.02
5/10/2023 12:45:00 PM 17.22 62.996 0.286 7.97 3.63 10.06
5/10/2023 1:00:00 PM 17.4 63.32 0.318 7.99 2.79 10.09
5/10/2023 1:15:00 PM 17.57 63.626 0.322 7.99 3.14 10.14
5/10/2023 1:30:00 PM 17.73 63.914 0.32 7.99 3.3 10.16
5/10/2023 1:45:00 PM 17.88 64.184 0.317 8 3.14 10.2
5/10/2023 2:00:00 PM 18.02 64.436 0.301 8 4.38 10.22
5/10/2023 2:15:00 PM 18.17 64.706 0.307 8 2.84 10.25
5/10/2023 2:30:00 PM 18.31 64.958 0.311 8 3.08 10.25
5/10/2023 2:45:00 PM 18.45 65.21 0.309 8.01 3.6 10.26
5/10/2023 3:00:00 PM 18.53 65.354 0.322 8.01 3.11 10.28
5/10/2023 3:15:00 PM 18.66 65.588 0.318 8.02 2.95 10.29
5/10/2023 3:30:00 PM 18.69 65.642 0.316 8.02 3.17 10.3
5/10/2023 3:45:00 PM 18.77 65.786 0.279 8.02 3.55 10.32
5/10/2023 4:00:00 PM 18.82 65.876 0.308 8.03 3.49 10.32
5/10/2023 4:15:00 PM 18.89 66.002 0.324 8.03 3.22 10.31
5/10/2023 4:30:00 PM 18.88 65.984 0.325 8.04 4.54 10.31
5/10/2023 4:45:00 PM 18.9 66.02 0.307 8.04 3.87 10.3
5/10/2023 5:00:00 PM 18.88 65.984 0.324 8.05 2.97 10.27
5/10/2023 5:15:00 PM 18.85 65.93 0.325 8.05 3.59 10.24
5/10/2023 5:30:00 PM 18.79 65.82201 0.324 8.05 4.25 10.2
5/10/2023 5:45:00 PM 18.67 65.606 0.321 8.06 3.58 10.16
5/10/2023 6:00:00 PM 18.54 65.372 0.325 8.06 2.88 10.14
5/10/2023 6:15:00 PM 18.41 65.138 0.324 8.06 3.64 10.07
5/10/2023 6:30:00 PM 18.29 64.922 0.311 8.07 3.3 9.99
5/10/2023 6:45:00 PM 18.16 64.688 0.325 8.06 3.87 9.89
5/10/2023 7:00:00 PM 18.04 64.472 0.279 8.06 3.1 9.8
5/10/2023 7:15:00 PM 17.95 64.31 0.287 8.06 3.2 9.71
5/10/2023 7:30:00 PM 17.87 64.166 0.327 8.06 3.02 9.61
5/10/2023 7:45:00 PM 17.82 64.076 0.29 8.06 3.53 9.56
5/10/2023 8:00:00 PM 17.78 64.004 0.325 8.06 3.24 9.49
5/10/2023 8:15:00 PM 17.74 63.932 0.308 8.06 2.98 9.41
5/10/2023 8:30:00 PM 17.71 63.878 0.26 8.06 3.78 9.35
5/10/2023 8:45:00 PM 17.69 63.842 0.305 8.05 3.51 9.28
5/10/2023 9:00:00 PM 17.68 63.824 0.327 8.06 3.91 9.23
5/10/2023 9:15:00 PM 17.66 63.788 0.327 8.05 4.31 9.17
5/10/2023 9:30:00 PM 17.68 63.824 0.327 8.05 3.94 9.16
5/10/2023 9:45:00 PM 17.68 63.824 0.326 8.05 3.79 9.14
5/10/2023 10:00:00 PM 17.69 63.842 0.313 8.06 4.44 9.13
5/10/2023 10:15:00 PM 17.7 63.86 0.327 8.07 3.18 9.11
5/10/2023 10:30:00 PM 17.72 63.896 0.327 8.07 3.95 9.11
5/10/2023 10:45:00 PM 17.73 63.914 0.305 8.08 3.77 9.12
5/10/2023 11:00:00 PM 17.77 63.986 0.327 8.08 3.4 9.13
5/10/2023 11:15:00 PM 17.8 64.04 0.327 8.09 3.2 9.13
5/10/2023 11:30:00 PM 17.81 64.058 0.327 8.09 3.33 9.14
5/10/2023 11:45:00 PM 17.84 64.112 0.327 8.09 5.37 9.12
5/11/2023 12:00:00 AM 17.87 64.166 0.327 8.09 5.57 9.11
5/11/2023 12:15:00 AM 17.89 64.202 0.327 8.1 3.76 9.12
5/11/2023 12:30:00 AM 17.89 64.202 0.327 8.1 3.57 9.1
5/11/2023 12:45:00 AM 17.91 64.238 0.327 8.1 5.6 9.1
5/11/2023 1:00:00 AM 17.93 64.274 0.327 8.1 4.17 9.1
5/11/2023 1:15:00 AM 17.92 64.256 0.327 8.1 3.01 9.08
5/11/2023 1:30:00 AM 17.93 64.274 0.327 8.1 4.04 9.08
5/11/2023 1:45:00 AM 17.93 64.274 0.327 8.1 3.79 9.06
5/11/2023 2:00:00 AM 17.92 64.256 0.327 8.1 3.82 9.03
5/11/2023 2:15:00 AM 17.92 64.256 0.327 8.1 4.23 9.05
5/11/2023 2:30:00 AM 17.89 64.202 0.327 8.09 6.75 9.04
5/11/2023 2:45:00 AM 17.84 64.112 0.327 8.08 7.81 8.97
5/11/2023 3:00:00 AM 17.82 64.076 0.327 8.08 4.12 8.97
5/11/2023 3:15:00 AM 17.77 63.986 0.327 8.07 3.94 8.96
5/11/2023 3:30:00 AM 17.74 63.932 0.327 8.06 7.21 8.96
5/11/2023 3:45:00 AM 17.68 63.824 0.327 8.05 2.86 8.92
5/11/2023 4:00:00 AM 17.63 63.734 0.328 8.04 3.5 8.9
5/11/2023 4:15:00 AM 17.59 63.662 0.328 8.04 3.95 8.89
5/11/2023 4:30:00 AM 17.53 63.554 0.328 8.03 6.63 8.87
5/11/2023 4:45:00 AM 17.48 63.464 0.328 8.02 12.93 8.86
5/11/2023 5:00:00 AM 17.43 63.374 0.304 8.01 4.02 8.84
5/11/2023 5:15:00 AM 17.39 63.302 0.28 8 3.62 8.84
5/11/2023 5:30:00 AM 17.33 63.194 0.305 7.99 4.35 8.81
5/11/2023 5:45:00 AM 17.27 63.086 0.295 7.98 7.83 8.8
5/11/2023 6:00:00 AM 17.21 62.978 0.295 7.98 4.4 8.79
5/11/2023 6:15:00 AM 17.15 62.87 0.301 7.97 3.94 8.78
5/11/2023 6:30:00 AM 17.09 62.762 0.272 7.96 3.48 8.78
5/11/2023 6:45:00 AM 17.03 62.654 0.288 7.95 2.99 8.75
5/11/2023 7:00:00 AM 16.98 62.564 0.292 7.94 3.28 8.8
5/11/2023 7:15:00 AM 16.95 62.51 0.298 7.94 2.87 8.82
5/11/2023 7:30:00 AM 16.92 62.456 0.303 7.93 3.17 8.84
5/11/2023 7:45:00 AM 16.89 62.402 0.273 7.94 2.92 8.87
5/11/2023 8:00:00 AM 16.88 62.384 0.282 7.93 3.24 8.94
5/11/2023 8:15:00 AM 16.88 62.384 0.29 7.93 3.12 8.99
5/11/2023 8:30:00 AM 16.88 62.384 0.29 7.93 3.12 9.04
5/11/2023 8:45:00 AM 16.88 62.384 0.294 7.94 2.68 9.11
5/11/2023 9:00:00 AM 16.89 62.402 0.308 7.94 3.66 9.16
5/11/2023 9:15:00 AM 16.91 62.438 0.29 7.94 2.51 9.22
5/11/2023 9:30:00 AM 16.92 62.456 0.29 7.94 2.48 9.3
5/11/2023 9:45:00 AM 16.95 62.51 0.305 7.95 2.88 9.36
5/11/2023 10:00:00 AM 16.98 62.564 0.294 7.95 2.87 9.43
5/11/2023 10:15:00 AM 17.01 62.618 0.315 7.96 2.53 9.49
5/11/2023 10:30:00 AM 17.05 62.69 0.311 7.96 2.56 9.56
5/11/2023 10:45:00 AM 17.11 62.798 0.305 7.97 2.13 9.62
5/11/2023 11:00:00 AM 17.18 62.924 0.306 7.97 2.82 9.67
5/11/2023 11:15:00 AM 17.28 63.104 0.306 7.97 10.31 9.71
5/11/2023 11:30:00 AM 17.37 63.266 0.288 7.98 3.57 9.76
5/11/2023 11:45:00 AM 17.5 63.5 0.309 7.98 3.63 9.83
5/11/2023 12:00:00 PM 17.64 63.752 0.296 7.99 3.28 9.9
5/11/2023 12:15:00 PM 17.79 64.022 0.293 7.99 3.28 9.95
5/11/2023 12:30:00 PM 17.93 64.274 0.298 7.99 3.09 9.99
5/11/2023 12:45:00 PM 18.09 64.562 0.299 7.99 3.4 10.04
5/11/2023 1:00:00 PM 18.25 64.85 0.284 8 2.82 10.1
5/11/2023 1:15:00 PM 18.43 65.174 0.303 8 3.13 10.14
5/11/2023 1:30:00 PM 18.59 65.462 0.3 8 2.62 10.18
5/11/2023 1:45:00 PM 18.75 65.75 0.306 8.01 2.96 10.21
5/11/2023 2:00:00 PM 18.93 66.074 0.281 8.01 3.23 10.22
5/11/2023 2:15:00 PM 19.08 66.344 0.298 8.01 3.43 10.24
5/11/2023 2:30:00 PM 19.26 66.668 0.308 8.02 3.49 10.28
5/11/2023 2:45:00 PM 19.37 66.866 0.303 8.02 3.18 10.27
5/11/2023 3:00:00 PM 19.47 67.046 0.306 8.02 3.66 10.32
5/11/2023 3:15:00 PM 19.49 67.082 0.29 8.02 3.82 10.3
5/11/2023 3:30:00 PM 19.54 67.172 0.29 8.03 3.14 10.3
5/11/2023 3:45:00 PM 19.6 67.28 0.299 8.03 3.6 10.28
5/11/2023 4:00:00 PM 19.67 67.406 0.293 8.03 3.17 10.28
5/11/2023 4:15:00 PM 19.73 67.514 0.315 8.03 2.67 10.27
5/11/2023 4:30:00 PM 19.68 67.424 0.304 8.04 3.23 10.25
5/11/2023 4:45:00 PM 19.7 67.46 0.308 8.04 3.93 10.22
5/11/2023 5:00:00 PM 19.68 67.424 0.281 8.04 2.73 10.2
5/11/2023 5:15:00 PM 19.61 67.298 0.296 8.05 2.92 10.15
5/11/2023 5:30:00 PM 19.57 67.226 0.294 8.05 3.32 10.13
5/11/2023 5:45:00 PM 19.47 67.046 0.277 8.05 3.6 10.07
5/11/2023 6:00:00 PM 19.37 66.866 0.299 8.05 2.99 10.03
5/11/2023 6:15:00 PM 19.25 66.65 0.312 8.06 3.66 9.95
5/11/2023 6:30:00 PM 19.1 66.38 0.321 8.05 3.18 9.85
5/11/2023 6:45:00 PM 18.91 66.038 0.313 8.05 3.77 9.75
5/11/2023 7:00:00 PM 18.81 65.858 0.289 8.05 3.1 9.65
5/11/2023 7:15:00 PM 18.68 65.624 0.304 8.04 2.97 9.53
5/11/2023 7:30:00 PM 18.57 65.426 0.294 8.04 4.48 9.43
5/11/2023 7:45:00 PM 18.5 65.3 0.329 8.03 3.57 9.32
5/11/2023 8:00:00 PM 18.44 65.192 0.29 8.03 3.94 9.23
5/11/2023 8:15:00 PM 18.37 65.066 0.323 8.02 2.46 9.16
5/11/2023 8:30:00 PM 18.34 65.012 0.323 8.02 2.45 9.07
5/11/2023 8:45:00 PM 18.31 64.958 0.296 8.01 3.48 9.02
5/11/2023 9:00:00 PM 18.29 64.922 0.288 8.01 3.01 8.98
5/11/2023 9:15:00 PM 18.28 64.904 0.296 8.01 2.82 8.93
5/11/2023 9:30:00 PM 18.28 64.904 0.273 8.02 3.07 8.91
5/11/2023 9:45:00 PM 18.28 64.904 0.292 8.01 3.42 8.88
5/11/2023 10:00:00 PM 18.31 64.958 0.253 8.01 7.37 8.86
5/11/2023 10:15:00 PM 18.32 64.976 0.283 8.02 9.49 8.88
5/11/2023 10:30:00 PM 18.34 65.012 0.334 8.03 10.4 8.88
5/11/2023 10:45:00 PM 18.37 65.066 0.294 8.04 3.46 8.9
5/11/2023 11:00:00 PM 18.41 65.138 0.301 8.05 2.26 8.9
5/11/2023 11:15:00 PM 18.44 65.192 0.264 8.05 3.21 8.91
5/11/2023 11:30:00 PM 18.48 65.264 0.293 8.06 2.54 8.93
5/11/2023 11:45:00 PM 18.5 65.3 0.311 8.07 2.84 8.91
5/12/2023 12:00:00 AM 18.56 65.408 0.262 8.08 5 8.94
5/12/2023 12:15:00 AM 18.58 65.444 0.277 8.08 2.91 8.94
5/12/2023 12:30:00 AM 18.62 65.516 0.309 8.09 3.62 8.95
5/12/2023 12:45:00 AM 18.64 65.552 0.326 8.1 4.03 8.93
5/12/2023 1:00:00 AM 18.68 65.624 0.265 8.1 2.89 8.92
5/12/2023 1:15:00 AM 18.72 65.696 0.327 8.1 3.23 8.93
5/12/2023 1:30:00 AM 18.74 65.732 0.263 8.11 2.77 8.92
5/12/2023 1:45:00 AM 18.76 65.768 0.277 8.11 4.09 8.91
5/12/2023 2:00:00 AM 18.79 65.82201 0.272 8.12 2.53 8.9
5/12/2023 2:15:00 AM 18.79 65.82201 0.335 8.12 3.17 8.88
5/12/2023 2:30:00 AM 18.8 65.84 0.321 8.12 4.06 8.88
5/12/2023 2:45:00 AM 18.8 65.84 0.266 8.11 3.68 8.84
5/12/2023 3:00:00 AM 18.81 65.858 0.285 8.11 2.78 8.84
5/12/2023 3:15:00 AM 18.79 65.82201 0.282 8.1 3.13 8.81
5/12/2023 3:30:00 AM 18.77 65.786 0.268 8.1 2.95 8.78
5/12/2023 3:45:00 AM 18.75 65.75 0.282 8.09 2.71 8.76
5/12/2023 4:00:00 AM 18.71 65.67799 0.323 8.09 2.75 8.73
5/12/2023 4:15:00 AM 18.68 65.624 0.281 8.07 3.4 8.7
5/12/2023 4:30:00 AM 18.65 65.57 0.297 8.06 3.47 8.7
5/12/2023 4:45:00 AM 18.6 65.48 0.285 8.05 2.93 8.65
5/12/2023 5:00:00 AM 18.57 65.426 0.279 8.04 3.64 8.65
5/12/2023 5:15:00 AM 18.53 65.354 0.28 8.03 5.02 8.61
5/12/2023 5:30:00 AM 18.48 65.264 0.302 8.01 12.65 8.6
5/12/2023 5:45:00 AM 18.43 65.174 0.297 8.01 2.76 8.57
5/12/2023 6:00:00 AM 18.4 65.12 0.285 8 2.9 8.56
5/12/2023 6:15:00 AM 18.34 65.012 0.284 7.99 3.57 8.52
5/12/2023 6:30:00 AM 18.31 64.958 0.273 7.97 3.11 8.53
5/12/2023 6:45:00 AM 18.27 64.886 0.291 7.97 3.23 8.53
5/12/2023 7:00:00 AM 18.24 64.832 0.3 7.96 2.48 8.53
5/12/2023 7:15:00 AM 18.23 64.814 0.276 7.95 3.89 8.55
5/12/2023 7:30:00 AM 18.22 64.796 0.309 7.95 3.25 8.59
5/12/2023 7:45:00 AM 18.22 64.796 0.277 7.94 2.38 8.64
5/12/2023 8:00:00 AM 18.22 64.796 0.281 7.95 2.24 8.7
5/12/2023 8:15:00 AM 18.23 64.814 0.296 7.95 2.27 8.75
5/12/2023 8:30:00 AM 18.24 64.832 0.269 7.95 2.5 8.83
5/12/2023 8:45:00 AM 18.26 64.868 0.27 7.95 2.18 8.87
5/12/2023 9:00:00 AM 18.29 64.922 0.271 7.94 2.12 8.94
5/12/2023 9:15:00 AM 18.31 64.958 0.285 7.95 2.9 9
5/12/2023 9:30:00 AM 18.33 64.994 0.306 7.95 2.41 9.06
5/12/2023 9:45:00 AM 18.36 65.048 0.3 7.95 2.49 9.12
5/12/2023 10:00:00 AM 18.4 65.12 0.315 7.95 2.29 9.16
5/12/2023 10:15:00 AM 18.43 65.174 0.305 7.96 2.57 9.22
5/12/2023 10:30:00 AM 18.49 65.282 0.297 7.96 2.24 9.28
5/12/2023 10:45:00 AM 18.55 65.39 0.335 7.96 2.03 9.34
5/12/2023 11:00:00 AM 18.64 65.552 0.313 7.96 2.26 9.39
5/12/2023 11:15:00 AM 18.74 65.732 0.34 7.97 1.76 9.48
5/12/2023 11:30:00 AM 18.86 65.948 0.339 7.97 2.31 9.52
5/12/2023 11:45:00 AM 19 66.2 0.293 7.98 2.09 9.6
5/12/2023 12:00:00 PM 19.14 66.452 0.321 7.98 3.01 9.67
5/12/2023 12:15:00 PM 19.31 66.758 0.31 7.98 2.4 9.73
5/12/2023 12:30:00 PM 19.48 67.064 0.335 7.99 2.11 9.77
5/12/2023 12:45:00 PM 19.66 67.388 0.298 7.99 2.47 9.84
5/12/2023 1:00:00 PM 19.85 67.73 0.308 7.99 3.01 9.89
5/12/2023 1:15:00 PM 20.05 68.09 0.284 7.99 2.15 9.92
5/12/2023 1:30:00 PM 20.24 68.432 0.285 8 2.58 9.96
5/12/2023 1:45:00 PM 20.37 68.666 0.314 8 2.26 9.99
5/12/2023 2:00:00 PM 20.52 68.936 0.342 8 2.32 10.01
5/12/2023 2:15:00 PM 20.62 69.116 0.284 8.01 2.45 10.05
5/12/2023 2:30:00 PM 20.74 69.332 0.294 8.01 3.12 10.07
5/12/2023 2:45:00 PM 20.86 69.548 0.338 8.01 2.54 10.09
5/12/2023 3:00:00 PM 20.98 69.764 0.339 8.01 2.53 10.1
5/12/2023 3:15:00 PM 21.06 69.908 0.296 8.01 2.31 10.11
5/12/2023 3:30:00 PM 21.15 70.07 0.321 8.02 2.28 10.1
5/12/2023 3:45:00 PM 21.19 70.142 0.307 8.02 2.01 10.1
5/12/2023 4:00:00 PM 21.21 70.17799 0.331 8.02 3.04 10.09
5/12/2023 4:15:00 PM 21.19 70.142 0.324 8.03 2.26 10.09
5/12/2023 4:30:00 PM 21.14 70.052 0.336 8.03 2.51 10.05
5/12/2023 4:45:00 PM 21.03 69.854 0.322 8.03 2.38 10
5/12/2023 5:00:00 PM 20.87 69.566 0.32 8.04 3.52 9.92
5/12/2023 5:15:00 PM 20.73 69.314 0.346 8.04 3.1 9.85
5/12/2023 5:30:00 PM 20.64 69.152 0.346 8.03 2.35 9.78
5/12/2023 5:45:00 PM 20.53 68.954 0.345 8.03 2.8 9.7
5/12/2023 6:00:00 PM 20.45 68.81 0.347 8.03 2.73 9.64
5/12/2023 6:15:00 PM 20.37 68.666 0.307 8.03 2.79 9.56
5/12/2023 6:30:00 PM 20.25 68.45 0.345 8.02 2.79 9.46
5/12/2023 6:45:00 PM 20.14 68.252 0.34 8.02 2.87 9.34
5/12/2023 7:00:00 PM 20.04 68.07201 0.345 8.01 3.72 9.24
5/12/2023 7:15:00 PM 19.95 67.91 0.278 8.01 2.6 9.17
5/12/2023 7:30:00 PM 19.86 67.748 0.339 8.01 2.53 9.08
5/12/2023 7:45:00 PM 19.79 67.622 0.344 8.01 2.77 8.99
5/12/2023 8:00:00 PM 19.73 67.514 0.328 8 2.8 8.9
5/12/2023 8:15:00 PM 19.68 67.424 0.348 8 2.73 8.81
5/12/2023 8:30:00 PM 19.64 67.352 0.348 7.99 2.94 8.73
5/12/2023 8:45:00 PM 19.62 67.316 0.343 7.99 2.72 8.68
5/12/2023 9:00:00 PM 19.61 67.298 0.349 7.98 2.99 8.62
5/12/2023 9:15:00 PM 19.62 67.316 0.348 7.98 2.58 8.56
5/12/2023 9:30:00 PM 19.62 67.316 0.349 7.98 5.07 8.48
5/12/2023 9:45:00 PM 19.64 67.352 0.349 7.98 3.78 8.49
5/12/2023 10:00:00 PM 19.65 67.37 0.349 7.98 3.62 8.46
5/12/2023 10:15:00 PM 19.68 67.424 0.349 7.98 3.47 8.45
5/12/2023 10:30:00 PM 19.71 67.478 0.349 7.98 2.78 8.46
5/12/2023 10:45:00 PM 19.75 67.55 0.349 7.99 4 8.47
5/12/2023 11:00:00 PM 19.79 67.622 0.348 8 3.51 8.48
5/12/2023 11:15:00 PM 19.84 67.712 0.349 8 3.25 8.47
5/12/2023 11:30:00 PM 19.89 67.802 0.348 8.01 4.15 8.48
5/12/2023 11:45:00 PM 19.94 67.892 0.348 8.02 5.43 8.49
5/13/2023 12:00:00 AM 20 68 0.348 8.03 4.9 8.5
5/13/2023 12:15:00 AM 20.04 68.07201 0.348 8.04 3.55 8.5
5/13/2023 12:30:00 AM 20.08 68.144 0.348 8.05 3.54 8.5
5/13/2023 12:45:00 AM 20.13 68.234 0.348 8.05 3.67 8.5
5/13/2023 1:00:00 AM 20.18 68.324 0.349 8.06 3.56 8.53
5/13/2023 1:15:00 AM 20.23 68.414 0.348 8.07 5.13 8.52
5/13/2023 1:30:00 AM 20.27 68.486 0.35 8.07 3.82 8.51
5/13/2023 1:45:00 AM 20.3 68.54 0.349 8.07 3.31 8.49
5/13/2023 2:00:00 AM 20.34 68.612 0.349 8.08 2.43 8.5
5/13/2023 2:15:00 AM 20.37 68.666 0.349 8.08 3.37 8.49
5/13/2023 2:30:00 AM 20.38 68.684 0.349 8.08 3.64 8.47
5/13/2023 2:45:00 AM 20.42 68.756 0.349 8.08 2.42 8.47
5/13/2023 3:00:00 AM 20.43 68.774 0.349 8.07 2.76 8.44
5/13/2023 3:15:00 AM 20.45 68.81 0.349 8.06 3.38 8.42
5/13/2023 3:30:00 AM 20.46 68.828 0.349 8.07 2.43 8.43
5/13/2023 3:45:00 AM 20.46 68.828 0.349 8.06 2.68 8.37
5/13/2023 4:00:00 AM 20.47 68.846 0.349 8.06 6.41 8.36
5/13/2023 4:15:00 AM 20.46 68.828 0.349 8.05 3.05 8.34
5/13/2023 4:30:00 AM 20.45 68.81 0.349 8.04 4.2 8.31
5/13/2023 4:45:00 AM 20.45 68.81 0.349 8.04 4.07 8.29
5/13/2023 5:00:00 AM 20.43 68.774 0.341 8.03 4.18 8.26
5/13/2023 5:15:00 AM 20.41 68.738 0.349 8.02 3.27 8.24
5/13/2023 5:30:00 AM 20.4 68.72 0.349 8.01 3.37 8.21
5/13/2023 5:45:00 AM 20.37 68.666 0.349 8 2.6 8.18
5/13/2023 6:00:00 AM 20.36 68.648 0.349 7.99 3.51 8.15
5/13/2023 6:15:00 AM 20.34 68.612 0.349 7.98 3.05 8.12
5/13/2023 6:30:00 AM 20.32 68.576 0.349 7.97 2.8 8.11
5/13/2023 6:45:00 AM 20.3 68.54 0.349 7.97 3.21 8.1
5/13/2023 7:00:00 AM 20.28 68.504 0.349 7.96 3.37 8.07
5/13/2023 7:15:00 AM 20.24 68.432 0.349 7.95 2.8 8.05
5/13/2023 7:30:00 AM 20.22 68.396 0.349 7.94 2.74 8.03
5/13/2023 7:45:00 AM 20.2 68.36 0.349 7.93 2.86 8.04
5/13/2023 8:00:00 AM 20.18 68.324 0.349 7.92 3.56 8.04
5/13/2023 8:15:00 AM 20.16 68.288 0.35 7.91 2.5 8.04
5/13/2023 8:30:00 AM 20.14 68.252 0.35 7.91 2.7 8.04
5/13/2023 8:45:00 AM 20.11 68.198 0.35 7.9 3 8.04
5/13/2023 9:00:00 AM 20.1 68.18 0.351 7.89 2.14 8.07
5/13/2023 9:15:00 AM 20.1 68.18 0.349 7.89 3.68 8.12
5/13/2023 9:30:00 AM 20.09 68.162 0.351 7.89 2.75 8.15
5/13/2023 9:45:00 AM 20.08 68.144 0.352 7.88 2.42 8.18
5/13/2023 10:00:00 AM 20.08 68.144 0.352 7.89 2.46 8.24
5/13/2023 10:15:00 AM 20.08 68.144 0.353 7.89 2.34 8.28
5/13/2023 10:30:00 AM 20.08 68.144 0.353 7.89 2.03 8.37
5/13/2023 10:45:00 AM 20.08 68.144 0.334 7.89 2.24 8.42
5/13/2023 11:00:00 AM 20.11 68.198 0.33 7.9 2.18 8.53
5/13/2023 11:15:00 AM 20.14 68.252 0.338 7.9 2.33 8.66
5/13/2023 11:30:00 AM 20.18 68.324 0.339 7.9 2.62 8.74
5/13/2023 11:45:00 AM 20.2 68.36 0.347 7.91 2.52 8.85
5/13/2023 12:00:00 PM 20.2 68.36 0.355 7.92 2.58 8.88
5/13/2023 12:15:00 PM 20.2 68.36 0.355 7.92 2.58 8.93
5/13/2023 12:30:00 PM 20.18 68.324 0.355 7.92 4.59 8.98
5/13/2023 12:45:00 PM 20.17 68.306 0.355 7.93 2.33 9.01
5/13/2023 1:00:00 PM 20.14 68.252 0.355 7.93 2.8 9.05
5/13/2023 1:15:00 PM 20.1 68.18 0.356 7.93 2.83 9.02
5/13/2023 1:30:00 PM 20.05 68.09 0.354 7.93 2.71 8.93
5/13/2023 1:45:00 PM 20 68 0.356 7.93 3.44 8.88
5/13/2023 2:00:00 PM 19.97 67.946 0.356 7.92 2.44 8.86
5/13/2023 2:15:00 PM 19.94 67.892 0.357 7.91 2.6 8.82
5/13/2023 2:30:00 PM 19.92 67.856 0.357 7.91 2.66 8.8
5/13/2023 2:45:00 PM 19.89 67.802 0.357 7.9 3.3 8.77
5/13/2023 3:00:00 PM 19.85 67.73 0.357 7.9 2.55 8.78
5/13/2023 3:15:00 PM 19.81 67.658 0.358 7.89 2.02 8.75
5/13/2023 3:30:00 PM 19.76 67.568 0.357 7.89 2.55 8.74
5/13/2023 3:45:00 PM 19.72 67.496 0.359 7.89 2.14 8.68
5/13/2023 4:00:00 PM 19.67 67.406 0.359 7.88 2.22 8.62
5/13/2023 4:15:00 PM 19.62 67.316 0.359 7.88 2.34 8.55
5/13/2023 4:30:00 PM 19.58 67.244 0.359 7.87 3.13 8.48
5/13/2023 4:45:00 PM 19.55 67.19 0.359 7.86 2.64 8.43
5/13/2023 5:00:00 PM 19.52 67.136 0.36 7.86 3.6 8.4
5/13/2023 5:15:00 PM 19.49 67.082 0.36 7.85 2.43 8.37
5/13/2023 5:30:00 PM 19.46 67.028 0.36 7.85 2.4 8.35
5/13/2023 5:45:00 PM 19.43 66.974 0.36 7.85 2.32 8.33
5/13/2023 6:00:00 PM 19.4 66.92 0.361 7.85 2.49 8.33
5/13/2023 6:15:00 PM 19.38 66.884 0.361 7.84 2.82 8.32
5/13/2023 6:30:00 PM 19.36 66.848 0.361 7.84 3.01 8.29
5/13/2023 6:45:00 PM 19.34 66.812 0.361 7.84 2.75 8.28
5/13/2023 7:00:00 PM 19.34 66.812 0.361 7.84 3.21 8.29
5/13/2023 7:15:00 PM 19.33 66.794 0.361 7.84 2.48 8.31
5/13/2023 7:30:00 PM 19.29 66.722 0.361 7.85 2.59 8.3
5/13/2023 7:45:00 PM 19.25 66.65 0.361 7.85 3.83 8.31
5/13/2023 8:00:00 PM 19.2 66.56 0.361 7.85 2.31 8.29
5/13/2023 8:15:00 PM 19.16 66.488 0.361 7.85 4.24 8.28
5/13/2023 8:30:00 PM 19.1 66.38 0.362 7.84 2.2 8.25
5/13/2023 8:45:00 PM 19.05 66.29 0.359 7.84 3.51 8.18
5/13/2023 9:00:00 PM 18.98 66.164 0.362 7.84 3.6 8.12
5/13/2023 9:15:00 PM 18.94 66.092 0.354 7.83 3.34 8.08
5/13/2023 9:30:00 PM 18.89 66.002 0.317 7.83 3.69 8.02
5/13/2023 9:45:00 PM 18.84 65.912 0.362 7.83 2.15 8
5/13/2023 10:00:00 PM 18.8 65.84 0.359 7.83 6.8 7.97
5/13/2023 10:15:00 PM 18.77 65.786 0.362 7.82 2.93 7.98
5/13/2023 10:30:00 PM 18.73 65.714 0.357 7.83 5.83 8
5/13/2023 10:45:00 PM 18.69 65.642 0.332 7.83 2.64 8.01
5/13/2023 11:00:00 PM 18.68 65.624 0.36 7.83 3.69 8.04
5/13/2023 11:15:00 PM 18.65 65.57 0.362 7.84 3.15 8.08
5/13/2023 11:30:00 PM 18.64 65.552 0.362 7.84 2.74 8.09
5/13/2023 11:45:00 PM 18.62 65.516 0.336 7.85 3.38 8.12
5/14/2023 12:00:00 AM 18.61 65.498 0.329 7.85 2.9 8.15
5/14/2023 12:15:00 AM 18.59 65.462 0.361 7.85 2.65 8.16
5/14/2023 12:30:00 AM 18.58 65.444 0.362 7.86 3.52 8.2
5/14/2023 12:45:00 AM 18.57 65.426 0.362 7.86 2.92 8.22
5/14/2023 1:00:00 AM 18.56 65.408 0.362 7.87 3.19 8.25
5/14/2023 1:15:00 AM 18.54 65.372 0.362 7.87 3.45 8.26
5/14/2023 1:30:00 AM 18.52 65.336 0.362 7.88 3.47 8.3
5/14/2023 1:45:00 AM 18.49 65.282 0.357 7.88 2.83 8.28
5/14/2023 2:00:00 AM 18.45 65.21 0.36 7.88 5.19 8.3
5/14/2023 2:15:00 AM 18.42 65.156 0.362 7.89 2.64 8.32
5/14/2023 2:30:00 AM 18.4 65.12 0.362 7.89 3.38 8.36
5/14/2023 2:45:00 AM 18.36 65.048 0.362 7.89 3.45 8.36
5/14/2023 3:00:00 AM 18.33 64.994 0.357 7.89 4.59 8.36
5/14/2023 3:15:00 AM 18.3 64.94 0.359 7.9 3.76 8.36
5/14/2023 3:30:00 AM 18.27 64.886 0.361 7.9 3.54 8.39
5/14/2023 3:45:00 AM 18.24 64.832 0.361 7.9 3.33 8.39
5/14/2023 4:00:00 AM 18.21 64.778 0.36 7.9 3.14 8.39
5/14/2023 4:15:00 AM 18.19 64.742 0.361 7.9 5.15 8.39
5/14/2023 4:30:00 AM 18.16 64.688 0.361 7.89 3.29 8.38
5/14/2023 4:45:00 AM 18.14 64.652 0.361 7.89 4.8 8.38
5/14/2023 5:00:00 AM 18.11 64.598 0.361 7.89 4.34 8.38
5/14/2023 5:15:00 AM 18.08 64.544 0.324 7.89 3.68 8.37
5/14/2023 5:30:00 AM 18.04 64.472 0.361 7.88 3.45 8.37
5/14/2023 5:45:00 AM 17.99 64.382 0.362 7.88 3.39 8.35
5/14/2023 6:00:00 AM 17.96 64.328 0.361 7.88 4.37 8.36
5/14/2023 6:15:00 AM 17.91 64.238 0.362 7.88 6.78 8.35
5/14/2023 6:30:00 AM 17.87 64.166 0.362 7.88 3.74 8.36
5/14/2023 6:45:00 AM 17.82 64.076 0.361 7.87 5.11 8.36
5/14/2023 7:00:00 AM 17.79 64.022 0.361 7.87 3.98 8.38
5/14/2023 7:15:00 AM 17.75 63.95 0.362 7.87 3.05 8.39
5/14/2023 7:30:00 AM 17.74 63.932 0.361 7.87 3.25 8.42
5/14/2023 7:45:00 AM 17.74 63.932 0.361 7.87 3.24 8.46
5/14/2023 8:00:00 AM 17.73 63.914 0.362 7.86 3.08 8.5
5/14/2023 8:15:00 AM 17.74 63.932 0.362 7.87 3.11 8.56
5/14/2023 8:30:00 AM 17.76 63.968 0.362 7.87 3.02 8.62
5/14/2023 8:45:00 AM 17.76 63.968 0.362 7.87 2.4 8.67
5/14/2023 9:00:00 AM 17.78 64.004 0.362 7.87 2.91 8.73
5/14/2023 9:15:00 AM 17.78 64.004 0.362 7.87 2.43 8.77
5/14/2023 9:30:00 AM 17.78 64.004 0.362 7.88 2.85 8.82
5/14/2023 9:45:00 AM 17.8 64.04 0.362 7.88 3.01 8.86
5/14/2023 10:00:00 AM 17.82 64.076 0.362 7.88 2.27 8.92
5/14/2023 10:15:00 AM 17.84 64.112 0.363 7.89 2.68 9
5/14/2023 10:30:00 AM 17.87 64.166 0.363 7.89 3.21 9.05
5/14/2023 10:45:00 AM 17.92 64.256 0.363 7.9 3.76 9.1
5/14/2023 11:00:00 AM 18.01 64.418 0.363 7.9 3.56 9.2
5/14/2023 11:15:00 AM 18.11 64.598 0.363 7.9 3.19 9.23
5/14/2023 11:30:00 AM 18.23 64.814 0.364 7.91 3.38 9.31
5/14/2023 11:45:00 AM 18.37 65.066 0.364 7.91 4.94 9.37
5/14/2023 12:00:00 PM 18.53 65.354 0.364 7.91 2.74 9.42
5/14/2023 12:15:00 PM 18.71 65.67799 0.364 7.92 2.84 9.48
5/14/2023 12:30:00 PM 18.91 66.038 0.364 7.92 2.52 9.56
5/14/2023 12:45:00 PM 19.1 66.38 0.365 7.92 3.18 9.6
5/14/2023 1:00:00 PM 19.31 66.758 0.365 7.92 3.03 9.65
5/14/2023 1:15:00 PM 19.52 67.136 0.365 7.92 5.14 9.71
5/14/2023 1:30:00 PM 19.71 67.478 0.366 7.93 4.29 9.74
5/14/2023 1:45:00 PM 19.89 67.802 0.366 7.93 5.32 9.78
5/14/2023 2:00:00 PM 20.07 68.126 0.366 7.93 3.11 9.78
5/14/2023 2:15:00 PM 20.24 68.432 0.367 7.93 3.77 9.81
5/14/2023 2:30:00 PM 20.41 68.738 0.367 7.93 3.34 9.82
5/14/2023 2:45:00 PM 20.55 68.99 0.367 7.93 4.31 9.84
5/14/2023 3:00:00 PM 20.64 69.152 0.368 7.93 3.57 9.85
5/14/2023 3:15:00 PM 20.74 69.332 0.368 7.94 4.18 9.86
5/14/2023 3:30:00 PM 20.79 69.422 0.369 7.94 2.55 9.88
5/14/2023 3:45:00 PM 20.85 69.53 0.369 7.94 2.73 9.87
5/14/2023 4:00:00 PM 20.85 69.53 0.369 7.94 3.56 9.87
5/14/2023 4:15:00 PM 20.79 69.422 0.369 7.94 3.01 9.86
5/14/2023 4:30:00 PM 20.75 69.35 0.369 7.95 2.72 9.86
5/14/2023 4:45:00 PM 20.76 69.368 0.369 7.95 2.95 9.82
5/14/2023 5:00:00 PM 20.69 69.242 0.37 7.95 3.08 9.8
5/14/2023 5:15:00 PM 20.57 69.026 0.37 7.96 2.98 9.75
5/14/2023 5:30:00 PM 20.51 68.918 0.37 7.95 3.24 9.72
5/14/2023 5:45:00 PM 20.36 68.648 0.37 7.96 2.8 9.66
5/14/2023 6:00:00 PM 20.16 68.288 0.37 7.96 3.14 9.59
5/14/2023 6:15:00 PM 19.92 67.856 0.37 7.96 4.61 9.5
5/14/2023 6:30:00 PM 19.69 67.442 0.37 7.96 2.89 9.38
5/14/2023 6:45:00 PM 19.54 67.172 0.37 7.95 4.08 9.27
5/14/2023 7:00:00 PM 19.4 66.92 0.37 7.94 2.59 9.19
5/14/2023 7:15:00 PM 19.27 66.686 0.37 7.94 2.8 9.11
5/14/2023 7:30:00 PM 19.14 66.452 0.371 7.94 3.4 9
5/14/2023 7:45:00 PM 19.04 66.272 0.371 7.94 2.94 8.93
5/14/2023 8:00:00 PM 18.96 66.128 0.371 7.94 2.9 8.86
5/14/2023 8:15:00 PM 18.9 66.02 0.371 7.94 3.45 8.81
5/14/2023 8:30:00 PM 18.84 65.912 0.368 7.94 2.73 8.75
5/14/2023 8:45:00 PM 18.79 65.82201 0.372 7.93 4.13 8.66
5/14/2023 9:00:00 PM 18.75 65.75 0.372 7.93 3.48 8.62
5/14/2023 9:15:00 PM 18.72 65.696 0.372 7.93 4.15 8.61
5/14/2023 9:30:00 PM 18.7 65.66 0.372 7.93 3.78 8.6
5/14/2023 9:45:00 PM 18.68 65.624 0.37 7.94 4.02 8.57
5/14/2023 10:00:00 PM 18.65 65.57 0.371 7.94 3.75 8.57
5/14/2023 10:15:00 PM 18.66 65.588 0.371 7.95 3.8 8.61
5/14/2023 10:30:00 PM 18.66 65.588 0.371 7.95 6.82 8.62
5/14/2023 10:45:00 PM 18.64 65.552 0.37 7.97 4.21 8.65
5/14/2023 11:00:00 PM 18.63 65.534 0.371 7.98 4.12 8.68
5/14/2023 11:15:00 PM 18.62 65.516 0.371 7.99 4.29 8.71
5/14/2023 11:30:00 PM 18.61 65.498 0.362 8 3.71 8.73
5/14/2023 11:45:00 PM 18.6 65.48 0.37 8.01 4.05 8.75
5/15/2023 12:00:00 AM 18.61 65.498 0.37 8.02 4.14 8.78
5/15/2023 12:15:00 AM 18.62 65.516 0.37 8.03 4.37 8.79
5/15/2023 12:30:00 AM 18.63 65.534 0.37 8.04 5.63 8.81
5/15/2023 12:45:00 AM 18.65 65.57 0.369 8.05 5.59 8.82
5/15/2023 1:00:00 AM 18.68 65.624 0.369 8.06 4.27 8.86
5/15/2023 1:15:00 AM 18.71 65.67799 0.369 8.07 3.29 8.86
5/15/2023 1:30:00 AM 18.71 65.67799 0.316 8.08 3.59 8.85
5/15/2023 1:45:00 AM 18.74 65.732 0.369 8.09 4.62 8.88
5/15/2023 2:00:00 AM 18.78 65.804 0.363 8.1 4.35 8.89
5/15/2023 2:15:00 AM 18.77 65.786 0.368 8.1 4.31 8.87
5/15/2023 2:30:00 AM 18.78 65.804 0.361 8.1 4.4 8.85
5/15/2023 2:45:00 AM 18.79 65.82201 0.369 8.11 4.57 8.87
5/15/2023 3:00:00 AM 18.78 65.804 0.354 8.11 4.72 8.86
5/15/2023 3:15:00 AM 18.76 65.768 0.339 8.11 3.93 8.86
5/15/2023 3:30:00 AM 18.75 65.75 0.368 8.11 3.93 8.87
5/15/2023 3:45:00 AM 18.7 65.66 0.369 8.11 4.58 8.87
5/15/2023 4:00:00 AM 18.7 65.66 0.367 8.11 4.39 8.86
5/15/2023 4:15:00 AM 18.66 65.588 0.356 8.11 4.31 8.88
5/15/2023 4:30:00 AM 18.61 65.498 0.369 8.11 6.28 8.85
5/15/2023 4:45:00 AM 18.58 65.444 0.368 8.1 5.55 8.84
5/15/2023 5:00:00 AM 18.51 65.318 0.317 8.09 6.24 8.81
5/15/2023 5:15:00 AM 18.48 65.264 0.347 8.09 5.62 8.81
5/15/2023 5:30:00 AM 18.42 65.156 0.368 8.08 4.29 8.78
5/15/2023 5:45:00 AM 18.37 65.066 0.369 8.07 5 8.76
5/15/2023 6:00:00 AM 18.32 64.976 0.352 8.06 4.11 8.75
5/15/2023 6:15:00 AM 18.27 64.886 0.366 8.05 5.79 8.74
5/15/2023 6:30:00 AM 18.22 64.796 0.369 8.05 3.62 8.75
5/15/2023 6:45:00 AM 18.17 64.706 0.37 8.04 4.5 8.74
5/15/2023 7:00:00 AM 18.13 64.634 0.37 8.04 3.32 8.76
5/15/2023 7:15:00 AM 18.1 64.58 0.37 8.03 4.17 8.77
5/15/2023 7:30:00 AM 18.08 64.544 0.371 8.02 4.34 8.81
5/15/2023 7:45:00 AM 18.05 64.49 0.371 8.01 3.85 8.82
5/15/2023 8:00:00 AM 18.03 64.454 0.371 8.01 6.42 8.86
5/15/2023 8:15:00 AM 18.02 64.436 0.371 8.01 3.54 8.88
5/15/2023 8:30:00 AM 18.01 64.418 0.371 8 4.16 8.92
5/15/2023 8:45:00 AM 17.98 64.364 0.371 7.99 4.48 8.93
5/15/2023 9:00:00 AM 17.96 64.328 0.371 7.99 3.7 8.96
5/15/2023 9:15:00 AM 17.95 64.31 0.371 7.99 3.57 9
5/15/2023 9:30:00 AM 17.95 64.31 0.372 7.99 3.12 9.04
5/15/2023 9:45:00 AM 17.96 64.328 0.372 7.98 4.05 9.1
5/15/2023 10:00:00 AM 17.97 64.346 0.372 7.98 4.04 9.15
5/15/2023 10:15:00 AM 17.98 64.364 0.372 7.98 4.54 9.2
5/15/2023 10:30:00 AM 18.02 64.436 0.372 7.98 2.98 9.28
5/15/2023 10:45:00 AM 18.06 64.508 0.372 7.98 3.94 9.34
5/15/2023 11:00:00 AM 18.14 64.652 0.372 7.98 3.16 9.42
5/15/2023 11:15:00 AM 18.22 64.796 0.372 7.98 3.26 9.47
5/15/2023 11:30:00 AM 18.32 64.976 0.372 7.98 2.7 9.52
5/15/2023 11:45:00 AM 18.44 65.192 0.372 7.98 4.37 9.6
5/15/2023 12:00:00 PM 18.58 65.444 0.372 7.98 3.2 9.67
5/15/2023 12:15:00 PM 18.75 65.75 0.372 7.98 3.16 9.7
5/15/2023 12:30:00 PM 18.93 66.074 0.373 7.98 4.4 9.76
5/15/2023 12:45:00 PM 19.1 66.38 0.373 7.98 3.09 9.82
5/15/2023 1:00:00 PM 19.29 66.722 0.373 7.98 5.97 9.87
5/15/2023 1:15:00 PM 19.49 67.082 0.373 7.98 4.47 9.91
5/15/2023 1:30:00 PM 19.66 67.388 0.373 7.98 4.15 9.94
5/15/2023 1:45:00 PM 19.85 67.73 0.373 7.98 4.16 9.95
5/15/2023 2:00:00 PM 20.04 68.07201 0.373 7.98 3.21 9.98
5/15/2023 2:15:00 PM 20.19 68.342 0.373 7.98 4.35 9.99
5/15/2023 2:30:00 PM 20.33 68.594 0.374 7.98 3.65 10
5/15/2023 2:45:00 PM 20.51 68.918 0.374 7.98 7.24 10.04
5/15/2023 3:00:00 PM 20.64 69.152 0.374 7.98 4.38 10.02
5/15/2023 3:15:00 PM 20.77 69.386 0.374 7.97 6.11 10.02
5/15/2023 3:30:00 PM 20.88 69.584 0.374 7.98 3.83 10.01
5/15/2023 3:45:00 PM 20.92 69.656 0.374 7.98 3.24 10
5/15/2023 4:00:00 PM 20.98 69.764 0.374 7.98 3.51 9.98
5/15/2023 4:15:00 PM 21.02 69.836 0.374 7.98 3.91 9.96
5/15/2023 4:30:00 PM 21.05 69.89 0.374 7.98 4.34 9.91
5/15/2023 4:45:00 PM 21.01 69.818 0.374 7.98 3.26 9.9
5/15/2023 5:00:00 PM 20.94 69.692 0.374 7.98 5.65 9.85
5/15/2023 5:15:00 PM 20.86 69.548 0.374 7.98 4.95 9.83
5/15/2023 5:30:00 PM 20.77 69.386 0.374 7.98 4.1 9.76
5/15/2023 5:45:00 PM 20.62 69.116 0.374 7.98 4.69 9.68
5/15/2023 6:00:00 PM 20.45 68.81 0.374 7.98 4.28 9.63
5/15/2023 6:15:00 PM 20.31 68.558 0.374 7.98 4.45 9.55
5/15/2023 6:30:00 PM 20.11 68.198 0.374 7.97 3.43 9.44
5/15/2023 6:45:00 PM 19.89 67.802 0.374 7.98 3.61 9.36
5/15/2023 7:00:00 PM 19.7 67.46 0.374 7.98 4.38 9.26
5/15/2023 7:15:00 PM 19.57 67.226 0.374 7.97 5.66 9.16
5/15/2023 7:30:00 PM 19.41 66.938 0.374 7.97 3.37 9.06
5/15/2023 7:45:00 PM 19.28 66.704 0.374 7.97 3.43 8.98
5/15/2023 8:00:00 PM 19.16 66.488 0.373 7.97 3.64 8.9
5/15/2023 8:15:00 PM 19.05 66.29 0.374 7.96 4.9 8.8
5/15/2023 8:30:00 PM 18.97 66.146 0.373 7.96 3.21 8.72
5/15/2023 8:45:00 PM 18.88 65.984 0.374 7.95 3.53 8.62
5/15/2023 9:00:00 PM 18.82 65.876 0.369 7.95 8.07 8.58
5/15/2023 9:15:00 PM 18.77 65.786 0.328 7.95 8.19 8.54
5/15/2023 9:30:00 PM 18.72 65.696 0.371 7.95 4.13 8.5
5/15/2023 9:45:00 PM 18.68 65.624 0.373 7.95 4.74 8.47
5/15/2023 10:00:00 PM 18.66 65.588 0.373 7.95 6.03 8.47
5/15/2023 10:15:00 PM 18.63 65.534 0.373 7.95 4.66 8.46
5/15/2023 10:30:00 PM 18.63 65.534 0.373 7.96 4.22 8.48
5/15/2023 10:45:00 PM 18.62 65.516 0.373 7.96 4.24 8.49
5/15/2023 11:00:00 PM 18.61 65.498 0.373 7.97 5.53 8.51
5/15/2023 11:15:00 PM 18.62 65.516 0.372 7.97 3.95 8.56
5/15/2023 11:30:00 PM 18.63 65.534 0.372 7.99 3.95 8.59
5/15/2023 11:45:00 PM 18.65 65.57 0.37 8.01 8.74 8.63
5/16/2023 12:00:00 AM 18.65 65.57 0.371 8.02 5.72 8.62
5/16/2023 12:15:00 AM 18.67 65.606 0.361 8.03 9.53 8.65
5/16/2023 12:30:00 AM 18.71 65.67799 0.368 8.05 10.54 8.7
5/16/2023 12:45:00 AM 18.72 65.696 0.37 8.06 6.1 8.7
5/16/2023 1:00:00 AM 18.74 65.732 0.37 8.08 4.28 8.73
5/16/2023 1:15:00 AM 18.77 65.786 0.366 8.09 4.41 8.78
5/16/2023 1:30:00 AM 18.79 65.82201 0.368 8.1 4.54 8.79
5/16/2023 1:45:00 AM 18.8 65.84 0.369 8.11 4.48 8.8
5/16/2023 2:00:00 AM 18.83 65.894 0.369 8.12 4.66 8.82
5/16/2023 2:15:00 AM 18.85 65.93 0.369 8.14 4.05 8.82
5/16/2023 2:30:00 AM 18.85 65.93 0.362 8.15 4.91 8.81
5/16/2023 2:45:00 AM 18.89 66.002 0.367 8.16 4.26 8.85
5/16/2023 3:00:00 AM 18.89 66.002 0.369 8.17 4.58 8.85
5/16/2023 3:15:00 AM 18.91 66.038 0.364 8.17 4.59 8.85
5/16/2023 3:30:00 AM 18.92 66.056 0.356 8.18 7.01 8.83
5/16/2023 3:45:00 AM 18.94 66.092 0.367 8.19 6.44 8.85
5/16/2023 4:00:00 AM 18.95 66.11 0.368 8.2 3.41 8.85
5/16/2023 4:15:00 AM 18.93 66.074 0.367 8.2 5.25 8.85
5/16/2023 4:30:00 AM 18.93 66.074 0.369 8.2 4.47 8.82
5/16/2023 4:45:00 AM 18.91 66.038 0.367 8.2 4.55 8.79
5/16/2023 5:00:00 AM 18.89 66.002 0.367 8.2 4.95 8.78
5/16/2023 5:15:00 AM 18.87 65.966 0.368 8.2 5.88 8.75
5/16/2023 5:30:00 AM 18.86 65.948 0.366 8.19 5.3 8.73
5/16/2023 5:45:00 AM 18.83 65.894 0.367 8.2 5.65 8.71
5/16/2023 6:00:00 AM 18.81 65.858 0.348 8.19 4.6 8.69
5/16/2023 6:15:00 AM 18.77 65.786 0.368 8.18 4.63 8.68
5/16/2023 6:30:00 AM 18.75 65.75 0.369 8.17 4.69 8.68
5/16/2023 6:45:00 AM 18.72 65.696 0.37 8.17 3.88 8.67
5/16/2023 7:00:00 AM 18.71 65.67799 0.37 8.16 4.35 8.7
5/16/2023 7:15:00 AM 18.7 65.66 0.368 8.15 4.28 8.67
5/16/2023 7:30:00 AM 18.71 65.67799 0.37 8.14 5.63 8.73
5/16/2023 7:45:00 AM 18.74 65.732 0.37 8.14 3.99 8.75
5/16/2023 8:00:00 AM 18.77 65.786 0.37 8.13 3.82 8.79
5/16/2023 8:15:00 AM 18.81 65.858 0.371 8.12 5.36 8.85
5/16/2023 8:30:00 AM 18.85 65.93 0.371 8.12 3.82 8.88
5/16/2023 8:45:00 AM 18.88 65.984 0.371 8.11 3.8 8.92
5/16/2023 9:00:00 AM 18.91 66.038 0.372 8.11 3.28 8.98
5/16/2023 9:15:00 AM 18.93 66.074 0.372 8.1 3.43 9.02
5/16/2023 9:30:00 AM 18.98 66.164 0.368 8.1 3.7 9.09
5/16/2023 9:45:00 AM 19.02 66.236 0.372 8.09 3.63 9.14
5/16/2023 10:00:00 AM 19.06 66.308 0.373 8.09 3.71 9.18
5/16/2023 10:15:00 AM 19.1 66.38 0.373 8.09 4.35 9.23
5/16/2023 10:30:00 AM 19.16 66.488 0.373 8.08 3.24 9.28
5/16/2023 10:45:00 AM 19.22 66.596 0.374 8.07 3.41 9.34
5/16/2023 11:00:00 AM 19.31 66.758 0.374 8.07 3.33 9.4
5/16/2023 11:15:00 AM 19.42 66.956 0.374 8.06 4.74 9.48
5/16/2023 11:30:00 AM 19.53 67.154 0.367 8.06 5.25 9.57
5/16/2023 11:45:00 AM 19.66 67.388 0.375 8.06 3 9.62
5/16/2023 12:00:00 PM 19.77 67.586 0.375 8.06 5.04 9.67
5/16/2023 12:15:00 PM 19.89 67.802 0.375 8.06 4.49 9.73
5/16/2023 12:30:00 PM 20.02 68.036 0.375 8.06 3.38 9.78
5/16/2023 12:45:00 PM 20.19 68.342 0.376 8.06 4.4 9.79
5/16/2023 1:00:00 PM 20.35 68.63 0.376 8.05 3.99 9.85
5/16/2023 1:15:00 PM 20.55 68.99 0.376 8.05 3.91 9.86
5/16/2023 1:30:00 PM 20.65 69.17 0.377 8.05 3.98 9.89
5/16/2023 1:45:00 PM 20.69 69.242 0.377 8.05 3.98 9.9
5/16/2023 2:00:00 PM 20.71 69.278 0.377 8.04 3.83 9.89
5/16/2023 2:15:00 PM 20.77 69.386 0.377 8.04 3.38 9.88
5/16/2023 2:30:00 PM 20.69 69.242 0.378 8.04 4.14 9.84
5/16/2023 2:45:00 PM 20.72 69.296 0.378 8.03 3.98 9.83
5/16/2023 3:00:00 PM 20.76 69.368 0.378 8.03 3.58 9.8
5/16/2023 3:15:00 PM 20.67 69.206 0.378 8.02 4.24 9.73
5/16/2023 3:30:00 PM 20.54 68.972 0.378 8.02 3.81 9.62
5/16/2023 3:45:00 PM 20.49 68.882 0.378 8.01 4.26 9.57
5/16/2023 4:00:00 PM 20.48 68.864 0.378 8.01 3.35 9.53
5/16/2023 4:15:00 PM 20.44 68.792 0.379 8 4.86 9.49
5/16/2023 4:30:00 PM 20.34 68.612 0.379 8 3.97 9.39
5/16/2023 4:45:00 PM 20.39 68.702 0.379 7.99 4.73 9.38
5/16/2023 5:00:00 PM 20.39 68.702 0.379 7.98 3.43 9.32
5/16/2023 5:15:00 PM 20.33 68.594 0.379 7.98 3.58 9.27
5/16/2023 5:30:00 PM 20.29 68.522 0.379 7.97 3.55 9.26
5/16/2023 5:45:00 PM 20.24 68.432 0.379 7.97 4.08 9.23
5/16/2023 6:00:00 PM 20.18 68.324 0.38 7.97 5.36 9.19
5/16/2023 6:15:00 PM 20.02 68.036 0.379 7.97 4.03 9.1
5/16/2023 6:30:00 PM 19.91 67.838 0.38 7.96 3.26 9.01
5/16/2023 6:45:00 PM 19.8 67.64 0.38 7.95 3.92 8.95
5/16/2023 7:00:00 PM 19.67 67.406 0.38 7.95 3.79 8.81
5/16/2023 7:15:00 PM 19.55 67.19 0.38 7.95 3.75 8.69
5/16/2023 7:30:00 PM 19.46 67.028 0.38 7.93 4.18 8.58
5/16/2023 7:45:00 PM 19.37 66.866 0.38 7.92 3.45 8.47
5/16/2023 8:00:00 PM 19.29 66.722 0.38 7.91 3.93 8.37
5/16/2023 8:15:00 PM 19.2 66.56 0.38 7.91 3.99 8.25
5/16/2023 8:30:00 PM 19.13 66.434 0.379 7.9 4.62 8.19
5/16/2023 8:45:00 PM 19.07 66.326 0.374 7.89 3.55 8.12
5/16/2023 9:00:00 PM 19.02 66.236 0.351 7.88 5.17 8.1
5/16/2023 9:15:00 PM 18.97 66.146 0.375 7.88 5.43 8.04
5/16/2023 9:30:00 PM 18.93 66.074 0.375 7.88 3.82 8.04
5/16/2023 9:45:00 PM 18.89 66.002 0.379 7.88 8.76 8
5/16/2023 10:00:00 PM 18.86 65.948 0.379 7.88 4.21 8
5/16/2023 10:15:00 PM 18.84 65.912 0.379 7.88 4.07 8
5/16/2023 10:30:00 PM 18.83 65.894 0.378 7.88 3.49 8.01
5/16/2023 10:45:00 PM 18.82 65.876 0.376 7.89 4.12 8.05
5/16/2023 11:00:00 PM 18.81 65.858 0.377 7.89 3.72 8.08
5/16/2023 11:15:00 PM 18.81 65.858 0.377 7.9 3.86 8.1
5/16/2023 11:30:00 PM 18.82 65.876 0.371 7.92 4.66 8.15
5/16/2023 11:45:00 PM 18.83 65.894 0.375 7.93 8.65 8.19
5/17/2023 12:00:00 AM 18.84 65.912 0.375 7.95 8.3 8.22
5/17/2023 12:15:00 AM 18.85 65.93 0.375 7.96 5.18 8.25
5/17/2023 12:30:00 AM 18.87 65.966 0.374 7.97 5.89 8.28
5/17/2023 12:45:00 AM 18.88 65.984 0.374 7.98 6.06 8.3
5/17/2023 1:00:00 AM 18.9 66.02 0.373 8 3.43 8.37
5/17/2023 1:15:00 AM 18.9 66.02 0.373 8.01 5.36 8.36
5/17/2023 1:30:00 AM 18.91 66.038 0.348 8.02 5.04 8.39
5/17/2023 1:45:00 AM 18.92 66.056 0.359 8.04 4.02 8.42
5/17/2023 2:00:00 AM 18.94 66.092 0.348 8.05 5.21 8.47
5/17/2023 2:15:00 AM 18.94 66.092 0.372 8.07 4.34 8.49
5/17/2023 2:30:00 AM 18.96 66.128 0.372 8.08 4.72 8.53
5/17/2023 2:45:00 AM 18.97 66.146 0.371 8.1 5.07 8.56
5/17/2023 3:00:00 AM 18.99 66.182 0.371 8.11 5.48 8.6
5/17/2023 3:15:00 AM 19 66.2 0.371 8.13 3.65 8.58
5/17/2023 3:30:00 AM 19.04 66.272 0.371 8.14 4.51 8.64
5/17/2023 3:45:00 AM 19.05 66.29 0.371 8.15 4.65 8.64
5/17/2023 4:00:00 AM 19.05 66.29 0.371 8.17 4.78 8.65
5/17/2023 4:15:00 AM 19.08 66.344 0.371 8.18 4.31 8.69
5/17/2023 4:30:00 AM 19.08 66.344 0.37 8.19 4.09 8.69
5/17/2023 4:45:00 AM 19.08 66.344 0.37 8.2 4.44 8.72
5/17/2023 5:00:00 AM 19.07 66.326 0.362 8.21 5.31 8.7
5/17/2023 5:15:00 AM 19.06 66.308 0.368 8.22 5.12 8.68
5/17/2023 5:30:00 AM 19.04 66.272 0.363 8.22 4.08 8.67
5/17/2023 5:45:00 AM 19.02 66.236 0.366 8.22 4.66 8.64
5/17/2023 6:00:00 AM 18.98 66.164 0.362 8.22 4.95 8.64
5/17/2023 6:15:00 AM 18.91 66.038 0.363 8.22 4.92 8.61
5/17/2023 6:30:00 AM 18.86 65.948 0.337 8.21 4.36 8.62
5/17/2023 6:45:00 AM 18.81 65.858 0.333 8.21 5.1 8.64
5/17/2023 7:00:00 AM 18.77 65.786 0.337 8.21 3.42 8.66
5/17/2023 7:15:00 AM 18.73 65.714 0.367 8.21 5.09 8.69
5/17/2023 7:30:00 AM 18.68 65.624 0.366 8.21 3.67 8.73
5/17/2023 7:45:00 AM 18.64 65.552 0.366 8.21 3.61 8.77
5/17/2023 8:00:00 AM 18.62 65.516 0.361 8.21 5.17 8.82
5/17/2023 8:15:00 AM 18.61 65.498 0.365 8.2 3.84 8.85
5/17/2023 8:30:00 AM 18.58 65.444 0.365 8.2 3.25 8.86
5/17/2023 8:45:00 AM 18.56 65.408 0.364 8.19 3.41 8.9
5/17/2023 9:00:00 AM 18.57 65.426 0.361 8.19 3.82 8.94
5/17/2023 9:15:00 AM 18.57 65.426 0.362 8.18 3.08 9
5/17/2023 9:30:00 AM 18.54 65.372 0.355 8.18 3.65 9.06
5/17/2023 9:45:00 AM 18.55 65.39 0.356 8.18 3.67 9.14
5/17/2023 10:00:00 AM 18.56 65.408 0.358 8.18 5.22 9.21
5/17/2023 10:15:00 AM 18.6 65.48 0.358 8.17 3.41 9.25
5/17/2023 10:30:00 AM 18.7 65.66 0.357 8.17 3.47 9.31
5/17/2023 10:45:00 AM 18.72 65.696 0.365 8.17 3.73 9.35
5/17/2023 11:00:00 AM 18.8 65.84 0.365 8.16 3.8 9.45
5/17/2023 11:15:00 AM 18.91 66.038 0.366 8.16 6.53 9.5
5/17/2023 11:30:00 AM 19 66.2 0.366 8.15 3.12 9.52
5/17/2023 11:45:00 AM 19.16 66.488 0.364 8.15 3.49 9.57
5/17/2023 12:00:00 PM 19.34 66.812 0.365 8.14 4.08 9.6
5/17/2023 12:15:00 PM 19.52 67.136 0.366 8.13 4.46 9.66
5/17/2023 12:30:00 PM 19.71 67.478 0.367 8.13 3.62 9.7
5/17/2023 12:45:00 PM 19.92 67.856 0.367 8.12 3.86 9.77
5/17/2023 1:00:00 PM 20.12 68.216 0.367 8.12 3.17 9.82
5/17/2023 1:15:00 PM 20.33 68.594 0.367 8.12 3.41 9.86
5/17/2023 1:30:00 PM 20.51 68.918 0.365 8.11 3.55 9.89
5/17/2023 1:45:00 PM 20.68 69.224 0.367 8.1 3.51 9.9
5/17/2023 2:00:00 PM 20.85 69.53 0.368 8.1 4.08 9.95
5/17/2023 2:15:00 PM 20.98 69.764 0.368 8.1 3.92 9.94
5/17/2023 2:30:00 PM 21.1 69.98 0.37 8.09 2.91 9.93
5/17/2023 2:45:00 PM 21.27 70.286 0.373 8.09 3.3 9.96
5/17/2023 3:00:00 PM 21.42 70.556 0.371 8.08 6.08 9.95
5/17/2023 3:15:00 PM 21.53 70.754 0.372 8.08 4.62 9.94
5/17/2023 3:30:00 PM 21.61 70.898 0.376 8.07 5.4 9.94
5/17/2023 3:45:00 PM 21.68 71.024 0.376 8.06 4.87 9.92
5/17/2023 4:00:00 PM 21.74 71.132 0.377 8.06 5.28 9.86
5/17/2023 4:15:00 PM 21.74 71.132 0.375 8.05 5.94 9.85
5/17/2023 4:30:00 PM 21.74 71.132 0.378 8.05 3.04 9.81
5/17/2023 4:45:00 PM 21.67 71.006 0.378 8.04 3.31 9.76
5/17/2023 5:00:00 PM 21.56 70.808 0.378 8.04 3.5 9.72
5/17/2023 5:15:00 PM 21.38 70.484 0.379 8.04 3.38 9.66
5/17/2023 5:30:00 PM 21.18 70.124 0.379 8.04 4 9.56
5/17/2023 5:45:00 PM 20.99 69.782 0.38 8.03 4.15 9.5
5/17/2023 6:00:00 PM 20.8 69.44 0.38 8.03 4.18 9.4
5/17/2023 6:15:00 PM 20.6 69.08 0.381 8.01 4.21 9.31
5/17/2023 6:30:00 PM 20.36 68.648 0.381 8.02 4.05 9.18
5/17/2023 6:45:00 PM 20.12 68.216 0.381 8.01 3.74 9.08
5/17/2023 7:00:00 PM 19.89 67.802 0.382 8.01 3.66 8.95
5/17/2023 7:15:00 PM 19.68 67.424 0.382 7.99 4.05 8.82
5/17/2023 7:30:00 PM 19.51 67.118 0.381 7.98 4.2 8.71
5/17/2023 7:45:00 PM 19.37 66.866 0.382 7.97 3.37 8.58
5/17/2023 8:00:00 PM 19.22 66.596 0.379 7.96 3.26 8.46
5/17/2023 8:15:00 PM 19.09 66.362 0.379 7.95 4.88 8.34
5/17/2023 8:30:00 PM 18.97 66.146 0.383 7.95 2.92 8.25
5/17/2023 8:45:00 PM 18.87 65.966 0.348 7.94 4.69 8.16
5/17/2023 9:00:00 PM 18.78 65.804 0.348 7.93 4.01 8.1
5/17/2023 9:15:00 PM 18.71 65.67799 0.385 7.92 5.91 8.03
5/17/2023 9:30:00 PM 18.62 65.516 0.385 7.92 3.48 7.96
5/17/2023 9:45:00 PM 18.56 65.408 0.385 7.91 4.48 7.93
5/17/2023 10:00:00 PM 18.5 65.3 0.385 7.9 3.73 7.91
5/17/2023 10:15:00 PM 18.45 65.21 0.386 7.9 4.79 7.91
5/17/2023 10:30:00 PM 18.4 65.12 0.386 7.9 4.57 7.93
5/17/2023 10:45:00 PM 18.34 65.012 0.386 7.9 4.81 7.93
5/17/2023 11:00:00 PM 18.31 64.958 0.386 7.9 6.32 7.95
5/17/2023 11:15:00 PM 18.27 64.886 0.386 7.91 3.5 8.01
5/17/2023 11:30:00 PM 18.23 64.814 0.387 7.91 4.68 8.03
5/17/2023 11:45:00 PM 18.2 64.76 0.386 7.93 2.79 8.05
5/18/2023 12:00:00 AM 18.17 64.706 0.386 7.95 4.07 8.1
5/18/2023 12:15:00 AM 18.14 64.652 0.386 7.95 3.78 8.13
5/18/2023 12:30:00 AM 18.13 64.634 0.37 7.97 3.1 8.19
5/18/2023 12:45:00 AM 18.1 64.58 0.38 7.98 7.48 8.23
5/18/2023 1:00:00 AM 18.07 64.526 0.369 7.99 5.38 8.24
5/18/2023 1:15:00 AM 18.08 64.544 0.384 8.01 3.98 8.32
5/18/2023 1:30:00 AM 18.07 64.526 0.382 8.02 4.12 8.35
5/18/2023 1:45:00 AM 18.07 64.526 0.381 8.05 3.3 8.41
5/18/2023 2:00:00 AM 18.06 64.508 0.378 8.06 4.41 8.45
5/18/2023 2:15:00 AM 18.06 64.508 0.378 8.08 5.4 8.5
5/18/2023 2:30:00 AM 18.02 64.436 0.376 8.1 4.8 8.51
5/18/2023 2:45:00 AM 18.03 64.454 0.381 8.11 4.7 8.57
5/18/2023 3:00:00 AM 18.03 64.454 0.381 8.13 4.97 8.62
5/18/2023 3:15:00 AM 18.02 64.436 0.381 8.14 5.19 8.63
5/18/2023 3:30:00 AM 18.01 64.418 0.38 8.16 4.44 8.65
5/18/2023 3:45:00 AM 18 64.4 0.38 8.18 4.64 8.71
5/18/2023 4:00:00 AM 18 64.4 0.38 8.19 3.52 8.73
5/18/2023 4:15:00 AM 17.97 64.346 0.377 8.2 4.09 8.76
5/18/2023 4:30:00 AM 17.97 64.346 0.376 8.22 4.63 8.78
5/18/2023 4:45:00 AM 17.92 64.256 0.376 8.22 4.44 8.78
5/18/2023 5:00:00 AM 17.91 64.238 0.376 8.24 5.82 8.81
5/18/2023 5:15:00 AM 17.88 64.184 0.376 8.25 5 8.83
5/18/2023 5:30:00 AM 17.87 64.166 0.376 8.25 5.5 8.85
5/18/2023 5:45:00 AM 17.82 64.076 0.376 8.26 5.21 8.82
5/18/2023 6:00:00 AM 17.82 64.076 0.379 8.26 4.64 8.86
5/18/2023 6:15:00 AM 17.78 64.004 0.379 8.27 5.31 8.87
5/18/2023 6:30:00 AM 17.76 63.968 0.379 8.27 4.65 8.92
5/18/2023 6:45:00 AM 17.71 63.878 0.38 8.28 4.88 8.92
5/18/2023 7:00:00 AM 17.7 63.86 0.38 8.28 5.19 8.93
5/18/2023 7:15:00 AM 17.67 63.806 0.38 8.28 5.95 8.99
5/18/2023 7:30:00 AM 17.67 63.806 0.38 8.29 4.34 9.02
5/18/2023 7:45:00 AM 17.68 63.824 0.38 8.29 3.49 9.08
5/18/2023 8:00:00 AM 17.68 63.824 0.38 8.29 3.38 9.14
5/18/2023 8:15:00 AM 17.7 63.86 0.38 8.3 3.43 9.22
5/18/2023 8:30:00 AM 17.7 63.86 0.38 8.3 4.63 9.27
5/18/2023 8:45:00 AM 17.7 63.86 0.381 8.3 4.55 9.31
5/18/2023 9:00:00 AM 17.72 63.896 0.38 8.31 4.04 9.41
5/18/2023 9:15:00 AM 17.74 63.932 0.381 8.3 3.14 9.47
5/18/2023 9:30:00 AM 17.74 63.932 0.381 8.3 3.1 9.49
5/18/2023 9:45:00 AM 17.76 63.968 0.381 8.31 4.82 9.61
5/18/2023 10:00:00 AM 17.77 63.986 0.381 8.31 3.19 9.7
5/18/2023 10:15:00 AM 17.83 64.094 0.382 8.31 3.17 9.8
5/18/2023 10:30:00 AM 17.86 64.148 0.382 8.31 3.26 9.89
5/18/2023 10:45:00 AM 17.93 64.274 0.382 8.31 3.11 9.97
5/18/2023 11:00:00 AM 17.99 64.382 0.382 8.32 3.79 10.04
5/18/2023 11:15:00 AM 18.08 64.544 0.382 8.31 3.64 10.1
5/18/2023 11:30:00 AM 18.21 64.778 0.383 8.3 4.79 10.17
5/18/2023 11:45:00 AM 18.34 65.012 0.383 8.3 4.19 10.23
5/18/2023 12:00:00 PM 18.47 65.246 0.383 8.29 3.6 10.26
5/18/2023 12:15:00 PM 18.63 65.534 0.384 8.29 3.76 10.32
5/18/2023 12:30:00 PM 18.84 65.912 0.384 8.28 4.66 10.37
5/18/2023 12:45:00 PM 19.01 66.218 0.384 8.28 4.23 10.42
5/18/2023 1:00:00 PM 19.21 66.578 0.384 8.27 5.71 10.43
5/18/2023 1:15:00 PM 19.41 66.938 0.385 8.26 3.57 10.48
5/18/2023 1:30:00 PM 19.58 67.244 0.385 8.25 4.08 10.51
5/18/2023 1:45:00 PM 19.73 67.514 0.385 8.25 3.36 10.52
5/18/2023 2:00:00 PM 19.89 67.802 0.385 8.24 4.59 10.54
5/18/2023 2:15:00 PM 20.06 68.108 0.386 8.23 4.88 10.52
5/18/2023 2:30:00 PM 20.22 68.396 0.386 8.22 4.52 10.54
5/18/2023 2:45:00 PM 20.36 68.648 0.386 8.21 3.29 10.52
5/18/2023 3:00:00 PM 20.5 68.9 0.387 8.2 2.98 10.5
5/18/2023 3:15:00 PM 20.59 69.062 0.387 8.2 4.13 10.51
5/18/2023 3:30:00 PM 20.67 69.206 0.388 8.18 2.76 10.47
5/18/2023 3:45:00 PM 20.72 69.296 0.388 8.18 3.19 10.46
5/18/2023 4:00:00 PM 20.77 69.386 0.389 8.17 5.49 10.42
5/18/2023 4:15:00 PM 20.75 69.35 0.389 8.16 3.19 10.38
5/18/2023 4:30:00 PM 20.72 69.296 0.39 8.14 3.12 10.34
5/18/2023 4:45:00 PM 20.72 69.296 0.39 8.13 3.18 10.28
5/18/2023 5:00:00 PM 20.6 69.08 0.391 8.12 3.98 10.22
5/18/2023 5:15:00 PM 20.48 68.864 0.391 8.11 3.98 10.14
5/18/2023 5:30:00 PM 20.34 68.612 0.392 8.1 3.83 10.08
5/18/2023 5:45:00 PM 20.17 68.306 0.392 8.1 3.24 9.98
5/18/2023 6:00:00 PM 20.02 68.036 0.393 8.09 3.05 9.87
5/18/2023 6:15:00 PM 19.85 67.73 0.393 8.07 4.16 9.75
5/18/2023 6:30:00 PM 19.59 67.262 0.393 8.06 5.86 9.61
5/18/2023 6:45:00 PM 19.35 66.83 0.394 8.05 4.75 9.47
5/18/2023 7:00:00 PM 19.12 66.416 0.394 8.04 3.53 9.34

These are provisional data and have not been subject to a quality assurance process, but rather are the raw data reported by the instrument.
H: value is above sensor operating range
L: value is below sensor operating range
Offline: station is not reporting data
NC: parameter is not collected at site

Data Availability & Limitations

Uncertainty and potential for error can be associated with environmental monitoring data. Provisional data have not been subject to a quality assurance process, but rather are the raw data reported by the instrument. Data users are cautioned to consider carefully the provisional nature of the information before using it for decisions that concern personal or public safety or the conduct of business that involves substantial monetary or operational consequences.

Approved data are currently available by request by emailing: [email protected]. Approved data have been subject to a quality assurance process to correct for equipment or fouling drift. Data recorded during equipment malfunctions have been removed.

View Historical Stations that have been discontinued.